<?xml version='1.0' encoding='UTF-8'?><gpx version="1.1" creator="JPX - https://github.com/jenetics/jpx" xmlns="http://www.topografix.com/GPX/1/1"><trk><trkseg><trkpt lat="45.6659949" lon="12.2260995"><ele>15.999999999999998</ele><time>2026-03-22T09:24:42.775Z</time></trkpt><trkpt lat="45.6660186" lon="12.2261879"><ele>16.0</ele><time>2026-03-22T09:24:46.73Z</time></trkpt><trkpt lat="45.6660352" lon="12.2263095"><ele>16.0</ele><time>2026-03-22T09:24:49.847Z</time></trkpt><trkpt lat="45.6660109" lon="12.2264011"><ele>16.0</ele><time>2026-03-22T09:24:52.846Z</time></trkpt><trkpt lat="45.6660092" lon="12.2265068"><ele>15.999999999999998</ele><time>2026-03-22T09:24:57.189Z</time></trkpt><trkpt lat="45.6660256" lon="12.2266096"><ele>16.0</ele><time>2026-03-22T09:25:01.47Z</time></trkpt><trkpt lat="45.6660864" lon="12.2267269"><ele>16.0</ele><time>2026-03-22T09:25:06.884Z</time></trkpt><trkpt lat="45.6660456" lon="12.2268136"><ele>15.999999999999998</ele><time>2026-03-22T09:25:10.607Z</time></trkpt><trkpt lat="45.6659737" lon="12.2268241"><ele>16.0</ele><time>2026-03-22T09:25:13.817Z</time></trkpt><trkpt lat="45.6659012" lon="12.2268607"><ele>16.0</ele><time>2026-03-22T09:25:17.788Z</time></trkpt><trkpt lat="45.6658813" lon="12.2269558"><ele>15.999999999999998</ele><time>2026-03-22T09:25:21.724Z</time></trkpt><trkpt lat="45.6659215" lon="12.2270269"><ele>16.0</ele><time>2026-03-22T09:25:24.802Z</time></trkpt><trkpt lat="45.6659918" lon="12.2270859"><ele>16.0</ele><time>2026-03-22T09:25:27.84Z</time></trkpt><trkpt lat="45.6660638" lon="12.2271198"><ele>16.0</ele><time>2026-03-22T09:25:30.836Z</time></trkpt><trkpt lat="45.6661189" lon="12.2272069"><ele>15.999999999999998</ele><time>2026-03-22T09:25:34.791Z</time></trkpt><trkpt lat="45.6661479" lon="12.2272973"><ele>16.0</ele><time>2026-03-22T09:25:39.826Z</time></trkpt><trkpt lat="45.6661747" lon="12.227388"><ele>16.0</ele><time>2026-03-22T09:25:43.781Z</time></trkpt><trkpt lat="45.66625" lon="12.2274198"><ele>15.999999999999998</ele><time>2026-03-22T09:25:47.855Z</time></trkpt><trkpt lat="45.6663106" lon="12.2273914"><ele>16.0</ele><time>2026-03-22T09:25:50.852Z</time></trkpt><trkpt lat="45.6663462" lon="12.2274773"><ele>16.0</ele><time>2026-03-22T09:25:55.803Z</time></trkpt><trkpt lat="45.6663362" lon="12.2275987"><ele>16.142857142857142</ele><time>2026-03-22T09:25:58.763Z</time></trkpt><trkpt lat="45.6663253" lon="12.2277062"><ele>16.285714285714285</ele><time>2026-03-22T09:26:01.826Z</time></trkpt><trkpt lat="45.6663297" lon="12.227807"><ele>16.428571428571427</ele><time>2026-03-22T09:26:05.834Z</time></trkpt><trkpt lat="45.6663478" lon="12.2279016"><ele>16.57142857142857</ele><time>2026-03-22T09:26:10.867Z</time></trkpt><trkpt lat="45.6663754" lon="12.2279963"><ele>16.714285714285715</ele><time>2026-03-22T09:26:15.781Z</time></trkpt><trkpt lat="45.6663873" lon="12.228096"><ele>16.857142857142854</ele><time>2026-03-22T09:26:20.815Z</time></trkpt><trkpt lat="45.6663917" lon="12.2281964"><ele>17.0</ele><time>2026-03-22T09:26:24.771Z</time></trkpt><trkpt lat="45.666388" lon="12.2282936"><ele>17.333333333333336</ele><time>2026-03-22T09:26:27.885Z</time></trkpt><trkpt lat="45.6663746" lon="12.2284058"><ele>17.666666666666668</ele><time>2026-03-22T09:26:30.883Z</time></trkpt><trkpt lat="45.6664115" lon="12.2285132"><ele>18.0</ele><time>2026-03-22T09:26:34.805Z</time></trkpt><trkpt lat="45.6664459" lon="12.2285887"><ele>18.333333333333332</ele><time>2026-03-22T09:26:37.722Z</time></trkpt><trkpt lat="45.6664714" lon="12.2286855"><ele>18.666666666666664</ele><time>2026-03-22T09:26:40.708Z</time></trkpt><trkpt lat="45.6664813" lon="12.2288004"><ele>19.0</ele><time>2026-03-22T09:26:44.623Z</time></trkpt><trkpt lat="45.6665025" lon="12.2289005"><ele>18.857142857142858</ele><time>2026-03-22T09:26:48.748Z</time></trkpt><trkpt lat="45.6664924" lon="12.2289906"><ele>18.714285714285715</ele><time>2026-03-22T09:26:54.853Z</time></trkpt><trkpt lat="45.6665068" lon="12.2290972"><ele>18.571428571428573</ele><time>2026-03-22T09:27:15.826Z</time></trkpt><trkpt lat="45.6665213" lon="12.2291888"><ele>18.42857142857143</ele><time>2026-03-22T09:27:19.781Z</time></trkpt><trkpt lat="45.6665181" lon="12.2292889"><ele>18.285714285714285</ele><time>2026-03-22T09:27:25.893Z</time></trkpt><trkpt lat="45.6665349" lon="12.2294009"><ele>18.142857142857146</ele><time>2026-03-22T09:27:29.848Z</time></trkpt><trkpt lat="45.6665584" lon="12.2294849"><ele>18.0</ele><time>2026-03-22T09:27:32.862Z</time></trkpt><trkpt lat="45.666577" lon="12.229582"><ele>18.0</ele><time>2026-03-22T09:27:35.708Z</time></trkpt><trkpt lat="45.6665891" lon="12.2296938"><ele>18.0</ele><time>2026-03-22T09:27:38.837Z</time></trkpt><trkpt lat="45.6665928" lon="12.2297935"><ele>18.0</ele><time>2026-03-22T09:27:41.834Z</time></trkpt><trkpt lat="45.6666184" lon="12.2299036"><ele>18.0</ele><time>2026-03-22T09:27:45.626Z</time></trkpt><trkpt lat="45.6666246" lon="12.2300103"><ele>18.0</ele><time>2026-03-22T09:27:49.863Z</time></trkpt><trkpt lat="45.6666226" lon="12.230121"><ele>18.0</ele><time>2026-03-22T09:27:53.819Z</time></trkpt><trkpt lat="45.6666441" lon="12.2302191"><ele>17.857142857142858</ele><time>2026-03-22T09:27:57.773Z</time></trkpt><trkpt lat="45.6666556" lon="12.2303085"><ele>17.714285714285715</ele><time>2026-03-22T09:28:01.286Z</time></trkpt><trkpt lat="45.6666523" lon="12.2304173"><ele>17.57142857142857</ele><time>2026-03-22T09:28:04.844Z</time></trkpt><trkpt lat="45.6666578" lon="12.2305236"><ele>17.42857142857143</ele><time>2026-03-22T09:28:08.799Z</time></trkpt><trkpt lat="45.6666507" lon="12.2306291"><ele>17.285714285714285</ele><time>2026-03-22T09:28:12.881Z</time></trkpt><trkpt lat="45.6666777" lon="12.2307368"><ele>17.142857142857142</ele><time>2026-03-22T09:28:16.786Z</time></trkpt><trkpt lat="45.6666719" lon="12.2308274"><ele>17.0</ele><time>2026-03-22T09:28:20.903Z</time></trkpt><trkpt lat="45.6666573" lon="12.2309276"><ele>17.142857142857142</ele><time>2026-03-22T09:28:25.816Z</time></trkpt><trkpt lat="45.6666603" lon="12.2310346"><ele>17.285714285714285</ele><time>2026-03-22T09:28:30.85Z</time></trkpt><trkpt lat="45.6666731" lon="12.2311384"><ele>17.42857142857143</ele><time>2026-03-22T09:28:34.805Z</time></trkpt><trkpt lat="45.6666971" lon="12.2312479"><ele>17.57142857142857</ele><time>2026-03-22T09:28:37.801Z</time></trkpt><trkpt lat="45.6667196" lon="12.2313385"><ele>17.714285714285715</ele><time>2026-03-22T09:28:39.666Z</time></trkpt><trkpt lat="45.6667424" lon="12.2314246"><ele>17.857142857142858</ele><time>2026-03-22T09:28:41.882Z</time></trkpt><trkpt lat="45.6667589" lon="12.2315142"><ele>18.0</ele><time>2026-03-22T09:28:44.75Z</time></trkpt><trkpt lat="45.6667687" lon="12.2316106"><ele>18.000000000000004</ele><time>2026-03-22T09:28:48.844Z</time></trkpt><trkpt lat="45.6667817" lon="12.2317067"><ele>18.0</ele><time>2026-03-22T09:28:52.781Z</time></trkpt><trkpt lat="45.6667939" lon="12.231802"><ele>18.0</ele><time>2026-03-22T09:28:56.856Z</time></trkpt><trkpt lat="45.6667915" lon="12.2318925"><ele>18.0</ele><time>2026-03-22T09:29:00.812Z</time></trkpt><trkpt lat="45.6667932" lon="12.231997"><ele>18.0</ele><time>2026-03-22T09:29:04.903Z</time></trkpt><trkpt lat="45.6668024" lon="12.2321014"><ele>18.000000000000004</ele><time>2026-03-22T09:29:08.84Z</time></trkpt><trkpt lat="45.6668145" lon="12.2322271"><ele>18.0</ele><time>2026-03-22T09:29:12.795Z</time></trkpt><trkpt lat="45.6668389" lon="12.2323226"><ele>17.857142857142858</ele><time>2026-03-22T09:29:15.729Z</time></trkpt><trkpt lat="45.6668604" lon="12.2324178"><ele>17.714285714285715</ele><time>2026-03-22T09:29:18.744Z</time></trkpt><trkpt lat="45.6668693" lon="12.23251"><ele>17.57142857142857</ele><time>2026-03-22T09:29:21.66Z</time></trkpt><trkpt lat="45.6668695" lon="12.2326008"><ele>17.42857142857143</ele><time>2026-03-22T09:29:24.78Z</time></trkpt><trkpt lat="45.6668615" lon="12.2327083"><ele>17.285714285714285</ele><time>2026-03-22T09:29:28.854Z</time></trkpt><trkpt lat="45.6668668" lon="12.2328043"><ele>17.142857142857142</ele><time>2026-03-22T09:29:32.809Z</time></trkpt><trkpt lat="45.6668713" lon="12.2329022"><ele>17.0</ele><time>2026-03-22T09:29:36.764Z</time></trkpt><trkpt lat="45.6668814" lon="12.2330106"><ele>17.0</ele><time>2026-03-22T09:29:40.839Z</time></trkpt><trkpt lat="45.6669041" lon="12.2331186"><ele>17.0</ele><time>2026-03-22T09:29:44.881Z</time></trkpt><trkpt lat="45.6669306" lon="12.2332188"><ele>17.0</ele><time>2026-03-22T09:29:48.868Z</time></trkpt><trkpt lat="45.6669563" lon="12.2333317"><ele>17.0</ele><time>2026-03-22T09:29:52.824Z</time></trkpt><trkpt lat="45.6669458" lon="12.2334223"><ele>17.0</ele><time>2026-03-22T09:29:55.607Z</time></trkpt><trkpt lat="45.6669385" lon="12.2335345"><ele>17.0</ele><time>2026-03-22T09:29:59.894Z</time></trkpt><trkpt lat="45.6669725" lon="12.2336339"><ele>16.857142857142854</ele><time>2026-03-22T09:30:03.526Z</time></trkpt><trkpt lat="45.666988" lon="12.2337493"><ele>16.714285714285715</ele><time>2026-03-22T09:30:08.762Z</time></trkpt><trkpt lat="45.6669841" lon="12.2338397"><ele>16.57142857142857</ele><time>2026-03-22T09:30:11.878Z</time></trkpt><trkpt lat="45.6669837" lon="12.233933"><ele>16.428571428571427</ele><time>2026-03-22T09:30:14.754Z</time></trkpt><trkpt lat="45.6669909" lon="12.2340308"><ele>16.285714285714285</ele><time>2026-03-22T09:30:17.75Z</time></trkpt><trkpt lat="45.6670004" lon="12.2341476"><ele>16.142857142857142</ele><time>2026-03-22T09:30:21.825Z</time></trkpt><trkpt lat="45.6670275" lon="12.2342294"><ele>16.0</ele><time>2026-03-22T09:30:24.821Z</time></trkpt><trkpt lat="45.6670421" lon="12.2343194"><ele>16.0</ele><time>2026-03-22T09:30:29.855Z</time></trkpt><trkpt lat="45.6670222" lon="12.2344071"><ele>15.999999999999998</ele><time>2026-03-22T09:30:38.771Z</time></trkpt><trkpt lat="45.6670418" lon="12.2344977"><ele>16.0</ele><time>2026-03-22T09:30:43.704Z</time></trkpt><trkpt lat="45.667106" lon="12.2345134"><ele>16.0</ele><time>2026-03-22T09:30:48.789Z</time></trkpt><trkpt lat="45.6671761" lon="12.2344855"><ele>15.999999999999998</ele><time>2026-03-22T09:30:53.823Z</time></trkpt><trkpt lat="45.6672409" lon="12.2344542"><ele>16.0</ele><time>2026-03-22T09:30:58.856Z</time></trkpt><trkpt lat="45.6673112" lon="12.2344178"><ele>16.0</ele><time>2026-03-22T09:31:02.811Z</time></trkpt><trkpt lat="45.6673798" lon="12.234377"><ele>16.0</ele><time>2026-03-22T09:31:06.765Z</time></trkpt><trkpt lat="45.6674571" lon="12.234364"><ele>15.999999999999998</ele><time>2026-03-22T09:31:10.84Z</time></trkpt><trkpt lat="45.6675243" lon="12.2343584"><ele>16.0</ele><time>2026-03-22T09:31:13.836Z</time></trkpt><trkpt lat="45.66761" lon="12.2343379"><ele>16.0</ele><time>2026-03-22T09:31:16.833Z</time></trkpt><trkpt lat="45.6676762" lon="12.2343212"><ele>15.999999999999998</ele><time>2026-03-22T09:31:19.825Z</time></trkpt><trkpt lat="45.66775" lon="12.2343181"><ele>16.0</ele><time>2026-03-22T09:31:23.741Z</time></trkpt><trkpt lat="45.6678258" lon="12.2343216"><ele>16.0</ele><time>2026-03-22T09:31:27.725Z</time></trkpt><trkpt lat="45.6679004" lon="12.234309"><ele>16.142857142857142</ele><time>2026-03-22T09:31:31.812Z</time></trkpt><trkpt lat="45.6679701" lon="12.2342639"><ele>16.285714285714285</ele><time>2026-03-22T09:31:35.767Z</time></trkpt><trkpt lat="45.6680425" lon="12.2342269"><ele>16.428571428571427</ele><time>2026-03-22T09:31:39.842Z</time></trkpt><trkpt lat="45.6681088" lon="12.2341825"><ele>16.57142857142857</ele><time>2026-03-22T09:31:43.796Z</time></trkpt><trkpt lat="45.6681802" lon="12.2341454"><ele>16.714285714285715</ele><time>2026-03-22T09:31:48.831Z</time></trkpt><trkpt lat="45.6682519" lon="12.2341317"><ele>16.857142857142854</ele><time>2026-03-22T09:31:52.784Z</time></trkpt><trkpt lat="45.6683147" lon="12.2341203"><ele>17.0</ele><time>2026-03-22T09:31:55.78Z</time></trkpt><trkpt lat="45.6683786" lon="12.2341112"><ele>16.999999999999996</ele><time>2026-03-22T09:31:58.866Z</time></trkpt><trkpt lat="45.6684518" lon="12.2340876"><ele>17.0</ele><time>2026-03-22T09:32:02.851Z</time></trkpt><trkpt lat="45.6685131" lon="12.2340296"><ele>17.0</ele><time>2026-03-22T09:32:06.843Z</time></trkpt><trkpt lat="45.6685873" lon="12.2340177"><ele>17.0</ele><time>2026-03-22T09:32:09.81Z</time></trkpt><trkpt lat="45.6686577" lon="12.2339963"><ele>17.0</ele><time>2026-03-22T09:32:12.885Z</time></trkpt><trkpt lat="45.6687291" lon="12.2339851"><ele>16.999999999999996</ele><time>2026-03-22T09:32:15.841Z</time></trkpt><trkpt lat="45.6687953" lon="12.2340051"><ele>17.0</ele><time>2026-03-22T09:32:18.789Z</time></trkpt><trkpt lat="45.6688691" lon="12.234022"><ele>16.999999999999996</ele><time>2026-03-22T09:32:22.701Z</time></trkpt><trkpt lat="45.6689328" lon="12.2340217"><ele>17.0</ele><time>2026-03-22T09:32:26.819Z</time></trkpt><trkpt lat="45.6690049" lon="12.2340462"><ele>17.0</ele><time>2026-03-22T09:32:30.774Z</time></trkpt><trkpt lat="45.6690638" lon="12.2341116"><ele>17.0</ele><time>2026-03-22T09:32:34.848Z</time></trkpt><trkpt lat="45.6691084" lon="12.2342023"><ele>17.0</ele><time>2026-03-22T09:32:38.802Z</time></trkpt><trkpt lat="45.669148" lon="12.2342807"><ele>16.999999999999996</ele><time>2026-03-22T09:32:41.798Z</time></trkpt><trkpt lat="45.6691965" lon="12.2343684"><ele>17.0</ele><time>2026-03-22T09:32:44.794Z</time></trkpt><trkpt lat="45.6692281" lon="12.2344527"><ele>17.0</ele><time>2026-03-22T09:32:47.791Z</time></trkpt><trkpt lat="45.6692623" lon="12.2345637"><ele>17.0</ele><time>2026-03-22T09:32:51.883Z</time></trkpt><trkpt lat="45.6692876" lon="12.23467"><ele>17.0</ele><time>2026-03-22T09:32:55.819Z</time></trkpt><trkpt lat="45.6692718" lon="12.2347768"><ele>17.0</ele><time>2026-03-22T09:32:59.661Z</time></trkpt><trkpt lat="45.6692686" lon="12.2348709"><ele>17.0</ele><time>2026-03-22T09:33:03.849Z</time></trkpt><trkpt lat="45.6692588" lon="12.2349601"><ele>17.0</ele><time>2026-03-22T09:33:06.844Z</time></trkpt><trkpt lat="45.6692602" lon="12.2350761"><ele>17.142857142857142</ele><time>2026-03-22T09:33:10.799Z</time></trkpt><trkpt lat="45.6692615" lon="12.2351665"><ele>17.285714285714285</ele><time>2026-03-22T09:33:13.795Z</time></trkpt><trkpt lat="45.6692627" lon="12.2352871"><ele>17.42857142857143</ele><time>2026-03-22T09:33:17.869Z</time></trkpt><trkpt lat="45.6692734" lon="12.2354064"><ele>17.57142857142857</ele><time>2026-03-22T09:33:21.824Z</time></trkpt><trkpt lat="45.6692575" lon="12.2355019"><ele>17.714285714285715</ele><time>2026-03-22T09:33:24.82Z</time></trkpt><trkpt lat="45.6691927" lon="12.2355407"><ele>17.857142857142858</ele><time>2026-03-22T09:33:27.703Z</time></trkpt><trkpt lat="45.66913" lon="12.2355705"><ele>18.0</ele><time>2026-03-22T09:33:30.591Z</time></trkpt><trkpt lat="45.669106" lon="12.2356649"><ele>18.000000000000004</ele><time>2026-03-22T09:33:34.484Z</time></trkpt><trkpt lat="45.6691082" lon="12.2357633"><ele>18.0</ele><time>2026-03-22T09:33:37.89Z</time></trkpt><trkpt lat="45.6691365" lon="12.2358614"><ele>18.0</ele><time>2026-03-22T09:33:41.837Z</time></trkpt><trkpt lat="45.6691484" lon="12.2359521"><ele>18.0</ele><time>2026-03-22T09:33:45.57Z</time></trkpt><trkpt lat="45.6691349" lon="12.2360416"><ele>18.0</ele><time>2026-03-22T09:33:49.866Z</time></trkpt><trkpt lat="45.6691285" lon="12.236142"><ele>18.000000000000004</ele><time>2026-03-22T09:33:53.821Z</time></trkpt><trkpt lat="45.6691348" lon="12.2362583"><ele>18.0</ele><time>2026-03-22T09:33:57.775Z</time></trkpt><trkpt lat="45.6691457" lon="12.2363492"><ele>18.000000000000004</ele><time>2026-03-22T09:34:00.771Z</time></trkpt><trkpt lat="45.6691597" lon="12.2364622"><ele>18.0</ele><time>2026-03-22T09:34:04.846Z</time></trkpt><trkpt lat="45.6691596" lon="12.2365542"><ele>18.0</ele><time>2026-03-22T09:34:07.889Z</time></trkpt><trkpt lat="45.6691479" lon="12.2366722"><ele>18.0</ele><time>2026-03-22T09:34:12.901Z</time></trkpt><trkpt lat="45.6691228" lon="12.2367663"><ele>18.0</ele><time>2026-03-22T09:34:15.808Z</time></trkpt><trkpt lat="45.6691159" lon="12.2368597"><ele>18.000000000000004</ele><time>2026-03-22T09:34:18.866Z</time></trkpt><trkpt lat="45.6690988" lon="12.2369666"><ele>18.0</ele><time>2026-03-22T09:34:22.821Z</time></trkpt><trkpt lat="45.6691014" lon="12.2370779"><ele>18.0</ele><time>2026-03-22T09:34:27.854Z</time></trkpt><trkpt lat="45.6691207" lon="12.2371719"><ele>18.0</ele><time>2026-03-22T09:34:31.809Z</time></trkpt><trkpt lat="45.6691225" lon="12.2372781"><ele>18.0</ele><time>2026-03-22T09:34:35.761Z</time></trkpt><trkpt lat="45.6691307" lon="12.2374024"><ele>18.0</ele><time>2026-03-22T09:34:39.838Z</time></trkpt><trkpt lat="45.6691437" lon="12.2374937"><ele>18.0</ele><time>2026-03-22T09:34:42.835Z</time></trkpt><trkpt lat="45.6691681" lon="12.2376003"><ele>18.0</ele><time>2026-03-22T09:34:46.788Z</time></trkpt><trkpt lat="45.6692108" lon="12.2376913"><ele>18.333333333333332</ele><time>2026-03-22T09:34:50.862Z</time></trkpt><trkpt lat="45.6692566" lon="12.23779"><ele>18.666666666666668</ele><time>2026-03-22T09:34:54.817Z</time></trkpt><trkpt lat="45.6692563" lon="12.2379051"><ele>19.0</ele><time>2026-03-22T09:34:58.772Z</time></trkpt><trkpt lat="45.6692207" lon="12.2379935"><ele>19.333333333333336</ele><time>2026-03-22T09:35:01.767Z</time></trkpt><trkpt lat="45.6691926" lon="12.2381083"><ele>19.666666666666668</ele><time>2026-03-22T09:35:05.842Z</time></trkpt><trkpt lat="45.6691862" lon="12.2381995"><ele>20.0</ele><time>2026-03-22T09:35:08.838Z</time></trkpt><trkpt lat="45.6691868" lon="12.2383109"><ele>20.333333333333336</ele><time>2026-03-22T09:35:12.792Z</time></trkpt><trkpt lat="45.6692049" lon="12.2384239"><ele>20.666666666666668</ele><time>2026-03-22T09:35:16.804Z</time></trkpt><trkpt lat="45.6692078" lon="12.2385456"><ele>21.0</ele><time>2026-03-22T09:35:20.821Z</time></trkpt><trkpt lat="45.6691967" lon="12.2386533"><ele>21.333333333333332</ele><time>2026-03-22T09:35:24.777Z</time></trkpt><trkpt lat="45.6692077" lon="12.2387431"><ele>21.666666666666664</ele><time>2026-03-22T09:35:28.85Z</time></trkpt><trkpt lat="45.6692179" lon="12.2388396"><ele>22.0</ele><time>2026-03-22T09:35:32.742Z</time></trkpt><trkpt lat="45.66923" lon="12.2389486"><ele>21.714285714285715</ele><time>2026-03-22T09:35:36.707Z</time></trkpt><trkpt lat="45.6692337" lon="12.2390435"><ele>21.428571428571427</ele><time>2026-03-22T09:35:39.663Z</time></trkpt><trkpt lat="45.6692419" lon="12.2391499"><ele>21.142857142857142</ele><time>2026-03-22T09:35:43.587Z</time></trkpt><trkpt lat="45.6692511" lon="12.2392444"><ele>20.857142857142858</ele><time>2026-03-22T09:35:47.443Z</time></trkpt><trkpt lat="45.6692607" lon="12.2393487"><ele>20.571428571428573</ele><time>2026-03-22T09:35:51.586Z</time></trkpt><trkpt lat="45.6692594" lon="12.239456"><ele>20.285714285714285</ele><time>2026-03-22T09:35:55.814Z</time></trkpt><trkpt lat="45.6692674" lon="12.239561"><ele>20.0</ele><time>2026-03-22T09:35:59.767Z</time></trkpt><trkpt lat="45.6692786" lon="12.2396699"><ele>20.0</ele><time>2026-03-22T09:36:03.842Z</time></trkpt><trkpt lat="45.6692989" lon="12.2397793"><ele>20.0</ele><time>2026-03-22T09:36:07.796Z</time></trkpt><trkpt lat="45.6692713" lon="12.2398924"><ele>20.0</ele><time>2026-03-22T09:36:11.871Z</time></trkpt><trkpt lat="45.6692456" lon="12.240004"><ele>20.0</ele><time>2026-03-22T09:36:15.825Z</time></trkpt><trkpt lat="45.6692493" lon="12.2401082"><ele>20.0</ele><time>2026-03-22T09:36:19.78Z</time></trkpt><trkpt lat="45.6692722" lon="12.2402074"><ele>20.0</ele><time>2026-03-22T09:36:23.881Z</time></trkpt><trkpt lat="45.6692802" lon="12.2403129"><ele>20.0</ele><time>2026-03-22T09:36:27.809Z</time></trkpt><trkpt lat="45.6692845" lon="12.2404076"><ele>20.0</ele><time>2026-03-22T09:36:30.804Z</time></trkpt><trkpt lat="45.6692969" lon="12.2405223"><ele>20.0</ele><time>2026-03-22T09:36:34.759Z</time></trkpt><trkpt lat="45.6693211" lon="12.2406134"><ele>20.0</ele><time>2026-03-22T09:36:38.761Z</time></trkpt><trkpt lat="45.6693924" lon="12.2406448"><ele>20.0</ele><time>2026-03-22T09:36:45.784Z</time></trkpt><trkpt lat="45.6694797" lon="12.2406662"><ele>20.0</ele><time>2026-03-22T09:36:51.775Z</time></trkpt><trkpt lat="45.6695025" lon="12.2407667"><ele>19.833333333333336</ele><time>2026-03-22T09:36:55.85Z</time></trkpt><trkpt lat="45.6695348" lon="12.240874"><ele>19.666666666666668</ele><time>2026-03-22T09:36:59.804Z</time></trkpt><trkpt lat="45.6695518" lon="12.2409884"><ele>19.5</ele><time>2026-03-22T09:37:03.759Z</time></trkpt><trkpt lat="45.6695577" lon="12.2410974"><ele>19.333333333333332</ele><time>2026-03-22T09:37:07.833Z</time></trkpt><trkpt lat="45.6695688" lon="12.2412061"><ele>19.166666666666664</ele><time>2026-03-22T09:37:12.866Z</time></trkpt><trkpt lat="45.6695607" lon="12.2412984"><ele>19.0</ele><time>2026-03-22T09:37:16.821Z</time></trkpt><trkpt lat="45.6695347" lon="12.2413903"><ele>18.833333333333332</ele><time>2026-03-22T09:37:19.817Z</time></trkpt><trkpt lat="45.6694993" lon="12.2414795"><ele>18.666666666666664</ele><time>2026-03-22T09:37:22.813Z</time></trkpt><trkpt lat="45.6694566" lon="12.2415693"><ele>18.5</ele><time>2026-03-22T09:37:26.767Z</time></trkpt><trkpt lat="45.6693991" lon="12.2416574"><ele>18.333333333333332</ele><time>2026-03-22T09:37:30.841Z</time></trkpt><trkpt lat="45.6693532" lon="12.2417439"><ele>18.166666666666668</ele><time>2026-03-22T09:37:34.796Z</time></trkpt><trkpt lat="45.6693254" lon="12.2418315"><ele>18.0</ele><time>2026-03-22T09:37:38.788Z</time></trkpt><trkpt lat="45.6693638" lon="12.2419234"><ele>18.000000000000004</ele><time>2026-03-22T09:37:43.784Z</time></trkpt><trkpt lat="45.6694269" lon="12.2419274"><ele>18.0</ele><time>2026-03-22T09:37:47.706Z</time></trkpt><trkpt lat="45.6694878" lon="12.2419031"><ele>18.0</ele><time>2026-03-22T09:37:51.813Z</time></trkpt><trkpt lat="45.6695644" lon="12.2418973"><ele>18.0</ele><time>2026-03-22T09:37:55.767Z</time></trkpt><trkpt lat="45.6696287" lon="12.2419314"><ele>18.0</ele><time>2026-03-22T09:37:59.842Z</time></trkpt><trkpt lat="45.6696913" lon="12.2419536"><ele>18.000000000000004</ele><time>2026-03-22T09:38:02.838Z</time></trkpt><trkpt lat="45.6697589" lon="12.2420103"><ele>18.0</ele><time>2026-03-22T09:38:06.792Z</time></trkpt><trkpt lat="45.6697941" lon="12.2421111"><ele>18.0</ele><time>2026-03-22T09:38:10.747Z</time></trkpt><trkpt lat="45.6698232" lon="12.2422155"><ele>18.0</ele><time>2026-03-22T09:38:14.821Z</time></trkpt><trkpt lat="45.6698391" lon="12.2423298"><ele>18.0</ele><time>2026-03-22T09:38:18.777Z</time></trkpt><trkpt lat="45.6698287" lon="12.2424428"><ele>18.0</ele><time>2026-03-22T09:38:22.85Z</time></trkpt><trkpt lat="45.6698224" lon="12.2425428"><ele>18.0</ele><time>2026-03-22T09:38:26.806Z</time></trkpt><trkpt lat="45.6698334" lon="12.2426441"><ele>18.0</ele><time>2026-03-22T09:38:30.799Z</time></trkpt><trkpt lat="45.6698359" lon="12.2427499"><ele>17.666666666666668</ele><time>2026-03-22T09:38:34.834Z</time></trkpt><trkpt lat="45.6698467" lon="12.2428636"><ele>17.333333333333332</ele><time>2026-03-22T09:38:39.725Z</time></trkpt><trkpt lat="45.6698316" lon="12.242968"><ele>17.0</ele><time>2026-03-22T09:38:43.769Z</time></trkpt><trkpt lat="45.6698251" lon="12.24307"><ele>16.666666666666664</ele><time>2026-03-22T09:38:47.776Z</time></trkpt><trkpt lat="45.6698311" lon="12.2431885"><ele>16.333333333333332</ele><time>2026-03-22T09:38:51.851Z</time></trkpt><trkpt lat="45.6698479" lon="12.2433072"><ele>16.0</ele><time>2026-03-22T09:38:55.806Z</time></trkpt><trkpt lat="45.6698661" lon="12.2434031"><ele>16.0</ele><time>2026-03-22T09:38:58.8Z</time></trkpt><trkpt lat="45.6698766" lon="12.2435059"><ele>15.999999999999998</ele><time>2026-03-22T09:39:02.702Z</time></trkpt><trkpt lat="45.6698775" lon="12.2436165"><ele>16.0</ele><time>2026-03-22T09:39:06.829Z</time></trkpt><trkpt lat="45.6698931" lon="12.243707"><ele>16.0</ele><time>2026-03-22T09:39:09.825Z</time></trkpt><trkpt lat="45.6698992" lon="12.2438215"><ele>15.999999999999998</ele><time>2026-03-22T09:39:13.747Z</time></trkpt><trkpt lat="45.6698864" lon="12.2439178"><ele>16.0</ele><time>2026-03-22T09:39:17.701Z</time></trkpt><trkpt lat="45.6698868" lon="12.2440267"><ele>16.0</ele><time>2026-03-22T09:39:21.687Z</time></trkpt><trkpt lat="45.6698825" lon="12.2441339"><ele>15.714285714285714</ele><time>2026-03-22T09:39:25.841Z</time></trkpt><trkpt lat="45.6698868" lon="12.2442395"><ele>15.428571428571427</ele><time>2026-03-22T09:39:29.837Z</time></trkpt><trkpt lat="45.6699014" lon="12.2443432"><ele>15.142857142857142</ele><time>2026-03-22T09:39:33.57Z</time></trkpt><trkpt lat="45.6699126" lon="12.2444457"><ele>14.857142857142858</ele><time>2026-03-22T09:39:37.746Z</time></trkpt><trkpt lat="45.6698962" lon="12.244539"><ele>14.571428571428571</ele><time>2026-03-22T09:39:41.749Z</time></trkpt><trkpt lat="45.6699113" lon="12.2446459"><ele>14.285714285714285</ele><time>2026-03-22T09:39:45.764Z</time></trkpt><trkpt lat="45.6699329" lon="12.244751"><ele>14.0</ele><time>2026-03-22T09:39:49.83Z</time></trkpt><trkpt lat="45.6699312" lon="12.2448575"><ele>14.0</ele><time>2026-03-22T09:39:53.862Z</time></trkpt><trkpt lat="45.6699313" lon="12.2449696"><ele>14.0</ele><time>2026-03-22T09:39:57.847Z</time></trkpt><trkpt lat="45.66994" lon="12.24508"><ele>14.0</ele><time>2026-03-22T09:40:01.833Z</time></trkpt><trkpt lat="45.669944" lon="12.2451754"><ele>14.0</ele><time>2026-03-22T09:40:05.787Z</time></trkpt><trkpt lat="45.669964" lon="12.2452818"><ele>14.0</ele><time>2026-03-22T09:40:10.82Z</time></trkpt><trkpt lat="45.6699646" lon="12.2453742"><ele>14.0</ele><time>2026-03-22T09:40:14.775Z</time></trkpt><trkpt lat="45.6699709" lon="12.2454707"><ele>14.0</ele><time>2026-03-22T09:40:18.707Z</time></trkpt><trkpt lat="45.6699663" lon="12.2455857"><ele>14.333333333333334</ele><time>2026-03-22T09:40:22.801Z</time></trkpt><trkpt lat="45.669976" lon="12.2457066"><ele>14.666666666666668</ele><time>2026-03-22T09:40:27.325Z</time></trkpt><trkpt lat="45.6699881" lon="12.2458039"><ele>15.0</ele><time>2026-03-22T09:40:31.409Z</time></trkpt><trkpt lat="45.6699898" lon="12.2459132"><ele>15.333333333333332</ele><time>2026-03-22T09:40:36.322Z</time></trkpt><trkpt lat="45.6699918" lon="12.2460301"><ele>15.666666666666666</ele><time>2026-03-22T09:40:40.885Z</time></trkpt><trkpt lat="45.6700059" lon="12.2461268"><ele>16.0</ele><time>2026-03-22T09:40:44.853Z</time></trkpt><trkpt lat="45.6700134" lon="12.2462272"><ele>16.0</ele><time>2026-03-22T09:40:48.807Z</time></trkpt><trkpt lat="45.6700152" lon="12.2463342"><ele>15.999999999999998</ele><time>2026-03-22T09:40:52.762Z</time></trkpt><trkpt lat="45.6700142" lon="12.2464457"><ele>16.0</ele><time>2026-03-22T09:40:56.836Z</time></trkpt><trkpt lat="45.6700221" lon="12.2465511"><ele>16.0</ele><time>2026-03-22T09:41:00.791Z</time></trkpt><trkpt lat="45.6700318" lon="12.2466558"><ele>15.999999999999998</ele><time>2026-03-22T09:41:04.703Z</time></trkpt><trkpt lat="45.6700465" lon="12.2467482"><ele>16.0</ele><time>2026-03-22T09:41:08.736Z</time></trkpt><trkpt lat="45.6700394" lon="12.2468505"><ele>16.0</ele><time>2026-03-22T09:41:12.774Z</time></trkpt><trkpt lat="45.6700341" lon="12.246967"><ele>16.0</ele><time>2026-03-22T09:41:16.826Z</time></trkpt><trkpt lat="45.6700415" lon="12.2470651"><ele>15.999999999999998</ele><time>2026-03-22T09:41:20.88Z</time></trkpt><trkpt lat="45.6700418" lon="12.2471683"><ele>16.0</ele><time>2026-03-22T09:41:24.757Z</time></trkpt><trkpt lat="45.6700488" lon="12.2472745"><ele>16.0</ele><time>2026-03-22T09:41:28.832Z</time></trkpt><trkpt lat="45.6700464" lon="12.2473907"><ele>15.999999999999998</ele><time>2026-03-22T09:41:32.786Z</time></trkpt><trkpt lat="45.6700492" lon="12.2474956"><ele>16.0</ele><time>2026-03-22T09:41:36.86Z</time></trkpt><trkpt lat="45.6700475" lon="12.2475902"><ele>16.0</ele><time>2026-03-22T09:41:40.815Z</time></trkpt><trkpt lat="45.6700427" lon="12.2476866"><ele>16.142857142857142</ele><time>2026-03-22T09:41:44.769Z</time></trkpt><trkpt lat="45.6700572" lon="12.2477754"><ele>16.285714285714285</ele><time>2026-03-22T09:41:47.765Z</time></trkpt><trkpt lat="45.6700745" lon="12.2478767"><ele>16.428571428571427</ele><time>2026-03-22T09:41:50.858Z</time></trkpt><trkpt lat="45.6700882" lon="12.2479794"><ele>16.57142857142857</ele><time>2026-03-22T09:41:54.835Z</time></trkpt><trkpt lat="45.6700963" lon="12.2480825"><ele>16.714285714285715</ele><time>2026-03-22T09:41:58.817Z</time></trkpt><trkpt lat="45.6700774" lon="12.2481822"><ele>16.857142857142854</ele><time>2026-03-22T09:42:02.801Z</time></trkpt><trkpt lat="45.6700679" lon="12.2482926"><ele>17.0</ele><time>2026-03-22T09:42:06.818Z</time></trkpt><trkpt lat="45.6700598" lon="12.2483842"><ele>17.0</ele><time>2026-03-22T09:42:09.815Z</time></trkpt><trkpt lat="45.6700559" lon="12.2485067"><ele>17.0</ele><time>2026-03-22T09:42:13.697Z</time></trkpt><trkpt lat="45.6700322" lon="12.248591"><ele>17.0</ele><time>2026-03-22T09:42:16.863Z</time></trkpt><trkpt lat="45.6699911" lon="12.2486805"><ele>17.0</ele><time>2026-03-22T09:42:20.839Z</time></trkpt><trkpt lat="45.6699924" lon="12.2487958"><ele>17.0</ele><time>2026-03-22T09:42:24.8Z</time></trkpt><trkpt lat="45.6700003" lon="12.2489116"><ele>17.0</ele><time>2026-03-22T09:42:28.785Z</time></trkpt><trkpt lat="45.6699566" lon="12.249014"><ele>16.857142857142854</ele><time>2026-03-22T09:42:32.822Z</time></trkpt><trkpt lat="45.6699068" lon="12.2490847"><ele>16.714285714285715</ele><time>2026-03-22T09:42:35.818Z</time></trkpt><trkpt lat="45.6698823" lon="12.2491703"><ele>16.57142857142857</ele><time>2026-03-22T09:42:39.892Z</time></trkpt><trkpt lat="45.6699023" lon="12.2492685"><ele>16.428571428571427</ele><time>2026-03-22T09:42:44.805Z</time></trkpt><trkpt lat="45.669913" lon="12.2493778"><ele>16.285714285714285</ele><time>2026-03-22T09:42:50.798Z</time></trkpt><trkpt lat="45.6699137" lon="12.2494761"><ele>16.142857142857142</ele><time>2026-03-22T09:42:54.871Z</time></trkpt><trkpt lat="45.6699216" lon="12.2495868"><ele>16.0</ele><time>2026-03-22T09:42:58.825Z</time></trkpt><trkpt lat="45.6699229" lon="12.2497056"><ele>15.857142857142856</ele><time>2026-03-22T09:43:02.9Z</time></trkpt><trkpt lat="45.6699213" lon="12.2498033"><ele>15.714285714285712</ele><time>2026-03-22T09:43:05.775Z</time></trkpt><trkpt lat="45.6699182" lon="12.2499086"><ele>15.571428571428571</ele><time>2026-03-22T09:43:08.771Z</time></trkpt><trkpt lat="45.669909" lon="12.2500157"><ele>15.428571428571427</ele><time>2026-03-22T09:43:12.846Z</time></trkpt><trkpt lat="45.6698998" lon="12.2501115"><ele>15.285714285714285</ele><time>2026-03-22T09:43:16.8Z</time></trkpt><trkpt lat="45.6699146" lon="12.2502097"><ele>15.142857142857142</ele><time>2026-03-22T09:43:20.874Z</time></trkpt><trkpt lat="45.6699259" lon="12.2503144"><ele>15.0</ele><time>2026-03-22T09:43:24.83Z</time></trkpt><trkpt lat="45.6699258" lon="12.2504172"><ele>15.0</ele><time>2026-03-22T09:43:28.783Z</time></trkpt><trkpt lat="45.6699161" lon="12.2505184"><ele>15.0</ele><time>2026-03-22T09:43:32.857Z</time></trkpt><trkpt lat="45.6699291" lon="12.2506122"><ele>15.0</ele><time>2026-03-22T09:43:36.812Z</time></trkpt><trkpt lat="45.6699364" lon="12.250713"><ele>15.0</ele><time>2026-03-22T09:43:40.886Z</time></trkpt><trkpt lat="45.6699265" lon="12.2508182"><ele>15.0</ele><time>2026-03-22T09:43:44.84Z</time></trkpt><trkpt lat="45.6699222" lon="12.2509207"><ele>15.0</ele><time>2026-03-22T09:43:48.796Z</time></trkpt><trkpt lat="45.6699131" lon="12.2510313"><ele>15.0</ele><time>2026-03-22T09:43:52.869Z</time></trkpt><trkpt lat="45.6699141" lon="12.2511368"><ele>14.833333333333334</ele><time>2026-03-22T09:43:56.824Z</time></trkpt><trkpt lat="45.6699305" lon="12.2512398"><ele>14.666666666666668</ele><time>2026-03-22T09:44:00.765Z</time></trkpt><trkpt lat="45.6699493" lon="12.2513496"><ele>14.5</ele><time>2026-03-22T09:44:04.841Z</time></trkpt><trkpt lat="45.6699417" lon="12.2514681"><ele>14.333333333333334</ele><time>2026-03-22T09:44:08.807Z</time></trkpt><trkpt lat="45.6699434" lon="12.2515784"><ele>14.166666666666668</ele><time>2026-03-22T09:44:12.882Z</time></trkpt><trkpt lat="45.6699528" lon="12.2516729"><ele>14.0</ele><time>2026-03-22T09:44:16.835Z</time></trkpt><trkpt lat="45.6699405" lon="12.2517763"><ele>14.0</ele><time>2026-03-22T09:44:20.791Z</time></trkpt><trkpt lat="45.6699376" lon="12.2518812"><ele>14.0</ele><time>2026-03-22T09:44:24.742Z</time></trkpt><trkpt lat="45.6699475" lon="12.2519802"><ele>14.0</ele><time>2026-03-22T09:44:28.818Z</time></trkpt><trkpt lat="45.6699657" lon="12.2520855"><ele>14.0</ele><time>2026-03-22T09:44:32.893Z</time></trkpt><trkpt lat="45.6699589" lon="12.252191"><ele>14.0</ele><time>2026-03-22T09:44:36.847Z</time></trkpt><trkpt lat="45.6699465" lon="12.2523033"><ele>14.0</ele><time>2026-03-22T09:44:40.801Z</time></trkpt><trkpt lat="45.6699554" lon="12.2524025"><ele>14.0</ele><time>2026-03-22T09:44:44.876Z</time></trkpt><trkpt lat="45.6699584" lon="12.2525014"><ele>14.000000000000002</ele><time>2026-03-22T09:44:48.83Z</time></trkpt><trkpt lat="45.6699551" lon="12.2526087"><ele>14.0</ele><time>2026-03-22T09:44:52.785Z</time></trkpt><trkpt lat="45.6699593" lon="12.2527204"><ele>14.0</ele><time>2026-03-22T09:44:56.859Z</time></trkpt><trkpt lat="45.6699778" lon="12.252824"><ele>14.0</ele><time>2026-03-22T09:45:00.813Z</time></trkpt><trkpt lat="45.669967" lon="12.252931"><ele>14.000000000000002</ele><time>2026-03-22T09:45:04.769Z</time></trkpt><trkpt lat="45.6699728" lon="12.253043"><ele>14.0</ele><time>2026-03-22T09:45:08.859Z</time></trkpt><trkpt lat="45.6699773" lon="12.2531498"><ele>14.0</ele><time>2026-03-22T09:45:12.916Z</time></trkpt><trkpt lat="45.6699714" lon="12.2532429"><ele>14.0</ele><time>2026-03-22T09:45:16.877Z</time></trkpt><trkpt lat="45.6699872" lon="12.2533428"><ele>14.0</ele><time>2026-03-22T09:45:21.903Z</time></trkpt><trkpt lat="45.6699908" lon="12.2534416"><ele>14.0</ele><time>2026-03-22T09:45:25.859Z</time></trkpt><trkpt lat="45.6699961" lon="12.253543"><ele>14.0</ele><time>2026-03-22T09:45:29.812Z</time></trkpt><trkpt lat="45.670009" lon="12.2536528"><ele>14.0</ele><time>2026-03-22T09:45:33.887Z</time></trkpt><trkpt lat="45.6700098" lon="12.2537656"><ele>14.0</ele><time>2026-03-22T09:45:37.842Z</time></trkpt><trkpt lat="45.6700113" lon="12.2538678"><ele>13.833333333333334</ele><time>2026-03-22T09:45:40.865Z</time></trkpt><trkpt lat="45.6699958" lon="12.2539792"><ele>13.666666666666668</ele><time>2026-03-22T09:45:44.699Z</time></trkpt><trkpt lat="45.6699597" lon="12.254093"><ele>13.5</ele><time>2026-03-22T09:45:48.866Z</time></trkpt><trkpt lat="45.6699238" lon="12.2541734"><ele>13.333333333333332</ele><time>2026-03-22T09:45:51.82Z</time></trkpt><trkpt lat="45.6698644" lon="12.2542395"><ele>13.166666666666666</ele><time>2026-03-22T09:45:55.764Z</time></trkpt><trkpt lat="45.6698113" lon="12.2543078"><ele>13.0</ele><time>2026-03-22T09:46:00.849Z</time></trkpt><trkpt lat="45.6697427" lon="12.2543429"><ele>13.0</ele><time>2026-03-22T09:46:04.803Z</time></trkpt><trkpt lat="45.6696607" lon="12.2543582"><ele>13.0</ele><time>2026-03-22T09:46:08.758Z</time></trkpt><trkpt lat="45.669581" lon="12.2543655"><ele>13.0</ele><time>2026-03-22T09:46:12.832Z</time></trkpt><trkpt lat="45.6695075" lon="12.2543743"><ele>13.0</ele><time>2026-03-22T09:46:16.787Z</time></trkpt><trkpt lat="45.6694391" lon="12.2543885"><ele>13.0</ele><time>2026-03-22T09:46:19.782Z</time></trkpt><trkpt lat="45.6693745" lon="12.2543958"><ele>13.0</ele><time>2026-03-22T09:46:22.887Z</time></trkpt><trkpt lat="45.6693007" lon="12.2543884"><ele>13.0</ele><time>2026-03-22T09:46:26.852Z</time></trkpt><trkpt lat="45.6692244" lon="12.2543956"><ele>13.428571428571427</ele><time>2026-03-22T09:46:30.807Z</time></trkpt><trkpt lat="45.6691436" lon="12.2544021"><ele>13.857142857142858</ele><time>2026-03-22T09:46:34.78Z</time></trkpt><trkpt lat="45.6690795" lon="12.2544701"><ele>14.285714285714285</ele><time>2026-03-22T09:46:38.836Z</time></trkpt><trkpt lat="45.6689989" lon="12.2544876"><ele>14.714285714285714</ele><time>2026-03-22T09:46:42.79Z</time></trkpt><trkpt lat="45.6689373" lon="12.2544643"><ele>15.142857142857142</ele><time>2026-03-22T09:46:45.786Z</time></trkpt><trkpt lat="45.6688649" lon="12.2544779"><ele>15.571428571428571</ele><time>2026-03-22T09:46:49.718Z</time></trkpt><trkpt lat="45.6687974" lon="12.2544991"><ele>16.0</ele><time>2026-03-22T09:46:53.815Z</time></trkpt><trkpt lat="45.668717" lon="12.2545133"><ele>16.0</ele><time>2026-03-22T09:46:57.737Z</time></trkpt><trkpt lat="45.6686523" lon="12.2545221"><ele>15.999999999999998</ele><time>2026-03-22T09:47:01.821Z</time></trkpt><trkpt lat="45.6685926" lon="12.2545835"><ele>16.0</ele><time>2026-03-22T09:47:05.358Z</time></trkpt><trkpt lat="45.6685297" lon="12.2545746"><ele>16.0</ele><time>2026-03-22T09:47:09.36Z</time></trkpt><trkpt lat="45.6684544" lon="12.2545593"><ele>15.999999999999998</ele><time>2026-03-22T09:47:13.445Z</time></trkpt><trkpt lat="45.6683826" lon="12.2545602"><ele>16.0</ele><time>2026-03-22T09:47:17.48Z</time></trkpt><trkpt lat="45.6683183" lon="12.2545848"><ele>16.0</ele><time>2026-03-22T09:47:21.486Z</time></trkpt><trkpt lat="45.6682494" lon="12.2546189"><ele>15.999999999999998</ele><time>2026-03-22T09:47:25.559Z</time></trkpt><trkpt lat="45.6681743" lon="12.2546402"><ele>16.0</ele><time>2026-03-22T09:47:29.765Z</time></trkpt><trkpt lat="45.6680968" lon="12.2546471"><ele>16.0</ele><time>2026-03-22T09:47:33.839Z</time></trkpt><trkpt lat="45.6680272" lon="12.2546728"><ele>16.0</ele><time>2026-03-22T09:47:37.482Z</time></trkpt><trkpt lat="45.6679487" lon="12.2546868"><ele>15.999999999999998</ele><time>2026-03-22T09:47:41.776Z</time></trkpt><trkpt lat="45.6678773" lon="12.2546772"><ele>16.0</ele><time>2026-03-22T09:47:45.801Z</time></trkpt><trkpt lat="45.6677964" lon="12.2546845"><ele>15.714285714285714</ele><time>2026-03-22T09:47:49.845Z</time></trkpt><trkpt lat="45.6677251" lon="12.2546978"><ele>15.428571428571427</ele><time>2026-03-22T09:47:53.819Z</time></trkpt><trkpt lat="45.667648" lon="12.254713"><ele>15.142857142857142</ele><time>2026-03-22T09:47:57.806Z</time></trkpt><trkpt lat="45.6675823" lon="12.2547155"><ele>14.857142857142858</ele><time>2026-03-22T09:48:00.802Z</time></trkpt><trkpt lat="45.6675144" lon="12.2547121"><ele>14.571428571428571</ele><time>2026-03-22T09:48:03.798Z</time></trkpt><trkpt lat="45.6674409" lon="12.2547237"><ele>14.285714285714285</ele><time>2026-03-22T09:48:07.753Z</time></trkpt><trkpt lat="45.6673657" lon="12.2547329"><ele>14.0</ele><time>2026-03-22T09:48:12.786Z</time></trkpt><trkpt lat="45.6672885" lon="12.254774"><ele>13.857142857142858</ele><time>2026-03-22T09:48:16.86Z</time></trkpt><trkpt lat="45.6672182" lon="12.2548218"><ele>13.714285714285715</ele><time>2026-03-22T09:48:20.815Z</time></trkpt><trkpt lat="45.6671565" lon="12.254864"><ele>13.571428571428571</ele><time>2026-03-22T09:48:23.811Z</time></trkpt><trkpt lat="45.6670777" lon="12.2548823"><ele>13.428571428571429</ele><time>2026-03-22T09:48:27.765Z</time></trkpt><trkpt lat="45.667013" lon="12.2548949"><ele>13.285714285714286</ele><time>2026-03-22T09:48:30.881Z</time></trkpt><trkpt lat="45.6669388" lon="12.2548925"><ele>13.142857142857142</ele><time>2026-03-22T09:48:34.843Z</time></trkpt><trkpt lat="45.6668753" lon="12.2549197"><ele>13.0</ele><time>2026-03-22T09:48:38.838Z</time></trkpt><trkpt lat="45.6668127" lon="12.2549437"><ele>13.0</ele><time>2026-03-22T09:48:42.762Z</time></trkpt><trkpt lat="45.6667426" lon="12.254966"><ele>13.0</ele><time>2026-03-22T09:48:46.697Z</time></trkpt><trkpt lat="45.6666616" lon="12.2549753"><ele>13.0</ele><time>2026-03-22T09:48:50.641Z</time></trkpt><trkpt lat="45.6665917" lon="12.2549874"><ele>13.0</ele><time>2026-03-22T09:48:53.769Z</time></trkpt><trkpt lat="45.6665294" lon="12.2550091"><ele>13.0</ele><time>2026-03-22T09:48:56.765Z</time></trkpt><trkpt lat="45.6664557" lon="12.2550478"><ele>13.0</ele><time>2026-03-22T09:49:00.839Z</time></trkpt><trkpt lat="45.6663836" lon="12.2550544"><ele>13.0</ele><time>2026-03-22T09:49:04.794Z</time></trkpt><trkpt lat="45.6663092" lon="12.2550523"><ele>13.0</ele><time>2026-03-22T09:49:08.869Z</time></trkpt><trkpt lat="45.6662309" lon="12.2550693"><ele>13.0</ele><time>2026-03-22T09:49:12.823Z</time></trkpt><trkpt lat="45.666164" lon="12.2550887"><ele>13.0</ele><time>2026-03-22T09:49:16.765Z</time></trkpt><trkpt lat="45.6660948" lon="12.2550991"><ele>13.0</ele><time>2026-03-22T09:49:20.852Z</time></trkpt><trkpt lat="45.6660305" lon="12.2551121"><ele>13.0</ele><time>2026-03-22T09:49:23.706Z</time></trkpt><trkpt lat="45.6659638" lon="12.255152"><ele>13.0</ele><time>2026-03-22T09:49:26.844Z</time></trkpt><trkpt lat="45.6658977" lon="12.2551694"><ele>13.0</ele><time>2026-03-22T09:49:29.757Z</time></trkpt><trkpt lat="45.6658219" lon="12.2551888"><ele>12.857142857142856</ele><time>2026-03-22T09:49:33.742Z</time></trkpt><trkpt lat="45.6657465" lon="12.2552134"><ele>12.714285714285715</ele><time>2026-03-22T09:49:37.797Z</time></trkpt><trkpt lat="45.6656707" lon="12.2552365"><ele>12.571428571428571</ele><time>2026-03-22T09:49:41.823Z</time></trkpt><trkpt lat="45.6656109" lon="12.2552692"><ele>12.428571428571427</ele><time>2026-03-22T09:49:44.697Z</time></trkpt><trkpt lat="45.6655483" lon="12.2552858"><ele>12.285714285714285</ele><time>2026-03-22T09:49:47.763Z</time></trkpt><trkpt lat="45.6654711" lon="12.2553127"><ele>12.142857142857142</ele><time>2026-03-22T09:49:51.769Z</time></trkpt><trkpt lat="45.6654047" lon="12.255331"><ele>12.0</ele><time>2026-03-22T09:49:55.845Z</time></trkpt><trkpt lat="45.6653363" lon="12.2553396"><ele>12.142857142857142</ele><time>2026-03-22T09:49:59.798Z</time></trkpt><trkpt lat="45.6652663" lon="12.2553647"><ele>12.285714285714285</ele><time>2026-03-22T09:50:03.842Z</time></trkpt><trkpt lat="45.665197" lon="12.2553908"><ele>12.428571428571427</ele><time>2026-03-22T09:50:07.845Z</time></trkpt><trkpt lat="45.6651211" lon="12.255391"><ele>12.571428571428571</ele><time>2026-03-22T09:50:11.759Z</time></trkpt><trkpt lat="45.6650557" lon="12.2554025"><ele>12.714285714285715</ele><time>2026-03-22T09:50:15.857Z</time></trkpt><trkpt lat="45.6649805" lon="12.2554191"><ele>12.857142857142856</ele><time>2026-03-22T09:50:19.679Z</time></trkpt><trkpt lat="45.6649035" lon="12.255438"><ele>13.0</ele><time>2026-03-22T09:50:23.765Z</time></trkpt><trkpt lat="45.6648408" lon="12.2554496"><ele>13.0</ele><time>2026-03-22T09:50:26.761Z</time></trkpt><trkpt lat="45.6647586" lon="12.2554673"><ele>13.0</ele><time>2026-03-22T09:50:30.836Z</time></trkpt><trkpt lat="45.6646923" lon="12.2555026"><ele>13.0</ele><time>2026-03-22T09:50:34.791Z</time></trkpt><trkpt lat="45.6646209" lon="12.25554"><ele>13.0</ele><time>2026-03-22T09:50:38.865Z</time></trkpt><trkpt lat="45.6645452" lon="12.2555702"><ele>13.0</ele><time>2026-03-22T09:50:42.819Z</time></trkpt><trkpt lat="45.6644769" lon="12.2555916"><ele>13.0</ele><time>2026-03-22T09:50:45.922Z</time></trkpt><trkpt lat="45.664411" lon="12.2555788"><ele>13.0</ele><time>2026-03-22T09:50:48.811Z</time></trkpt><trkpt lat="45.6643325" lon="12.2555807"><ele>12.714285714285714</ele><time>2026-03-22T09:50:51.808Z</time></trkpt><trkpt lat="45.664269" lon="12.2556038"><ele>12.428571428571429</ele><time>2026-03-22T09:50:54.803Z</time></trkpt><trkpt lat="45.6642025" lon="12.2556456"><ele>12.142857142857142</ele><time>2026-03-22T09:50:58.877Z</time></trkpt><trkpt lat="45.6641296" lon="12.2556412"><ele>11.857142857142858</ele><time>2026-03-22T09:51:02.898Z</time></trkpt><trkpt lat="45.6640667" lon="12.2556032"><ele>11.571428571428571</ele><time>2026-03-22T09:51:06.787Z</time></trkpt><trkpt lat="45.6640127" lon="12.2555358"><ele>11.285714285714286</ele><time>2026-03-22T09:51:10.861Z</time></trkpt><trkpt lat="45.6639582" lon="12.2554477"><ele>11.0</ele><time>2026-03-22T09:51:14.803Z</time></trkpt><trkpt lat="45.6639232" lon="12.2553657"><ele>11.0</ele><time>2026-03-22T09:51:17.812Z</time></trkpt><trkpt lat="45.6638942" lon="12.2552827"><ele>11.0</ele><time>2026-03-22T09:51:20.808Z</time></trkpt><trkpt lat="45.6638838" lon="12.2551916"><ele>11.0</ele><time>2026-03-22T09:51:24.721Z</time></trkpt><trkpt lat="45.6638797" lon="12.2550984"><ele>11.0</ele><time>2026-03-22T09:51:28.805Z</time></trkpt><trkpt lat="45.6638763" lon="12.2549934"><ele>11.0</ele><time>2026-03-22T09:51:33.871Z</time></trkpt><trkpt lat="45.6638071" lon="12.2549457"><ele>11.0</ele><time>2026-03-22T09:51:38.783Z</time></trkpt><trkpt lat="45.6637358" lon="12.2549745"><ele>11.0</ele><time>2026-03-22T09:51:42.706Z</time></trkpt><trkpt lat="45.6637217" lon="12.2550697"><ele>11.0</ele><time>2026-03-22T09:51:46.78Z</time></trkpt><trkpt lat="45.6637705" lon="12.2551555"><ele>11.0</ele><time>2026-03-22T09:51:50.888Z</time></trkpt><trkpt lat="45.6638178" lon="12.2552424"><ele>11.0</ele><time>2026-03-22T09:51:54.841Z</time></trkpt><trkpt lat="45.6638592" lon="12.2553379"><ele>11.0</ele><time>2026-03-22T09:51:58.796Z</time></trkpt><trkpt lat="45.6638974" lon="12.2554312"><ele>11.0</ele><time>2026-03-22T09:52:02.698Z</time></trkpt><trkpt lat="45.6639224" lon="12.2555322"><ele>11.0</ele><time>2026-03-22T09:52:06.663Z</time></trkpt><trkpt lat="45.6639585" lon="12.2556146"><ele>10.714285714285715</ele><time>2026-03-22T09:52:10.698Z</time></trkpt><trkpt lat="45.6639959" lon="12.2556959"><ele>10.428571428571429</ele><time>2026-03-22T09:52:14.855Z</time></trkpt><trkpt lat="45.6640321" lon="12.2558005"><ele>10.142857142857142</ele><time>2026-03-22T09:52:18.81Z</time></trkpt><trkpt lat="45.6640622" lon="12.2558817"><ele>9.857142857142858</ele><time>2026-03-22T09:52:21.805Z</time></trkpt><trkpt lat="45.6641048" lon="12.255978"><ele>9.571428571428571</ele><time>2026-03-22T09:52:25.879Z</time></trkpt><trkpt lat="45.6641328" lon="12.2560748"><ele>9.285714285714286</ele><time>2026-03-22T09:52:29.821Z</time></trkpt><trkpt lat="45.6641871" lon="12.2561471"><ele>9.0</ele><time>2026-03-22T09:52:33.789Z</time></trkpt><trkpt lat="45.6642478" lon="12.2562135"><ele>9.000000000000002</ele><time>2026-03-22T09:52:37.761Z</time></trkpt><trkpt lat="45.6642871" lon="12.2562858"><ele>9.0</ele><time>2026-03-22T09:52:41.818Z</time></trkpt><trkpt lat="45.6643071" lon="12.2563874"><ele>9.0</ele><time>2026-03-22T09:52:45.86Z</time></trkpt><trkpt lat="45.6643335" lon="12.2564962"><ele>9.0</ele><time>2026-03-22T09:52:49.848Z</time></trkpt><trkpt lat="45.6643744" lon="12.2565884"><ele>9.0</ele><time>2026-03-22T09:52:53.802Z</time></trkpt><trkpt lat="45.6644219" lon="12.2566736"><ele>9.000000000000002</ele><time>2026-03-22T09:52:58.835Z</time></trkpt><trkpt lat="45.6644661" lon="12.2567664"><ele>9.0</ele><time>2026-03-22T09:53:03.868Z</time></trkpt><trkpt lat="45.6645035" lon="12.2568535"><ele>9.333333333333334</ele><time>2026-03-22T09:53:07.823Z</time></trkpt><trkpt lat="45.6645414" lon="12.2569506"><ele>9.666666666666666</ele><time>2026-03-22T09:53:11.778Z</time></trkpt><trkpt lat="45.6645789" lon="12.2570551"><ele>10.0</ele><time>2026-03-22T09:53:15.853Z</time></trkpt><trkpt lat="45.6646021" lon="12.2571614"><ele>10.333333333333332</ele><time>2026-03-22T09:53:19.807Z</time></trkpt><trkpt lat="45.6646343" lon="12.2572678"><ele>10.666666666666666</ele><time>2026-03-22T09:53:23.762Z</time></trkpt><trkpt lat="45.6646598" lon="12.2573645"><ele>11.0</ele><time>2026-03-22T09:53:28.795Z</time></trkpt><trkpt lat="45.6646405" lon="12.2574679"><ele>11.0</ele><time>2026-03-22T09:53:34.805Z</time></trkpt><trkpt lat="45.6646457" lon="12.2575643"><ele>11.0</ele><time>2026-03-22T09:53:37.86Z</time></trkpt><trkpt lat="45.6646372" lon="12.2576813"><ele>11.0</ele><time>2026-03-22T09:53:40.857Z</time></trkpt><trkpt lat="45.6645964" lon="12.2577657"><ele>11.0</ele><time>2026-03-22T09:53:43.775Z</time></trkpt><trkpt lat="45.6645644" lon="12.2578499"><ele>11.0</ele><time>2026-03-22T09:53:47.85Z</time></trkpt><trkpt lat="45.664523" lon="12.2579232"><ele>11.0</ele><time>2026-03-22T09:53:51.805Z</time></trkpt><trkpt lat="45.6644832" lon="12.2580156"><ele>11.0</ele><time>2026-03-22T09:53:55.759Z</time></trkpt><trkpt lat="45.6644381" lon="12.2581108"><ele>10.857142857142858</ele><time>2026-03-22T09:53:59.834Z</time></trkpt><trkpt lat="45.664378" lon="12.2581832"><ele>10.714285714285714</ele><time>2026-03-22T09:54:03.789Z</time></trkpt><trkpt lat="45.664316" lon="12.2582478"><ele>10.571428571428571</ele><time>2026-03-22T09:54:07.881Z</time></trkpt><trkpt lat="45.6642503" lon="12.2583182"><ele>10.428571428571429</ele><time>2026-03-22T09:54:11.866Z</time></trkpt><trkpt lat="45.6642022" lon="12.2583778"><ele>10.285714285714286</ele><time>2026-03-22T09:54:14.801Z</time></trkpt><trkpt lat="45.664161" lon="12.2584762"><ele>10.142857142857142</ele><time>2026-03-22T09:54:18.77Z</time></trkpt><trkpt lat="45.6640949" lon="12.2584964"><ele>10.0</ele><time>2026-03-22T09:54:21.822Z</time></trkpt><trkpt lat="45.6640286" lon="12.2585655"><ele>10.0</ele><time>2026-03-22T09:54:25.777Z</time></trkpt><trkpt lat="45.6639737" lon="12.2586358"><ele>10.0</ele><time>2026-03-22T09:54:29.794Z</time></trkpt><trkpt lat="45.6639414" lon="12.2587352"><ele>10.0</ele><time>2026-03-22T09:54:33.869Z</time></trkpt><trkpt lat="45.6639095" lon="12.2588131"><ele>10.0</ele><time>2026-03-22T09:54:36.865Z</time></trkpt><trkpt lat="45.6638809" lon="12.2588982"><ele>10.0</ele><time>2026-03-22T09:54:39.798Z</time></trkpt><trkpt lat="45.6638349" lon="12.2589892"><ele>10.0</ele><time>2026-03-22T09:54:43.815Z</time></trkpt><trkpt lat="45.6637862" lon="12.2590571"><ele>10.0</ele><time>2026-03-22T09:54:47.718Z</time></trkpt><trkpt lat="45.6637377" lon="12.2591496"><ele>10.0</ele><time>2026-03-22T09:54:51.846Z</time></trkpt><trkpt lat="45.663689" lon="12.259223"><ele>10.0</ele><time>2026-03-22T09:54:54.878Z</time></trkpt><trkpt lat="45.6636371" lon="12.2593186"><ele>10.0</ele><time>2026-03-22T09:54:58.844Z</time></trkpt><trkpt lat="45.663578" lon="12.2593843"><ele>10.0</ele><time>2026-03-22T09:55:02.818Z</time></trkpt><trkpt lat="45.6635162" lon="12.259456"><ele>10.0</ele><time>2026-03-22T09:55:06.782Z</time></trkpt><trkpt lat="45.6634638" lon="12.2595452"><ele>10.0</ele><time>2026-03-22T09:55:10.717Z</time></trkpt><trkpt lat="45.6634392" lon="12.2596397"><ele>9.857142857142858</ele><time>2026-03-22T09:55:14.623Z</time></trkpt><trkpt lat="45.663377" lon="12.2597019"><ele>9.714285714285715</ele><time>2026-03-22T09:55:18.809Z</time></trkpt><trkpt lat="45.6633165" lon="12.2597438"><ele>9.571428571428573</ele><time>2026-03-22T09:55:21.805Z</time></trkpt><trkpt lat="45.6632502" lon="12.2597943"><ele>9.428571428571429</ele><time>2026-03-22T09:55:25.881Z</time></trkpt><trkpt lat="45.6631984" lon="12.2598515"><ele>9.285714285714286</ele><time>2026-03-22T09:55:29.835Z</time></trkpt><trkpt lat="45.6631571" lon="12.2599232"><ele>9.142857142857144</ele><time>2026-03-22T09:55:33.789Z</time></trkpt><trkpt lat="45.6630944" lon="12.2599842"><ele>9.0</ele><time>2026-03-22T09:55:38.823Z</time></trkpt><trkpt lat="45.6630225" lon="12.260016"><ele>9.0</ele><time>2026-03-22T09:55:42.778Z</time></trkpt><trkpt lat="45.6629564" lon="12.2600417"><ele>9.0</ele><time>2026-03-22T09:55:46.301Z</time></trkpt><trkpt lat="45.6628742" lon="12.260074"><ele>9.0</ele><time>2026-03-22T09:55:50.747Z</time></trkpt><trkpt lat="45.6628092" lon="12.2601462"><ele>9.0</ele><time>2026-03-22T09:55:54.882Z</time></trkpt><trkpt lat="45.6627486" lon="12.2601933"><ele>9.0</ele><time>2026-03-22T09:55:57.879Z</time></trkpt><trkpt lat="45.6626891" lon="12.2602575"><ele>9.0</ele><time>2026-03-22T09:56:00.874Z</time></trkpt><trkpt lat="45.6626141" lon="12.2603031"><ele>9.000000000000002</ele><time>2026-03-22T09:56:03.758Z</time></trkpt><trkpt lat="45.6625548" lon="12.2603517"><ele>9.0</ele><time>2026-03-22T09:56:06.867Z</time></trkpt><trkpt lat="45.6625089" lon="12.2604431"><ele>9.0</ele><time>2026-03-22T09:56:10.822Z</time></trkpt><trkpt lat="45.6624998" lon="12.2605432"><ele>9.0</ele><time>2026-03-22T09:56:14.864Z</time></trkpt><trkpt lat="45.6625386" lon="12.2606287"><ele>9.0</ele><time>2026-03-22T09:56:17.959Z</time></trkpt><trkpt lat="45.6625915" lon="12.2606965"><ele>9.000000000000002</ele><time>2026-03-22T09:56:20.966Z</time></trkpt><trkpt lat="45.6626467" lon="12.2607462"><ele>9.0</ele><time>2026-03-22T09:56:23.981Z</time></trkpt><trkpt lat="45.6627095" lon="12.2608131"><ele>9.000000000000002</ele><time>2026-03-22T09:56:28.076Z</time></trkpt><trkpt lat="45.6627687" lon="12.2608833"><ele>9.0</ele><time>2026-03-22T09:56:32.141Z</time></trkpt><trkpt lat="45.6628334" lon="12.260949"><ele>9.0</ele><time>2026-03-22T09:56:36.066Z</time></trkpt><trkpt lat="45.662884" lon="12.2610117"><ele>9.0</ele><time>2026-03-22T09:56:39.823Z</time></trkpt><trkpt lat="45.6629503" lon="12.2610439"><ele>9.0</ele><time>2026-03-22T09:56:43.778Z</time></trkpt><trkpt lat="45.6630208" lon="12.2610833"><ele>9.000000000000002</ele><time>2026-03-22T09:56:47.853Z</time></trkpt><trkpt lat="45.6630811" lon="12.261139"><ele>9.0</ele><time>2026-03-22T09:56:51.807Z</time></trkpt><trkpt lat="45.6631396" lon="12.2612035"><ele>9.142857142857144</ele><time>2026-03-22T09:56:55.859Z</time></trkpt><trkpt lat="45.6631881" lon="12.2612892"><ele>9.285714285714286</ele><time>2026-03-22T09:57:00.796Z</time></trkpt><trkpt lat="45.6632575" lon="12.2613362"><ele>9.428571428571429</ele><time>2026-03-22T09:57:04.87Z</time></trkpt><trkpt lat="45.6633116" lon="12.261403"><ele>9.571428571428573</ele><time>2026-03-22T09:57:08.826Z</time></trkpt><trkpt lat="45.6633662" lon="12.2614845"><ele>9.714285714285715</ele><time>2026-03-22T09:57:14.153Z</time></trkpt><trkpt lat="45.6633847" lon="12.2615863"><ele>9.857142857142858</ele><time>2026-03-22T09:57:17.813Z</time></trkpt><trkpt lat="45.6634389" lon="12.261649"><ele>10.0</ele><time>2026-03-22T09:57:21.768Z</time></trkpt><trkpt lat="45.6634082" lon="12.2617443"><ele>10.166666666666668</ele><time>2026-03-22T09:57:24.884Z</time></trkpt><trkpt lat="45.6634016" lon="12.2618497"><ele>10.333333333333334</ele><time>2026-03-22T09:57:29.799Z</time></trkpt><trkpt lat="45.6633861" lon="12.2619578"><ele>10.5</ele><time>2026-03-22T09:57:33.873Z</time></trkpt><trkpt lat="45.6633793" lon="12.2620564"><ele>10.666666666666666</ele><time>2026-03-22T09:57:36.869Z</time></trkpt><trkpt lat="45.6633802" lon="12.2621591"><ele>10.833333333333332</ele><time>2026-03-22T09:57:39.865Z</time></trkpt><trkpt lat="45.6633804" lon="12.2622881"><ele>11.0</ele><time>2026-03-22T09:57:42.861Z</time></trkpt><trkpt lat="45.6633678" lon="12.2623928"><ele>10.714285714285715</ele><time>2026-03-22T09:57:45.886Z</time></trkpt><trkpt lat="45.6633489" lon="12.2624855"><ele>10.428571428571429</ele><time>2026-03-22T09:57:48.853Z</time></trkpt><trkpt lat="45.6633198" lon="12.2625684"><ele>10.142857142857142</ele><time>2026-03-22T09:57:51.787Z</time></trkpt><trkpt lat="45.6632864" lon="12.2626467"><ele>9.857142857142858</ele><time>2026-03-22T09:57:54.853Z</time></trkpt><trkpt lat="45.6632434" lon="12.2627281"><ele>9.571428571428571</ele><time>2026-03-22T09:57:58.801Z</time></trkpt><trkpt lat="45.6632034" lon="12.2628208"><ele>9.285714285714286</ele><time>2026-03-22T09:58:02.876Z</time></trkpt><trkpt lat="45.663172" lon="12.2629217"><ele>9.0</ele><time>2026-03-22T09:58:06.831Z</time></trkpt><trkpt lat="45.6631348" lon="12.2630079"><ele>9.0</ele><time>2026-03-22T09:58:10.785Z</time></trkpt><trkpt lat="45.6630748" lon="12.2630726"><ele>9.0</ele><time>2026-03-22T09:58:14.86Z</time></trkpt><trkpt lat="45.6630414" lon="12.2631681"><ele>9.0</ele><time>2026-03-22T09:58:18.935Z</time></trkpt><trkpt lat="45.663001" lon="12.2632471"><ele>9.0</ele><time>2026-03-22T09:58:22.77Z</time></trkpt><trkpt lat="45.6629362" lon="12.2633157"><ele>9.0</ele><time>2026-03-22T09:58:26.845Z</time></trkpt><trkpt lat="45.6628902" lon="12.2634109"><ele>9.0</ele><time>2026-03-22T09:58:30.8Z</time></trkpt><trkpt lat="45.6628302" lon="12.2634832"><ele>9.428571428571429</ele><time>2026-03-22T09:58:34.876Z</time></trkpt><trkpt lat="45.6627612" lon="12.2635311"><ele>9.857142857142858</ele><time>2026-03-22T09:58:38.83Z</time></trkpt><trkpt lat="45.6626965" lon="12.2636104"><ele>10.285714285714285</ele><time>2026-03-22T09:58:42.905Z</time></trkpt><trkpt lat="45.662642" lon="12.2636781"><ele>10.714285714285715</ele><time>2026-03-22T09:58:46.86Z</time></trkpt><trkpt lat="45.662572" lon="12.2636987"><ele>11.142857142857142</ele><time>2026-03-22T09:58:50.816Z</time></trkpt><trkpt lat="45.6625137" lon="12.2637536"><ele>11.571428571428571</ele><time>2026-03-22T09:58:54.77Z</time></trkpt><trkpt lat="45.6624524" lon="12.263796"><ele>12.0</ele><time>2026-03-22T09:58:58.846Z</time></trkpt><trkpt lat="45.6623885" lon="12.2638522"><ele>11.999999999999998</ele><time>2026-03-22T09:59:03.879Z</time></trkpt><trkpt lat="45.66232" lon="12.2638822"><ele>12.0</ele><time>2026-03-22T09:59:08.793Z</time></trkpt><trkpt lat="45.6622586" lon="12.2639196"><ele>12.0</ele><time>2026-03-22T09:59:12.868Z</time></trkpt><trkpt lat="45.6621943" lon="12.2639556"><ele>12.0</ele><time>2026-03-22T09:59:16.823Z</time></trkpt><trkpt lat="45.6621228" lon="12.2640087"><ele>12.0</ele><time>2026-03-22T09:59:20.899Z</time></trkpt><trkpt lat="45.6620519" lon="12.2640509"><ele>11.999999999999998</ele><time>2026-03-22T09:59:24.853Z</time></trkpt><trkpt lat="45.6619735" lon="12.2640836"><ele>12.0</ele><time>2026-03-22T09:59:28.809Z</time></trkpt><trkpt lat="45.6619015" lon="12.2641346"><ele>11.857142857142856</ele><time>2026-03-22T09:59:32.884Z</time></trkpt><trkpt lat="45.6618225" lon="12.2641401"><ele>11.714285714285714</ele><time>2026-03-22T09:59:36.839Z</time></trkpt><trkpt lat="45.6617504" lon="12.2641462"><ele>11.571428571428571</ele><time>2026-03-22T09:59:39.836Z</time></trkpt><trkpt lat="45.6616904" lon="12.2641925"><ele>11.428571428571427</ele><time>2026-03-22T09:59:42.832Z</time></trkpt><trkpt lat="45.661627" lon="12.2642148"><ele>11.285714285714285</ele><time>2026-03-22T09:59:46.788Z</time></trkpt><trkpt lat="45.6615842" lon="12.2642918"><ele>11.142857142857142</ele><time>2026-03-22T09:59:52.781Z</time></trkpt><trkpt lat="45.6615188" lon="12.2642802"><ele>11.0</ele><time>2026-03-22T09:59:57.815Z</time></trkpt><trkpt lat="45.6614406" lon="12.2642716"><ele>11.0</ele><time>2026-03-22T10:00:01.77Z</time></trkpt><trkpt lat="45.6613691" lon="12.2643011"><ele>11.0</ele><time>2026-03-22T10:00:04.766Z</time></trkpt><trkpt lat="45.6612845" lon="12.2643353"><ele>11.0</ele><time>2026-03-22T10:00:07.762Z</time></trkpt><trkpt lat="45.6612076" lon="12.2643542"><ele>11.0</ele><time>2026-03-22T10:00:10.759Z</time></trkpt><trkpt lat="45.6611456" lon="12.2643296"><ele>11.0</ele><time>2026-03-22T10:00:14.834Z</time></trkpt><trkpt lat="45.6610789" lon="12.2643431"><ele>11.0</ele><time>2026-03-22T10:00:19.749Z</time></trkpt><trkpt lat="45.6610127" lon="12.26434"><ele>11.0</ele><time>2026-03-22T10:00:23.823Z</time></trkpt><trkpt lat="45.6609438" lon="12.264349"><ele>10.857142857142858</ele><time>2026-03-22T10:00:26.82Z</time></trkpt><trkpt lat="45.6608822" lon="12.264371"><ele>10.714285714285714</ele><time>2026-03-22T10:00:29.816Z</time></trkpt><trkpt lat="45.6608052" lon="12.2643663"><ele>10.571428571428571</ele><time>2026-03-22T10:00:33.771Z</time></trkpt><trkpt lat="45.6607264" lon="12.2643871"><ele>10.428571428571429</ele><time>2026-03-22T10:00:37.728Z</time></trkpt><trkpt lat="45.6606493" lon="12.264402"><ele>10.285714285714286</ele><time>2026-03-22T10:00:41.802Z</time></trkpt><trkpt lat="45.6605811" lon="12.2644008"><ele>10.142857142857142</ele><time>2026-03-22T10:00:45.757Z</time></trkpt><trkpt lat="45.6605134" lon="12.2644073"><ele>10.0</ele><time>2026-03-22T10:00:49.833Z</time></trkpt><trkpt lat="45.6604482" lon="12.2644059"><ele>10.0</ele><time>2026-03-22T10:00:53.789Z</time></trkpt><trkpt lat="45.6603796" lon="12.2643923"><ele>10.0</ele><time>2026-03-22T10:00:57.743Z</time></trkpt><trkpt lat="45.6603065" lon="12.2644122"><ele>10.0</ele><time>2026-03-22T10:01:01.818Z</time></trkpt><trkpt lat="45.6602365" lon="12.2644396"><ele>10.0</ele><time>2026-03-22T10:01:05.774Z</time></trkpt><trkpt lat="45.660166" lon="12.264459"><ele>10.0</ele><time>2026-03-22T10:01:09.73Z</time></trkpt><trkpt lat="45.6600947" lon="12.2644836"><ele>10.0</ele><time>2026-03-22T10:01:13.805Z</time></trkpt><trkpt lat="45.6600259" lon="12.2644964"><ele>10.0</ele><time>2026-03-22T10:01:17.76Z</time></trkpt><trkpt lat="45.6599655" lon="12.2645315"><ele>10.0</ele><time>2026-03-22T10:01:21.715Z</time></trkpt><trkpt lat="45.6598977" lon="12.2645385"><ele>10.0</ele><time>2026-03-22T10:01:25.79Z</time></trkpt><trkpt lat="45.6598282" lon="12.2645626"><ele>10.0</ele><time>2026-03-22T10:01:29.746Z</time></trkpt><trkpt lat="45.6597569" lon="12.2645679"><ele>10.0</ele><time>2026-03-22T10:01:33.808Z</time></trkpt><trkpt lat="45.659693" lon="12.2646121"><ele>10.0</ele><time>2026-03-22T10:01:37.776Z</time></trkpt><trkpt lat="45.659631" lon="12.26463"><ele>10.0</ele><time>2026-03-22T10:01:40.773Z</time></trkpt><trkpt lat="45.6595529" lon="12.2646515"><ele>10.0</ele><time>2026-03-22T10:01:44.729Z</time></trkpt><trkpt lat="45.6594761" lon="12.2646375"><ele>9.714285714285714</ele><time>2026-03-22T10:01:48.803Z</time></trkpt><trkpt lat="45.6594231" lon="12.2646936"><ele>9.428571428571429</ele><time>2026-03-22T10:01:51.801Z</time></trkpt><trkpt lat="45.6593692" lon="12.2647589"><ele>9.142857142857142</ele><time>2026-03-22T10:01:55.755Z</time></trkpt><trkpt lat="45.6593015" lon="12.2647913"><ele>8.857142857142858</ele><time>2026-03-22T10:01:59.849Z</time></trkpt><trkpt lat="45.659225" lon="12.2647828"><ele>8.571428571428571</ele><time>2026-03-22T10:02:03.692Z</time></trkpt><trkpt lat="45.6591505" lon="12.2648006"><ele>8.285714285714285</ele><time>2026-03-22T10:02:07.61Z</time></trkpt><trkpt lat="45.6590914" lon="12.2648546"><ele>8.0</ele><time>2026-03-22T10:02:10.576Z</time></trkpt><trkpt lat="45.6590311" lon="12.2649063"><ele>8.0</ele><time>2026-03-22T10:02:13.571Z</time></trkpt><trkpt lat="45.6589795" lon="12.2649695"><ele>7.999999999999999</ele><time>2026-03-22T10:02:16.85Z</time></trkpt><trkpt lat="45.6589046" lon="12.265024"><ele>8.0</ele><time>2026-03-22T10:02:20.805Z</time></trkpt><trkpt lat="45.658852" lon="12.2650826"><ele>8.0</ele><time>2026-03-22T10:02:23.802Z</time></trkpt><trkpt lat="45.658793" lon="12.2651336"><ele>7.999999999999999</ele><time>2026-03-22T10:02:27.757Z</time></trkpt><trkpt lat="45.658736" lon="12.265178"><ele>8.0</ele><time>2026-03-22T10:02:31.832Z</time></trkpt><trkpt lat="45.658678" lon="12.2652319"><ele>8.0</ele><time>2026-03-22T10:02:35.787Z</time></trkpt><trkpt lat="45.6586244" lon="12.2652852"><ele>8.0</ele><time>2026-03-22T10:02:38.784Z</time></trkpt><trkpt lat="45.6585694" lon="12.2653367"><ele>7.999999999999999</ele><time>2026-03-22T10:02:41.78Z</time></trkpt><trkpt lat="45.6585096" lon="12.2653993"><ele>8.0</ele><time>2026-03-22T10:02:44.777Z</time></trkpt><trkpt lat="45.6584462" lon="12.265449"><ele>8.0</ele><time>2026-03-22T10:02:47.773Z</time></trkpt><trkpt lat="45.6583964" lon="12.265506"><ele>7.999999999999999</ele><time>2026-03-22T10:02:50.769Z</time></trkpt><trkpt lat="45.6583324" lon="12.2655668"><ele>8.0</ele><time>2026-03-22T10:02:54.792Z</time></trkpt><trkpt lat="45.6582628" lon="12.265622"><ele>8.0</ele><time>2026-03-22T10:02:58.707Z</time></trkpt><trkpt lat="45.6581996" lon="12.2656856"><ele>7.833333333333333</ele><time>2026-03-22T10:03:02.755Z</time></trkpt><trkpt lat="45.6581366" lon="12.2657523"><ele>7.666666666666666</ele><time>2026-03-22T10:03:06.788Z</time></trkpt><trkpt lat="45.6580756" lon="12.2658203"><ele>7.5</ele><time>2026-03-22T10:03:11.744Z</time></trkpt><trkpt lat="45.6580044" lon="12.2658349"><ele>7.333333333333334</ele><time>2026-03-22T10:03:15.819Z</time></trkpt><trkpt lat="45.6579408" lon="12.2658746"><ele>7.166666666666667</ele><time>2026-03-22T10:03:19.775Z</time></trkpt><trkpt lat="45.6578925" lon="12.2659535"><ele>7.0</ele><time>2026-03-22T10:03:24.808Z</time></trkpt><trkpt lat="45.6578242" lon="12.2660173"><ele>7.0</ele><time>2026-03-22T10:03:28.763Z</time></trkpt><trkpt lat="45.6577714" lon="12.2661001"><ele>7.0</ele><time>2026-03-22T10:03:32.839Z</time></trkpt><trkpt lat="45.6577117" lon="12.2661579"><ele>7.0</ele><time>2026-03-22T10:03:36.793Z</time></trkpt><trkpt lat="45.657643" lon="12.2662246"><ele>7.0</ele><time>2026-03-22T10:03:40.866Z</time></trkpt><trkpt lat="45.6576052" lon="12.2663092"><ele>7.0</ele><time>2026-03-22T10:03:44.823Z</time></trkpt><trkpt lat="45.6575954" lon="12.2664009"><ele>7.0</ele><time>2026-03-22T10:03:47.819Z</time></trkpt><trkpt lat="45.6576178" lon="12.2664932"><ele>7.0</ele><time>2026-03-22T10:03:50.816Z</time></trkpt><trkpt lat="45.6576275" lon="12.2665845"><ele>7.0</ele><time>2026-03-22T10:03:53.812Z</time></trkpt><trkpt lat="45.6576683" lon="12.2666774"><ele>7.0</ele><time>2026-03-22T10:03:57.767Z</time></trkpt><trkpt lat="45.657717" lon="12.2667371"><ele>7.0</ele><time>2026-03-22T10:04:00.763Z</time></trkpt><trkpt lat="45.6577634" lon="12.2668003"><ele>7.0</ele><time>2026-03-22T10:04:03.76Z</time></trkpt><trkpt lat="45.6578101" lon="12.266903"><ele>7.0</ele><time>2026-03-22T10:04:07.836Z</time></trkpt><trkpt lat="45.6578485" lon="12.2669849"><ele>7.0</ele><time>2026-03-22T10:04:10.849Z</time></trkpt><trkpt lat="45.6578815" lon="12.2670622"><ele>7.0</ele><time>2026-03-22T10:04:14.853Z</time></trkpt><trkpt lat="45.6579308" lon="12.2671236"><ele>6.857142857142857</ele><time>2026-03-22T10:04:18.861Z</time></trkpt><trkpt lat="45.6579768" lon="12.2672084"><ele>6.714285714285714</ele><time>2026-03-22T10:04:22.772Z</time></trkpt><trkpt lat="45.6580164" lon="12.2673042"><ele>6.571428571428571</ele><time>2026-03-22T10:04:26.771Z</time></trkpt><trkpt lat="45.6580554" lon="12.267399"><ele>6.428571428571429</ele><time>2026-03-22T10:04:30.694Z</time></trkpt><trkpt lat="45.6580986" lon="12.2674814"><ele>6.285714285714286</ele><time>2026-03-22T10:04:34.801Z</time></trkpt><trkpt lat="45.6581343" lon="12.2675575"><ele>6.142857142857142</ele><time>2026-03-22T10:04:37.797Z</time></trkpt><trkpt lat="45.6581822" lon="12.2676351"><ele>6.0</ele><time>2026-03-22T10:04:41.71Z</time></trkpt><trkpt lat="45.6582233" lon="12.2677228"><ele>6.0</ele><time>2026-03-22T10:04:45.827Z</time></trkpt><trkpt lat="45.6582726" lon="12.2678049"><ele>6.0</ele><time>2026-03-22T10:04:49.782Z</time></trkpt><trkpt lat="45.6583206" lon="12.2679078"><ele>6.0</ele><time>2026-03-22T10:04:53.854Z</time></trkpt><trkpt lat="45.6583553" lon="12.268023"><ele>6.0</ele><time>2026-03-22T10:04:57.812Z</time></trkpt><trkpt lat="45.6583955" lon="12.2680966"><ele>6.0</ele><time>2026-03-22T10:05:00.726Z</time></trkpt><trkpt lat="45.6584112" lon="12.2681992"><ele>6.0</ele><time>2026-03-22T10:05:04.732Z</time></trkpt><trkpt lat="45.6584325" lon="12.2682845"><ele>6.142857142857142</ele><time>2026-03-22T10:05:07.808Z</time></trkpt><trkpt lat="45.6584767" lon="12.2683518"><ele>6.285714285714286</ele><time>2026-03-22T10:05:11.716Z</time></trkpt><trkpt lat="45.6584875" lon="12.2684605"><ele>6.428571428571429</ele><time>2026-03-22T10:05:14.788Z</time></trkpt><trkpt lat="45.6585266" lon="12.2685357"><ele>6.571428571428571</ele><time>2026-03-22T10:05:18.793Z</time></trkpt><trkpt lat="45.6585657" lon="12.2686223"><ele>6.714285714285714</ele><time>2026-03-22T10:05:23.807Z</time></trkpt><trkpt lat="45.6586156" lon="12.268683"><ele>6.857142857142857</ele><time>2026-03-22T10:05:27.772Z</time></trkpt><trkpt lat="45.6586633" lon="12.2687614"><ele>7.0</ele><time>2026-03-22T10:05:31.747Z</time></trkpt><trkpt lat="45.6587018" lon="12.2688452"><ele>7.0</ele><time>2026-03-22T10:05:34.753Z</time></trkpt><trkpt lat="45.6587543" lon="12.2689227"><ele>7.0</ele><time>2026-03-22T10:05:37.77Z</time></trkpt><trkpt lat="45.6588102" lon="12.2689653"><ele>7.0</ele><time>2026-03-22T10:05:40.746Z</time></trkpt><trkpt lat="45.6588691" lon="12.2690204"><ele>7.0</ele><time>2026-03-22T10:05:44.793Z</time></trkpt><trkpt lat="45.6589306" lon="12.2690556"><ele>7.0</ele><time>2026-03-22T10:05:47.846Z</time></trkpt><trkpt lat="45.6590099" lon="12.2690444"><ele>7.0</ele><time>2026-03-22T10:05:52.823Z</time></trkpt><trkpt lat="45.659069" lon="12.2690003"><ele>7.0</ele><time>2026-03-22T10:05:56.778Z</time></trkpt><trkpt lat="45.6591344" lon="12.2689968"><ele>6.857142857142857</ele><time>2026-03-22T10:06:01.811Z</time></trkpt><trkpt lat="45.6592144" lon="12.2689937"><ele>6.714285714285714</ele><time>2026-03-22T10:06:05.766Z</time></trkpt><trkpt lat="45.6592867" lon="12.2689808"><ele>6.571428571428571</ele><time>2026-03-22T10:06:09.841Z</time></trkpt><trkpt lat="45.6593591" lon="12.2689757"><ele>6.428571428571429</ele><time>2026-03-22T10:06:12.837Z</time></trkpt><trkpt lat="45.6594376" lon="12.2689811"><ele>6.285714285714286</ele><time>2026-03-22T10:06:15.833Z</time></trkpt><trkpt lat="45.6595036" lon="12.268992"><ele>6.142857142857142</ele><time>2026-03-22T10:06:18.83Z</time></trkpt><trkpt lat="45.6595715" lon="12.2690013"><ele>6.0</ele><time>2026-03-22T10:06:22.784Z</time></trkpt><trkpt lat="45.659631" lon="12.2690513"><ele>6.428571428571428</ele><time>2026-03-22T10:06:26.859Z</time></trkpt><trkpt lat="45.6596853" lon="12.2691168"><ele>6.857142857142858</ele><time>2026-03-22T10:06:30.814Z</time></trkpt><trkpt lat="45.6597572" lon="12.2691512"><ele>7.2857142857142865</ele><time>2026-03-22T10:06:34.769Z</time></trkpt><trkpt lat="45.6598209" lon="12.2691976"><ele>7.714285714285714</ele><time>2026-03-22T10:06:37.772Z</time></trkpt><trkpt lat="45.6598787" lon="12.2692445"><ele>8.142857142857142</ele><time>2026-03-22T10:06:40.761Z</time></trkpt><trkpt lat="45.6599354" lon="12.2692854"><ele>8.571428571428573</ele><time>2026-03-22T10:06:43.757Z</time></trkpt><trkpt lat="45.6599906" lon="12.2693714"><ele>9.0</ele><time>2026-03-22T10:06:47.832Z</time></trkpt><trkpt lat="45.6600528" lon="12.269424"><ele>9.000000000000002</ele><time>2026-03-22T10:06:52.747Z</time></trkpt><trkpt lat="45.660102" lon="12.2694896"><ele>9.0</ele><time>2026-03-22T10:06:56.82Z</time></trkpt><trkpt lat="45.6601555" lon="12.2695437"><ele>9.0</ele><time>2026-03-22T10:07:00.775Z</time></trkpt><trkpt lat="45.660206" lon="12.2696002"><ele>9.0</ele><time>2026-03-22T10:07:03.771Z</time></trkpt><trkpt lat="45.6602693" lon="12.2696432"><ele>9.0</ele><time>2026-03-22T10:07:06.854Z</time></trkpt><trkpt lat="45.6603292" lon="12.2696817"><ele>9.000000000000002</ele><time>2026-03-22T10:07:09.85Z</time></trkpt><trkpt lat="45.6604033" lon="12.2697225"><ele>9.0</ele><time>2026-03-22T10:07:14.005Z</time></trkpt><trkpt lat="45.6604743" lon="12.2697829"><ele>8.857142857142858</ele><time>2026-03-22T10:07:17.831Z</time></trkpt><trkpt lat="45.6605222" lon="12.2698542"><ele>8.714285714285715</ele><time>2026-03-22T10:07:21.815Z</time></trkpt><trkpt lat="45.6605515" lon="12.2699383"><ele>8.571428571428571</ele><time>2026-03-22T10:07:25.809Z</time></trkpt><trkpt lat="45.6606089" lon="12.2700002"><ele>8.428571428571429</ele><time>2026-03-22T10:07:29.856Z</time></trkpt><trkpt lat="45.6606748" lon="12.270048"><ele>8.285714285714285</ele><time>2026-03-22T10:07:33.03Z</time></trkpt><trkpt lat="45.6607242" lon="12.2701115"><ele>8.142857142857142</ele><time>2026-03-22T10:07:36.849Z</time></trkpt><trkpt lat="45.6607732" lon="12.2701744"><ele>8.0</ele><time>2026-03-22T10:07:40.803Z</time></trkpt><trkpt lat="45.6608268" lon="12.2702334"><ele>8.0</ele><time>2026-03-22T10:07:44.757Z</time></trkpt><trkpt lat="45.6608864" lon="12.270267"><ele>7.999999999999999</ele><time>2026-03-22T10:07:47.871Z</time></trkpt><trkpt lat="45.6609546" lon="12.2703349"><ele>8.0</ele><time>2026-03-22T10:07:51.866Z</time></trkpt><trkpt lat="45.6609947" lon="12.2704114"><ele>8.0</ele><time>2026-03-22T10:07:54.824Z</time></trkpt><trkpt lat="45.661036" lon="12.2704852"><ele>7.999999999999999</ele><time>2026-03-22T10:07:57.82Z</time></trkpt><trkpt lat="45.6610811" lon="12.2705601"><ele>8.0</ele><time>2026-03-22T10:08:01.775Z</time></trkpt><trkpt lat="45.6611295" lon="12.2706494"><ele>8.0</ele><time>2026-03-22T10:08:06.809Z</time></trkpt><trkpt lat="45.6611681" lon="12.2707386"><ele>8.333333333333332</ele><time>2026-03-22T10:08:10.763Z</time></trkpt><trkpt lat="45.6612077" lon="12.2708364"><ele>8.666666666666666</ele><time>2026-03-22T10:08:14.838Z</time></trkpt><trkpt lat="45.6612236" lon="12.2709338"><ele>9.0</ele><time>2026-03-22T10:08:17.871Z</time></trkpt><trkpt lat="45.6612447" lon="12.2710469"><ele>9.333333333333334</ele><time>2026-03-22T10:08:21.789Z</time></trkpt><trkpt lat="45.6612531" lon="12.2711646"><ele>9.666666666666668</ele><time>2026-03-22T10:08:25.744Z</time></trkpt><trkpt lat="45.6612545" lon="12.2712652"><ele>10.0</ele><time>2026-03-22T10:08:28.74Z</time></trkpt><trkpt lat="45.6612489" lon="12.2713649"><ele>9.714285714285714</ele><time>2026-03-22T10:08:31.736Z</time></trkpt><trkpt lat="45.6612546" lon="12.2714629"><ele>9.428571428571429</ele><time>2026-03-22T10:08:34.811Z</time></trkpt><trkpt lat="45.6612413" lon="12.2715552"><ele>9.142857142857142</ele><time>2026-03-22T10:08:37.825Z</time></trkpt><trkpt lat="45.6612209" lon="12.2716518"><ele>8.857142857142858</ele><time>2026-03-22T10:08:41.771Z</time></trkpt><trkpt lat="45.6612248" lon="12.2717476"><ele>8.571428571428571</ele><time>2026-03-22T10:08:45.755Z</time></trkpt><trkpt lat="45.6612155" lon="12.2718531"><ele>8.285714285714285</ele><time>2026-03-22T10:08:49.709Z</time></trkpt><trkpt lat="45.6611859" lon="12.2719617"><ele>8.0</ele><time>2026-03-22T10:08:53.675Z</time></trkpt><trkpt lat="45.6611738" lon="12.2720723"><ele>8.0</ele><time>2026-03-22T10:08:57.67Z</time></trkpt><trkpt lat="45.6611644" lon="12.2721699"><ele>7.999999999999999</ele><time>2026-03-22T10:09:01.855Z</time></trkpt><trkpt lat="45.6611469" lon="12.2722673"><ele>8.0</ele><time>2026-03-22T10:09:05.789Z</time></trkpt><trkpt lat="45.6611098" lon="12.2723496"><ele>8.0</ele><time>2026-03-22T10:09:09.814Z</time></trkpt><trkpt lat="45.661078" lon="12.2724371"><ele>7.999999999999999</ele><time>2026-03-22T10:09:13.748Z</time></trkpt><trkpt lat="45.6610466" lon="12.2725336"><ele>8.0</ele><time>2026-03-22T10:09:17.756Z</time></trkpt><trkpt lat="45.6610237" lon="12.2726234"><ele>8.0</ele><time>2026-03-22T10:09:20.872Z</time></trkpt><trkpt lat="45.6610019" lon="12.2727324"><ele>7.7142857142857135</ele><time>2026-03-22T10:09:24.827Z</time></trkpt><trkpt lat="45.6609821" lon="12.2728289"><ele>7.428571428571428</ele><time>2026-03-22T10:09:28.782Z</time></trkpt><trkpt lat="45.6609617" lon="12.272918"><ele>7.142857142857142</ele><time>2026-03-22T10:09:32.856Z</time></trkpt><trkpt lat="45.6609257" lon="12.273003"><ele>6.857142857142857</ele><time>2026-03-22T10:09:36.788Z</time></trkpt><trkpt lat="45.6609022" lon="12.2730868"><ele>6.571428571428571</ele><time>2026-03-22T10:09:39.807Z</time></trkpt><trkpt lat="45.6608893" lon="12.2731873"><ele>6.285714285714285</ele><time>2026-03-22T10:09:43.763Z</time></trkpt><trkpt lat="45.6608522" lon="12.2732889"><ele>6.0</ele><time>2026-03-22T10:09:48.213Z</time></trkpt><trkpt lat="45.6608191" lon="12.2733806"><ele>6.0</ele><time>2026-03-22T10:09:51.792Z</time></trkpt><trkpt lat="45.6607849" lon="12.2734579"><ele>6.0</ele><time>2026-03-22T10:09:54.788Z</time></trkpt><trkpt lat="45.6607386" lon="12.273556"><ele>6.0</ele><time>2026-03-22T10:09:57.784Z</time></trkpt><trkpt lat="45.6606876" lon="12.2736573"><ele>6.0</ele><time>2026-03-22T10:10:00.781Z</time></trkpt><trkpt lat="45.6606395" lon="12.2737379"><ele>6.0</ele><time>2026-03-22T10:10:03.778Z</time></trkpt><trkpt lat="45.6605906" lon="12.2738142"><ele>6.0</ele><time>2026-03-22T10:10:07.733Z</time></trkpt><trkpt lat="45.6605403" lon="12.2738956"><ele>6.428571428571428</ele><time>2026-03-22T10:10:12.765Z</time></trkpt><trkpt lat="45.6605" lon="12.2739867"><ele>6.857142857142858</ele><time>2026-03-22T10:10:17.626Z</time></trkpt><trkpt lat="45.6604445" lon="12.2740477"><ele>7.2857142857142865</ele><time>2026-03-22T10:10:21.731Z</time></trkpt><trkpt lat="45.6603842" lon="12.2741024"><ele>7.714285714285714</ele><time>2026-03-22T10:10:25.829Z</time></trkpt><trkpt lat="45.6603445" lon="12.2741824"><ele>8.142857142857142</ele><time>2026-03-22T10:10:29.784Z</time></trkpt><trkpt lat="45.6602904" lon="12.2742498"><ele>8.571428571428573</ele><time>2026-03-22T10:10:33.859Z</time></trkpt><trkpt lat="45.6602347" lon="12.2742945"><ele>9.0</ele><time>2026-03-22T10:10:36.855Z</time></trkpt><trkpt lat="45.6601837" lon="12.2743507"><ele>9.0</ele><time>2026-03-22T10:10:39.852Z</time></trkpt><trkpt lat="45.6601258" lon="12.2744199"><ele>9.0</ele><time>2026-03-22T10:10:43.808Z</time></trkpt><trkpt lat="45.6600683" lon="12.2745031"><ele>9.0</ele><time>2026-03-22T10:10:47.762Z</time></trkpt><trkpt lat="45.660019" lon="12.2745813"><ele>9.0</ele><time>2026-03-22T10:10:51.534Z</time></trkpt><trkpt lat="45.6600117" lon="12.2746834"><ele>9.0</ele><time>2026-03-22T10:10:55.792Z</time></trkpt><trkpt lat="45.6600649" lon="12.2747686"><ele>9.0</ele><time>2026-03-22T10:11:00.826Z</time></trkpt><trkpt lat="45.6601287" lon="12.2748168"><ele>9.166666666666666</ele><time>2026-03-22T10:11:04.78Z</time></trkpt><trkpt lat="45.6602021" lon="12.2748594"><ele>9.333333333333334</ele><time>2026-03-22T10:11:08.855Z</time></trkpt><trkpt lat="45.660267" lon="12.274897"><ele>9.5</ele><time>2026-03-22T10:11:12.811Z</time></trkpt><trkpt lat="45.6603359" lon="12.2749291"><ele>9.666666666666668</ele><time>2026-03-22T10:11:16.765Z</time></trkpt><trkpt lat="45.6604196" lon="12.2749584"><ele>9.833333333333334</ele><time>2026-03-22T10:11:21.799Z</time></trkpt><trkpt lat="45.6604931" lon="12.2750034"><ele>10.0</ele><time>2026-03-22T10:11:25.874Z</time></trkpt><trkpt lat="45.6605521" lon="12.2750488"><ele>10.0</ele><time>2026-03-22T10:11:29.829Z</time></trkpt><trkpt lat="45.6606112" lon="12.2750971"><ele>10.0</ele><time>2026-03-22T10:11:33.784Z</time></trkpt><trkpt lat="45.6606763" lon="12.2751514"><ele>10.0</ele><time>2026-03-22T10:11:37.739Z</time></trkpt><trkpt lat="45.6607272" lon="12.275206"><ele>10.0</ele><time>2026-03-22T10:11:40.855Z</time></trkpt><trkpt lat="45.6607393" lon="12.2753036"><ele>10.0</ele><time>2026-03-22T10:11:44.788Z</time></trkpt><trkpt lat="45.6607545" lon="12.2754022"><ele>10.0</ele><time>2026-03-22T10:11:48.765Z</time></trkpt><trkpt lat="45.660805" lon="12.2754603"><ele>10.0</ele><time>2026-03-22T10:11:52.84Z</time></trkpt><trkpt lat="45.6608875" lon="12.2754739"><ele>10.0</ele><time>2026-03-22T10:11:57.731Z</time></trkpt><trkpt lat="45.6609588" lon="12.2754712"><ele>10.0</ele><time>2026-03-22T10:12:01.829Z</time></trkpt><trkpt lat="45.6610208" lon="12.2755038"><ele>10.0</ele><time>2026-03-22T10:12:05.783Z</time></trkpt><trkpt lat="45.6611026" lon="12.2755184"><ele>10.0</ele><time>2026-03-22T10:12:09.766Z</time></trkpt><trkpt lat="45.6611816" lon="12.2755321"><ele>10.0</ele><time>2026-03-22T10:12:13.771Z</time></trkpt><trkpt lat="45.6612586" lon="12.2755715"><ele>10.0</ele><time>2026-03-22T10:12:17.786Z</time></trkpt><trkpt lat="45.6613289" lon="12.2756171"><ele>9.857142857142858</ele><time>2026-03-22T10:12:21.79Z</time></trkpt><trkpt lat="45.6614009" lon="12.2756589"><ele>9.714285714285715</ele><time>2026-03-22T10:12:25.865Z</time></trkpt><trkpt lat="45.6614599" lon="12.2757032"><ele>9.571428571428573</ele><time>2026-03-22T10:12:30.831Z</time></trkpt><trkpt lat="45.6615369" lon="12.2757195"><ele>9.428571428571429</ele><time>2026-03-22T10:12:34.786Z</time></trkpt><trkpt lat="45.661615" lon="12.275742"><ele>9.285714285714286</ele><time>2026-03-22T10:12:37.784Z</time></trkpt><trkpt lat="45.6616888" lon="12.2757624"><ele>9.142857142857144</ele><time>2026-03-22T10:12:40.779Z</time></trkpt><trkpt lat="45.6617482" lon="12.2757953"><ele>9.0</ele><time>2026-03-22T10:12:44.853Z</time></trkpt><trkpt lat="45.661808" lon="12.2758601"><ele>9.0</ele><time>2026-03-22T10:12:49.767Z</time></trkpt><trkpt lat="45.6618779" lon="12.2758876"><ele>9.0</ele><time>2026-03-22T10:12:53.842Z</time></trkpt><trkpt lat="45.6619199" lon="12.2758035"><ele>9.0</ele><time>2026-03-22T10:12:57.835Z</time></trkpt><trkpt lat="45.6619396" lon="12.2756902"><ele>9.0</ele><time>2026-03-22T10:13:01.752Z</time></trkpt><trkpt lat="45.6619021" lon="12.2756008"><ele>10.0</ele><time>2026-03-22T10:13:07.744Z</time></trkpt><trkpt lat="45.661844" lon="12.2755348"><ele>10.0</ele><time>2026-03-22T10:13:11.819Z</time></trkpt></trkseg><trkseg><trkpt lat="45.661793" lon="12.275687"><ele>9.0</ele><time>2026-03-22T10:25:39.584Z</time></trkpt><trkpt lat="45.6618159" lon="12.2757907"><ele>9.0</ele><time>2026-03-22T10:25:46.746Z</time></trkpt><trkpt lat="45.6617661" lon="12.2758495"><ele>9.0</ele><time>2026-03-22T10:25:54.777Z</time></trkpt><trkpt lat="45.6616991" lon="12.2758161"><ele>9.0</ele><time>2026-03-22T10:25:58.731Z</time></trkpt><trkpt lat="45.6615824" lon="12.2757478"><ele>9.0</ele><time>2026-03-22T10:26:05.803Z</time></trkpt><trkpt lat="45.661515" lon="12.2757271"><ele>9.0</ele><time>2026-03-22T10:26:09.758Z</time></trkpt><trkpt lat="45.6614495" lon="12.2757002"><ele>9.000000000000002</ele><time>2026-03-22T10:26:13.699Z</time></trkpt><trkpt lat="45.6613771" lon="12.2756973"><ele>9.0</ele><time>2026-03-22T10:26:17.774Z</time></trkpt><trkpt lat="45.6613325" lon="12.2756072"><ele>9.0</ele><time>2026-03-22T10:26:21.729Z</time></trkpt><trkpt lat="45.6612628" lon="12.2755585"><ele>9.0</ele><time>2026-03-22T10:26:25.806Z</time></trkpt><trkpt lat="45.6611894" lon="12.2755143"><ele>9.0</ele><time>2026-03-22T10:26:30.839Z</time></trkpt><trkpt lat="45.6611283" lon="12.2754826"><ele>9.000000000000002</ele><time>2026-03-22T10:26:34.794Z</time></trkpt><trkpt lat="45.6610674" lon="12.2754495"><ele>9.0</ele><time>2026-03-22T10:26:39.708Z</time></trkpt><trkpt lat="45.6609968" lon="12.2754205"><ele>9.142857142857144</ele><time>2026-03-22T10:26:44.743Z</time></trkpt><trkpt lat="45.6609248" lon="12.2753944"><ele>9.285714285714286</ele><time>2026-03-22T10:26:49.777Z</time></trkpt><trkpt lat="45.6609055" lon="12.2754809"><ele>9.428571428571429</ele><time>2026-03-22T10:26:56.729Z</time></trkpt><trkpt lat="45.6608404" lon="12.275473"><ele>9.571428571428573</ele><time>2026-03-22T10:27:02.842Z</time></trkpt><trkpt lat="45.6607802" lon="12.2754457"><ele>9.714285714285715</ele><time>2026-03-22T10:27:09.794Z</time></trkpt><trkpt lat="45.6607811" lon="12.2753273"><ele>9.857142857142858</ele><time>2026-03-22T10:27:14.828Z</time></trkpt><trkpt lat="45.6607532" lon="12.2752242"><ele>10.0</ele><time>2026-03-22T10:27:17.825Z</time></trkpt><trkpt lat="45.6606881" lon="12.2751594"><ele>10.0</ele><time>2026-03-22T10:27:21.78Z</time></trkpt><trkpt lat="45.6606224" lon="12.2751273"><ele>10.0</ele><time>2026-03-22T10:27:24.777Z</time></trkpt><trkpt lat="45.6605625" lon="12.2750876"><ele>10.0</ele><time>2026-03-22T10:27:27.893Z</time></trkpt><trkpt lat="45.660483" lon="12.2750631"><ele>10.0</ele><time>2026-03-22T10:27:31.729Z</time></trkpt><trkpt lat="45.6604219" lon="12.2750109"><ele>10.0</ele><time>2026-03-22T10:27:35.804Z</time></trkpt><trkpt lat="45.66036" lon="12.2749843"><ele>10.0</ele><time>2026-03-22T10:27:39.759Z</time></trkpt><trkpt lat="45.6603095" lon="12.2749225"><ele>10.0</ele><time>2026-03-22T10:27:43.716Z</time></trkpt><trkpt lat="45.6602563" lon="12.2748547"><ele>10.0</ele><time>2026-03-22T10:27:47.775Z</time></trkpt><trkpt lat="45.6601817" lon="12.274798"><ele>10.0</ele><time>2026-03-22T10:27:51.745Z</time></trkpt><trkpt lat="45.6601219" lon="12.2747665"><ele>10.0</ele><time>2026-03-22T10:27:54.796Z</time></trkpt><trkpt lat="45.6600455" lon="12.2747564"><ele>10.0</ele><time>2026-03-22T10:27:58.781Z</time></trkpt><trkpt lat="45.6600017" lon="12.2746696"><ele>10.0</ele><time>2026-03-22T10:28:03.732Z</time></trkpt><trkpt lat="45.6600099" lon="12.2745599"><ele>10.0</ele><time>2026-03-22T10:28:08.767Z</time></trkpt><trkpt lat="45.660036" lon="12.2744646"><ele>10.0</ele><time>2026-03-22T10:28:12.721Z</time></trkpt><trkpt lat="45.6600873" lon="12.2743766"><ele>9.857142857142858</ele><time>2026-03-22T10:28:16.797Z</time></trkpt><trkpt lat="45.6601409" lon="12.2743046"><ele>9.714285714285715</ele><time>2026-03-22T10:28:19.759Z</time></trkpt><trkpt lat="45.6602093" lon="12.2742479"><ele>9.571428571428573</ele><time>2026-03-22T10:28:22.79Z</time></trkpt><trkpt lat="45.6602719" lon="12.2741779"><ele>9.428571428571429</ele><time>2026-03-22T10:28:25.779Z</time></trkpt><trkpt lat="45.6603253" lon="12.2741259"><ele>9.285714285714286</ele><time>2026-03-22T10:28:29.815Z</time></trkpt><trkpt lat="45.660389" lon="12.2740866"><ele>9.142857142857144</ele><time>2026-03-22T10:28:34.776Z</time></trkpt><trkpt lat="45.6604594" lon="12.2740292"><ele>9.0</ele><time>2026-03-22T10:28:38.731Z</time></trkpt><trkpt lat="45.6605005" lon="12.2739605"><ele>8.571428571428573</ele><time>2026-03-22T10:28:41.728Z</time></trkpt><trkpt lat="45.6605539" lon="12.2738911"><ele>8.142857142857142</ele><time>2026-03-22T10:28:45.803Z</time></trkpt><trkpt lat="45.6606066" lon="12.2738392"><ele>7.714285714285714</ele><time>2026-03-22T10:28:48.8Z</time></trkpt><trkpt lat="45.6606553" lon="12.2737675"><ele>7.2857142857142865</ele><time>2026-03-22T10:28:51.796Z</time></trkpt><trkpt lat="45.6606933" lon="12.2736845"><ele>6.857142857142858</ele><time>2026-03-22T10:28:54.792Z</time></trkpt><trkpt lat="45.660706" lon="12.273595"><ele>6.428571428571428</ele><time>2026-03-22T10:28:57.789Z</time></trkpt><trkpt lat="45.660729" lon="12.2735036"><ele>6.0</ele><time>2026-03-22T10:29:01.744Z</time></trkpt><trkpt lat="45.6607747" lon="12.2734259"><ele>5.999999999999999</ele><time>2026-03-22T10:29:05.702Z</time></trkpt><trkpt lat="45.6608147" lon="12.2733397"><ele>6.0</ele><time>2026-03-22T10:29:09.775Z</time></trkpt><trkpt lat="45.6608396" lon="12.2732433"><ele>6.0</ele><time>2026-03-22T10:29:13.73Z</time></trkpt><trkpt lat="45.6608526" lon="12.2731448"><ele>6.0</ele><time>2026-03-22T10:29:17.806Z</time></trkpt><trkpt lat="45.660891" lon="12.2730606"><ele>6.0</ele><time>2026-03-22T10:29:21.76Z</time></trkpt><trkpt lat="45.6609423" lon="12.2729739"><ele>5.999999999999999</ele><time>2026-03-22T10:29:25.716Z</time></trkpt><trkpt lat="45.6609622" lon="12.2728662"><ele>6.0</ele><time>2026-03-22T10:29:29.792Z</time></trkpt><trkpt lat="45.660988" lon="12.2727453"><ele>5.999999999999999</ele><time>2026-03-22T10:29:33.819Z</time></trkpt><trkpt lat="45.6610045" lon="12.2726469"><ele>6.0</ele><time>2026-03-22T10:29:37.135Z</time></trkpt><trkpt lat="45.6610333" lon="12.2725572"><ele>6.0</ele><time>2026-03-22T10:29:42.18Z</time></trkpt><trkpt lat="45.6610615" lon="12.2724552"><ele>6.0</ele><time>2026-03-22T10:29:47.204Z</time></trkpt><trkpt lat="45.6610813" lon="12.272355"><ele>6.0</ele><time>2026-03-22T10:29:51.218Z</time></trkpt><trkpt lat="45.6610947" lon="12.2722426"><ele>5.999999999999999</ele><time>2026-03-22T10:29:55.234Z</time></trkpt><trkpt lat="45.661109" lon="12.272135"><ele>6.0</ele><time>2026-03-22T10:29:59.755Z</time></trkpt><trkpt lat="45.661123" lon="12.2720386"><ele>6.285714285714285</ele><time>2026-03-22T10:30:03.83Z</time></trkpt><trkpt lat="45.6611349" lon="12.2719363"><ele>6.571428571428571</ele><time>2026-03-22T10:30:07.786Z</time></trkpt><trkpt lat="45.6611445" lon="12.2718371"><ele>6.857142857142857</ele><time>2026-03-22T10:30:11.741Z</time></trkpt><trkpt lat="45.6611557" lon="12.2717474"><ele>7.142857142857142</ele><time>2026-03-22T10:30:15.696Z</time></trkpt><trkpt lat="45.6611676" lon="12.271636"><ele>7.428571428571428</ele><time>2026-03-22T10:30:20.73Z</time></trkpt><trkpt lat="45.6611884" lon="12.2715243"><ele>7.7142857142857135</ele><time>2026-03-22T10:30:24.805Z</time></trkpt><trkpt lat="45.6612104" lon="12.2714386"><ele>8.0</ele><time>2026-03-22T10:30:28.761Z</time></trkpt><trkpt lat="45.6612207" lon="12.2713333"><ele>8.333333333333332</ele><time>2026-03-22T10:30:32.716Z</time></trkpt><trkpt lat="45.6612345" lon="12.2712195"><ele>8.666666666666666</ele><time>2026-03-22T10:30:36.791Z</time></trkpt><trkpt lat="45.6612383" lon="12.2711095"><ele>9.0</ele><time>2026-03-22T10:30:40.746Z</time></trkpt><trkpt lat="45.66123" lon="12.2710076"><ele>9.333333333333334</ele><time>2026-03-22T10:30:44.821Z</time></trkpt><trkpt lat="45.6612109" lon="12.2709105"><ele>9.666666666666668</ele><time>2026-03-22T10:30:48.777Z</time></trkpt><trkpt lat="45.6611772" lon="12.2708153"><ele>10.0</ele><time>2026-03-22T10:30:52.732Z</time></trkpt><trkpt lat="45.6611431" lon="12.2707073"><ele>9.714285714285714</ele><time>2026-03-22T10:30:56.807Z</time></trkpt><trkpt lat="45.6611071" lon="12.2706144"><ele>9.428571428571429</ele><time>2026-03-22T10:31:00.762Z</time></trkpt><trkpt lat="45.6610554" lon="12.2705268"><ele>9.142857142857142</ele><time>2026-03-22T10:31:04.718Z</time></trkpt><trkpt lat="45.6610144" lon="12.2704482"><ele>8.857142857142858</ele><time>2026-03-22T10:31:07.714Z</time></trkpt><trkpt lat="45.660968" lon="12.2703776"><ele>8.571428571428571</ele><time>2026-03-22T10:31:11.789Z</time></trkpt><trkpt lat="45.660913" lon="12.270323"><ele>8.285714285714285</ele><time>2026-03-22T10:31:16.094Z</time></trkpt><trkpt lat="45.660848" lon="12.2702481"><ele>8.0</ele><time>2026-03-22T10:31:20.778Z</time></trkpt><trkpt lat="45.6608116" lon="12.270168"><ele>8.0</ele><time>2026-03-22T10:31:23.776Z</time></trkpt><trkpt lat="45.6607363" lon="12.2701248"><ele>7.999999999999999</ele><time>2026-03-22T10:31:27.731Z</time></trkpt><trkpt lat="45.660684" lon="12.2700613"><ele>8.0</ele><time>2026-03-22T10:31:31.806Z</time></trkpt><trkpt lat="45.6606228" lon="12.2700127"><ele>8.0</ele><time>2026-03-22T10:31:35.761Z</time></trkpt><trkpt lat="45.6605569" lon="12.2699585"><ele>7.999999999999999</ele><time>2026-03-22T10:31:39.836Z</time></trkpt><trkpt lat="45.6605086" lon="12.2698983"><ele>8.0</ele><time>2026-03-22T10:31:42.832Z</time></trkpt><trkpt lat="45.6604573" lon="12.2698336"><ele>8.0</ele><time>2026-03-22T10:31:46.787Z</time></trkpt><trkpt lat="45.6604071" lon="12.2697769"><ele>8.142857142857142</ele><time>2026-03-22T10:31:50.743Z</time></trkpt><trkpt lat="45.6603496" lon="12.2697355"><ele>8.285714285714285</ele><time>2026-03-22T10:31:54.818Z</time></trkpt><trkpt lat="45.6603064" lon="12.2696611"><ele>8.428571428571429</ele><time>2026-03-22T10:31:58.773Z</time></trkpt><trkpt lat="45.6602452" lon="12.2696071"><ele>8.571428571428571</ele><time>2026-03-22T10:32:02.848Z</time></trkpt><trkpt lat="45.6601897" lon="12.2695458"><ele>8.714285714285715</ele><time>2026-03-22T10:32:06.843Z</time></trkpt><trkpt lat="45.6601316" lon="12.2694946"><ele>8.857142857142858</ele><time>2026-03-22T10:32:10.759Z</time></trkpt><trkpt lat="45.6600775" lon="12.2694231"><ele>9.0</ele><time>2026-03-22T10:32:14.714Z</time></trkpt><trkpt lat="45.6600232" lon="12.2693575"><ele>9.0</ele><time>2026-03-22T10:32:18.789Z</time></trkpt><trkpt lat="45.6599632" lon="12.2693285"><ele>9.0</ele><time>2026-03-22T10:32:22.744Z</time></trkpt><trkpt lat="45.6599075" lon="12.2692806"><ele>9.0</ele><time>2026-03-22T10:32:25.853Z</time></trkpt><trkpt lat="45.6598455" lon="12.2692013"><ele>9.0</ele><time>2026-03-22T10:32:29.798Z</time></trkpt><trkpt lat="45.6597758" lon="12.2691316"><ele>9.0</ele><time>2026-03-22T10:32:33.735Z</time></trkpt><trkpt lat="45.6597175" lon="12.2690556"><ele>9.0</ele><time>2026-03-22T10:32:37.658Z</time></trkpt><trkpt lat="45.6596485" lon="12.2689982"><ele>9.000000000000002</ele><time>2026-03-22T10:32:41.774Z</time></trkpt><trkpt lat="45.6595768" lon="12.2689822"><ele>9.0</ele><time>2026-03-22T10:32:45.757Z</time></trkpt><trkpt lat="45.6595067" lon="12.2689693"><ele>9.0</ele><time>2026-03-22T10:32:49.832Z</time></trkpt><trkpt lat="45.6594372" lon="12.2689703"><ele>9.0</ele><time>2026-03-22T10:32:53.787Z</time></trkpt><trkpt lat="45.6593716" lon="12.2690037"><ele>9.0</ele><time>2026-03-22T10:32:58.822Z</time></trkpt><trkpt lat="45.6593038" lon="12.2690126"><ele>9.000000000000002</ele><time>2026-03-22T10:33:02.778Z</time></trkpt><trkpt lat="45.6592196" lon="12.2690122"><ele>9.0</ele><time>2026-03-22T10:33:06.852Z</time></trkpt><trkpt lat="45.6591541" lon="12.2690081"><ele>8.5</ele><time>2026-03-22T10:33:09.728Z</time></trkpt><trkpt lat="45.6590877" lon="12.2689856"><ele>8.0</ele><time>2026-03-22T10:33:13.803Z</time></trkpt><trkpt lat="45.6590223" lon="12.2690169"><ele>7.5</ele><time>2026-03-22T10:33:17.76Z</time></trkpt><trkpt lat="45.6589507" lon="12.2690468"><ele>7.0</ele><time>2026-03-22T10:33:21.838Z</time></trkpt><trkpt lat="45.6588658" lon="12.2690184"><ele>6.5</ele><time>2026-03-22T10:33:24.83Z</time></trkpt><trkpt lat="45.6587794" lon="12.2689897"><ele>6.0</ele><time>2026-03-22T10:33:27.826Z</time></trkpt><trkpt lat="45.6587122" lon="12.2689573"><ele>6.166666666666667</ele><time>2026-03-22T10:33:30.824Z</time></trkpt><trkpt lat="45.6586474" lon="12.2688712"><ele>6.333333333333334</ele><time>2026-03-22T10:33:34.802Z</time></trkpt><trkpt lat="45.6586022" lon="12.2687827"><ele>6.5</ele><time>2026-03-22T10:33:38.737Z</time></trkpt><trkpt lat="45.6585798" lon="12.2686737"><ele>6.666666666666667</ele><time>2026-03-22T10:33:41.85Z</time></trkpt><trkpt lat="45.6585417" lon="12.2685567"><ele>6.833333333333334</ele><time>2026-03-22T10:33:44.818Z</time></trkpt><trkpt lat="45.6585196" lon="12.268468"><ele>7.0</ele><time>2026-03-22T10:33:48.802Z</time></trkpt><trkpt lat="45.6584804" lon="12.2683906"><ele>6.857142857142857</ele><time>2026-03-22T10:33:53.835Z</time></trkpt><trkpt lat="45.6584255" lon="12.2683159"><ele>6.714285714285714</ele><time>2026-03-22T10:33:58.749Z</time></trkpt><trkpt lat="45.6583908" lon="12.2682322"><ele>6.571428571428571</ele><time>2026-03-22T10:34:02.824Z</time></trkpt><trkpt lat="45.6583741" lon="12.2681385"><ele>6.428571428571429</ele><time>2026-03-22T10:34:06.779Z</time></trkpt><trkpt lat="45.6583492" lon="12.2680254"><ele>6.285714285714286</ele><time>2026-03-22T10:34:10.734Z</time></trkpt><trkpt lat="45.6583196" lon="12.2679198"><ele>6.142857142857142</ele><time>2026-03-22T10:34:14.809Z</time></trkpt><trkpt lat="45.6582893" lon="12.2678233"><ele>6.0</ele><time>2026-03-22T10:34:18.765Z</time></trkpt><trkpt lat="45.6582344" lon="12.2677381"><ele>5.999999999999999</ele><time>2026-03-22T10:34:22.839Z</time></trkpt><trkpt lat="45.6581954" lon="12.2676514"><ele>6.0</ele><time>2026-03-22T10:34:26.794Z</time></trkpt><trkpt lat="45.6581604" lon="12.2675461"><ele>6.0</ele><time>2026-03-22T10:34:30.821Z</time></trkpt><trkpt lat="45.6581185" lon="12.2674601"><ele>6.0</ele><time>2026-03-22T10:34:33.746Z</time></trkpt><trkpt lat="45.6580732" lon="12.2673756"><ele>6.0</ele><time>2026-03-22T10:34:36.753Z</time></trkpt><trkpt lat="45.6580231" lon="12.2673082"><ele>5.999999999999999</ele><time>2026-03-22T10:34:40.816Z</time></trkpt><trkpt lat="45.6579803" lon="12.2672351"><ele>6.0</ele><time>2026-03-22T10:34:44.771Z</time></trkpt><trkpt lat="45.6579368" lon="12.2671629"><ele>5.999999999999999</ele><time>2026-03-22T10:34:47.88Z</time></trkpt><trkpt lat="45.6578863" lon="12.2670979"><ele>6.0</ele><time>2026-03-22T10:34:51.843Z</time></trkpt><trkpt lat="45.6578465" lon="12.2670279"><ele>6.0</ele><time>2026-03-22T10:34:55.798Z</time></trkpt><trkpt lat="45.6578112" lon="12.2669529"><ele>6.0</ele><time>2026-03-22T10:34:58.717Z</time></trkpt><trkpt lat="45.6577704" lon="12.2668533"><ele>6.0</ele><time>2026-03-22T10:35:01.79Z</time></trkpt><trkpt lat="45.6577259" lon="12.2667714"><ele>5.999999999999999</ele><time>2026-03-22T10:35:04.819Z</time></trkpt><trkpt lat="45.6576794" lon="12.2667016"><ele>6.0</ele><time>2026-03-22T10:35:08.754Z</time></trkpt><trkpt lat="45.6576473" lon="12.2666238"><ele>6.166666666666667</ele><time>2026-03-22T10:35:12.816Z</time></trkpt><trkpt lat="45.6576227" lon="12.2665107"><ele>6.333333333333334</ele><time>2026-03-22T10:35:16.771Z</time></trkpt><trkpt lat="45.6576013" lon="12.2663996"><ele>6.5</ele><time>2026-03-22T10:35:20.726Z</time></trkpt><trkpt lat="45.6575993" lon="12.2662933"><ele>6.666666666666667</ele><time>2026-03-22T10:35:24.801Z</time></trkpt><trkpt lat="45.65762" lon="12.2661971"><ele>6.833333333333334</ele><time>2026-03-22T10:35:28.756Z</time></trkpt><trkpt lat="45.6576668" lon="12.2661193"><ele>7.0</ele><time>2026-03-22T10:35:32.831Z</time></trkpt><trkpt lat="45.6577341" lon="12.2660592"><ele>7.000000000000001</ele><time>2026-03-22T10:35:36.786Z</time></trkpt><trkpt lat="45.6578029" lon="12.2659841"><ele>7.0</ele><time>2026-03-22T10:35:40.853Z</time></trkpt><trkpt lat="45.6578575" lon="12.2659278"><ele>7.0</ele><time>2026-03-22T10:35:43.858Z</time></trkpt><trkpt lat="45.6579346" lon="12.265885"><ele>7.0</ele><time>2026-03-22T10:35:47.813Z</time></trkpt><trkpt lat="45.6579958" lon="12.2658347"><ele>7.000000000000001</ele><time>2026-03-22T10:35:50.761Z</time></trkpt><trkpt lat="45.6580565" lon="12.2657783"><ele>7.0</ele><time>2026-03-22T10:35:53.805Z</time></trkpt><trkpt lat="45.6581163" lon="12.2656969"><ele>7.000000000000001</ele><time>2026-03-22T10:35:57.76Z</time></trkpt><trkpt lat="45.6581692" lon="12.265624"><ele>7.0</ele><time>2026-03-22T10:36:01.859Z</time></trkpt><trkpt lat="45.6582433" lon="12.2655778"><ele>7.0</ele><time>2026-03-22T10:36:05.802Z</time></trkpt><trkpt lat="45.6583069" lon="12.2655212"><ele>7.0</ele><time>2026-03-22T10:36:09.717Z</time></trkpt><trkpt lat="45.6583655" lon="12.2654602"><ele>7.000000000000001</ele><time>2026-03-22T10:36:13.842Z</time></trkpt><trkpt lat="45.6584327" lon="12.2653928"><ele>7.0</ele><time>2026-03-22T10:36:18.76Z</time></trkpt><trkpt lat="45.6584896" lon="12.265341"><ele>7.142857142857142</ele><time>2026-03-22T10:36:21.702Z</time></trkpt><trkpt lat="45.6585494" lon="12.2652868"><ele>7.285714285714286</ele><time>2026-03-22T10:36:24.858Z</time></trkpt><trkpt lat="45.6586084" lon="12.2652317"><ele>7.428571428571429</ele><time>2026-03-22T10:36:28.801Z</time></trkpt><trkpt lat="45.6586723" lon="12.2651824"><ele>7.571428571428571</ele><time>2026-03-22T10:36:32.738Z</time></trkpt><trkpt lat="45.6587374" lon="12.2651282"><ele>7.7142857142857135</ele><time>2026-03-22T10:36:36.83Z</time></trkpt><trkpt lat="45.6588048" lon="12.2650723"><ele>7.857142857142857</ele><time>2026-03-22T10:36:40.785Z</time></trkpt><trkpt lat="45.658863" lon="12.265011"><ele>8.0</ele><time>2026-03-22T10:36:44.86Z</time></trkpt><trkpt lat="45.6589209" lon="12.2649616"><ele>7.999999999999999</ele><time>2026-03-22T10:36:48.815Z</time></trkpt><trkpt lat="45.6589813" lon="12.2649127"><ele>8.0</ele><time>2026-03-22T10:36:52.77Z</time></trkpt><trkpt lat="45.6590459" lon="12.2648574"><ele>8.0</ele><time>2026-03-22T10:36:56.844Z</time></trkpt><trkpt lat="45.6591099" lon="12.2648019"><ele>8.0</ele><time>2026-03-22T10:37:00.799Z</time></trkpt><trkpt lat="45.659179" lon="12.2647509"><ele>7.999999999999999</ele><time>2026-03-22T10:37:04.755Z</time></trkpt><trkpt lat="45.6592483" lon="12.2646947"><ele>8.0</ele><time>2026-03-22T10:37:08.863Z</time></trkpt><trkpt lat="45.6593283" lon="12.2646763"><ele>8.0</ele><time>2026-03-22T10:37:11.825Z</time></trkpt><trkpt lat="45.6594108" lon="12.2646556"><ele>7.999999999999999</ele><time>2026-03-22T10:37:14.821Z</time></trkpt><trkpt lat="45.6594898" lon="12.2646679"><ele>8.0</ele><time>2026-03-22T10:37:18.821Z</time></trkpt><trkpt lat="45.6595455" lon="12.2646148"><ele>8.0</ele><time>2026-03-22T10:37:21.797Z</time></trkpt><trkpt lat="45.6596078" lon="12.2646367"><ele>7.999999999999999</ele><time>2026-03-22T10:37:24.721Z</time></trkpt><trkpt lat="45.6596761" lon="12.2646195"><ele>8.0</ele><time>2026-03-22T10:37:28.536Z</time></trkpt><trkpt lat="45.659743" lon="12.2645757"><ele>8.0</ele><time>2026-03-22T10:37:32.541Z</time></trkpt><trkpt lat="45.6598139" lon="12.2645415"><ele>8.333333333333332</ele><time>2026-03-22T10:37:36.872Z</time></trkpt><trkpt lat="45.6598905" lon="12.2645057"><ele>8.666666666666666</ele><time>2026-03-22T10:37:40.8Z</time></trkpt><trkpt lat="45.65997" lon="12.2644724"><ele>9.0</ele><time>2026-03-22T10:37:44.782Z</time></trkpt><trkpt lat="45.660045" lon="12.2644715"><ele>9.333333333333334</ele><time>2026-03-22T10:37:47.778Z</time></trkpt><trkpt lat="45.6601144" lon="12.2644301"><ele>9.666666666666668</ele><time>2026-03-22T10:37:50.774Z</time></trkpt><trkpt lat="45.6601893" lon="12.264403"><ele>10.0</ele><time>2026-03-22T10:37:54.729Z</time></trkpt><trkpt lat="45.6602649" lon="12.2644202"><ele>10.0</ele><time>2026-03-22T10:37:58.804Z</time></trkpt><trkpt lat="45.6603352" lon="12.2644099"><ele>10.0</ele><time>2026-03-22T10:38:02.841Z</time></trkpt><trkpt lat="45.6603973" lon="12.264372"><ele>10.0</ele><time>2026-03-22T10:38:06.717Z</time></trkpt><trkpt lat="45.6604712" lon="12.264364"><ele>10.0</ele><time>2026-03-22T10:38:10.788Z</time></trkpt><trkpt lat="45.6605389" lon="12.2643723"><ele>10.0</ele><time>2026-03-22T10:38:16.78Z</time></trkpt><trkpt lat="45.6606139" lon="12.2643714"><ele>10.0</ele><time>2026-03-22T10:38:20.855Z</time></trkpt><trkpt lat="45.6606857" lon="12.2643552"><ele>10.0</ele><time>2026-03-22T10:38:23.731Z</time></trkpt><trkpt lat="45.6607575" lon="12.2643339"><ele>10.0</ele><time>2026-03-22T10:38:26.848Z</time></trkpt><trkpt lat="45.6608402" lon="12.2643412"><ele>10.0</ele><time>2026-03-22T10:38:30.854Z</time></trkpt><trkpt lat="45.6609139" lon="12.2643422"><ele>10.0</ele><time>2026-03-22T10:38:34.757Z</time></trkpt><trkpt lat="45.6609763" lon="12.2643275"><ele>10.0</ele><time>2026-03-22T10:38:37.753Z</time></trkpt><trkpt lat="45.6610566" lon="12.2643002"><ele>10.0</ele><time>2026-03-22T10:38:41.827Z</time></trkpt><trkpt lat="45.6611405" lon="12.264312"><ele>10.0</ele><time>2026-03-22T10:38:45.834Z</time></trkpt><trkpt lat="45.6612216" lon="12.2643069"><ele>10.142857142857142</ele><time>2026-03-22T10:38:49.737Z</time></trkpt><trkpt lat="45.6612831" lon="12.2642737"><ele>10.285714285714286</ele><time>2026-03-22T10:38:53.811Z</time></trkpt><trkpt lat="45.6613605" lon="12.2642436"><ele>10.428571428571429</ele><time>2026-03-22T10:38:58.845Z</time></trkpt><trkpt lat="45.6614317" lon="12.2642327"><ele>10.571428571428571</ele><time>2026-03-22T10:39:02.8Z</time></trkpt><trkpt lat="45.6615004" lon="12.2642159"><ele>10.714285714285714</ele><time>2026-03-22T10:39:06.874Z</time></trkpt><trkpt lat="45.6615832" lon="12.2642084"><ele>10.857142857142858</ele><time>2026-03-22T10:39:10.829Z</time></trkpt><trkpt lat="45.6616577" lon="12.2641866"><ele>11.0</ele><time>2026-03-22T10:39:14.785Z</time></trkpt><trkpt lat="45.6617231" lon="12.2641547"><ele>11.0</ele><time>2026-03-22T10:39:18.739Z</time></trkpt><trkpt lat="45.6617958" lon="12.2641173"><ele>11.0</ele><time>2026-03-22T10:39:22.814Z</time></trkpt><trkpt lat="45.6618556" lon="12.2640881"><ele>11.0</ele><time>2026-03-22T10:39:25.809Z</time></trkpt><trkpt lat="45.6619151" lon="12.264055"><ele>11.0</ele><time>2026-03-22T10:39:28.805Z</time></trkpt><trkpt lat="45.6619844" lon="12.2640247"><ele>11.0</ele><time>2026-03-22T10:39:31.801Z</time></trkpt><trkpt lat="45.6620445" lon="12.2639915"><ele>11.0</ele><time>2026-03-22T10:39:34.797Z</time></trkpt><trkpt lat="45.6621096" lon="12.2639528"><ele>11.0</ele><time>2026-03-22T10:39:38.752Z</time></trkpt><trkpt lat="45.6621822" lon="12.263918"><ele>11.142857142857142</ele><time>2026-03-22T10:39:42.827Z</time></trkpt><trkpt lat="45.6622479" lon="12.2638894"><ele>11.285714285714285</ele><time>2026-03-22T10:39:46.814Z</time></trkpt><trkpt lat="45.6623198" lon="12.2638496"><ele>11.428571428571427</ele><time>2026-03-22T10:39:50.858Z</time></trkpt><trkpt lat="45.6623813" lon="12.2637963"><ele>11.571428571428571</ele><time>2026-03-22T10:39:54.811Z</time></trkpt><trkpt lat="45.6624422" lon="12.2637524"><ele>11.714285714285714</ele><time>2026-03-22T10:39:57.808Z</time></trkpt><trkpt lat="45.6625057" lon="12.2637131"><ele>11.857142857142856</ele><time>2026-03-22T10:40:01.761Z</time></trkpt><trkpt lat="45.6625606" lon="12.2636375"><ele>12.0</ele><time>2026-03-22T10:40:06.795Z</time></trkpt><trkpt lat="45.6626283" lon="12.2635827"><ele>11.999999999999998</ele><time>2026-03-22T10:40:10.749Z</time></trkpt><trkpt lat="45.6626929" lon="12.2635535"><ele>12.0</ele><time>2026-03-22T10:40:13.745Z</time></trkpt><trkpt lat="45.6627569" lon="12.2635146"><ele>12.0</ele><time>2026-03-22T10:40:16.742Z</time></trkpt><trkpt lat="45.6628089" lon="12.2634579"><ele>12.0</ele><time>2026-03-22T10:40:19.738Z</time></trkpt><trkpt lat="45.6628622" lon="12.2634053"><ele>12.0</ele><time>2026-03-22T10:40:22.734Z</time></trkpt><trkpt lat="45.6629214" lon="12.2633224"><ele>11.999999999999998</ele><time>2026-03-22T10:40:26.808Z</time></trkpt><trkpt lat="45.66298" lon="12.2632644"><ele>12.0</ele><time>2026-03-22T10:40:30.657Z</time></trkpt><trkpt lat="45.6630181" lon="12.2631707"><ele>11.571428571428571</ele><time>2026-03-22T10:40:35.796Z</time></trkpt><trkpt lat="45.6630488" lon="12.2630888"><ele>11.142857142857142</ele><time>2026-03-22T10:40:39.751Z</time></trkpt><trkpt lat="45.6630965" lon="12.2630073"><ele>10.714285714285715</ele><time>2026-03-22T10:40:43.826Z</time></trkpt><trkpt lat="45.6631326" lon="12.2629258"><ele>10.285714285714285</ele><time>2026-03-22T10:40:47.78Z</time></trkpt><trkpt lat="45.6631786" lon="12.2628556"><ele>9.857142857142858</ele><time>2026-03-22T10:40:51.778Z</time></trkpt><trkpt lat="45.663215" lon="12.2627683"><ele>9.428571428571429</ele><time>2026-03-22T10:40:55.804Z</time></trkpt><trkpt lat="45.663255" lon="12.2626823"><ele>9.0</ele><time>2026-03-22T10:40:59.737Z</time></trkpt><trkpt lat="45.663291" lon="12.2625854"><ele>9.000000000000002</ele><time>2026-03-22T10:41:03.744Z</time></trkpt><trkpt lat="45.6633282" lon="12.2624999"><ele>9.0</ele><time>2026-03-22T10:41:07.737Z</time></trkpt><trkpt lat="45.6633525" lon="12.2624115"><ele>9.0</ele><time>2026-03-22T10:41:11.721Z</time></trkpt><trkpt lat="45.6633734" lon="12.2623141"><ele>9.0</ele><time>2026-03-22T10:41:15.717Z</time></trkpt><trkpt lat="45.6634107" lon="12.2622108"><ele>9.0</ele><time>2026-03-22T10:41:19.779Z</time></trkpt><trkpt lat="45.6634341" lon="12.2621121"><ele>9.000000000000002</ele><time>2026-03-22T10:41:23.696Z</time></trkpt><trkpt lat="45.663447" lon="12.2620203"><ele>9.0</ele><time>2026-03-22T10:41:27.641Z</time></trkpt><trkpt lat="45.6634491" lon="12.2619276"><ele>9.142857142857144</ele><time>2026-03-22T10:41:31.594Z</time></trkpt><trkpt lat="45.6634467" lon="12.2618205"><ele>9.285714285714286</ele><time>2026-03-22T10:41:35.836Z</time></trkpt><trkpt lat="45.6634218" lon="12.2617156"><ele>9.428571428571429</ele><time>2026-03-22T10:41:39.791Z</time></trkpt><trkpt lat="45.663409" lon="12.2616154"><ele>9.571428571428573</ele><time>2026-03-22T10:41:43.866Z</time></trkpt><trkpt lat="45.6633906" lon="12.2615139"><ele>9.714285714285715</ele><time>2026-03-22T10:41:47.82Z</time></trkpt><trkpt lat="45.6633346" lon="12.2614388"><ele>9.857142857142858</ele><time>2026-03-22T10:41:50.816Z</time></trkpt><trkpt lat="45.663282" lon="12.261373"><ele>10.0</ele><time>2026-03-22T10:41:53.812Z</time></trkpt><trkpt lat="45.6632274" lon="12.2613182"><ele>10.0</ele><time>2026-03-22T10:41:56.808Z</time></trkpt><trkpt lat="45.6631828" lon="12.2612534"><ele>10.0</ele><time>2026-03-22T10:41:59.804Z</time></trkpt><trkpt lat="45.6631321" lon="12.2611957"><ele>10.0</ele><time>2026-03-22T10:42:02.8Z</time></trkpt><trkpt lat="45.6630713" lon="12.2611368"><ele>10.0</ele><time>2026-03-22T10:42:05.881Z</time></trkpt><trkpt lat="45.6630077" lon="12.2610834"><ele>10.0</ele><time>2026-03-22T10:42:09.751Z</time></trkpt><trkpt lat="45.6629455" lon="12.2610235"><ele>10.0</ele><time>2026-03-22T10:42:13.827Z</time></trkpt><trkpt lat="45.6628796" lon="12.2609677"><ele>10.0</ele><time>2026-03-22T10:42:17.781Z</time></trkpt><trkpt lat="45.6628202" lon="12.2609263"><ele>9.857142857142858</ele><time>2026-03-22T10:42:21.856Z</time></trkpt><trkpt lat="45.662762" lon="12.2608746"><ele>9.714285714285715</ele><time>2026-03-22T10:42:25.81Z</time></trkpt><trkpt lat="45.6626974" lon="12.2608287"><ele>9.571428571428573</ele><time>2026-03-22T10:42:29.765Z</time></trkpt><trkpt lat="45.6626267" lon="12.2607621"><ele>9.428571428571429</ele><time>2026-03-22T10:42:33.744Z</time></trkpt><trkpt lat="45.6625683" lon="12.2606915"><ele>9.285714285714286</ele><time>2026-03-22T10:42:37.738Z</time></trkpt><trkpt lat="45.6625215" lon="12.2606062"><ele>9.142857142857144</ele><time>2026-03-22T10:42:41.781Z</time></trkpt><trkpt lat="45.6624818" lon="12.2605234"><ele>9.0</ele><time>2026-03-22T10:42:45.676Z</time></trkpt><trkpt lat="45.6625032" lon="12.2604044"><ele>9.0</ele><time>2026-03-22T10:42:49.778Z</time></trkpt><trkpt lat="45.6625649" lon="12.2603137"><ele>9.0</ele><time>2026-03-22T10:42:52.774Z</time></trkpt><trkpt lat="45.6626363" lon="12.260266"><ele>9.0</ele><time>2026-03-22T10:42:55.77Z</time></trkpt><trkpt lat="45.662703" lon="12.2602248"><ele>9.0</ele><time>2026-03-22T10:42:58.767Z</time></trkpt><trkpt lat="45.6627527" lon="12.260163"><ele>9.0</ele><time>2026-03-22T10:43:01.736Z</time></trkpt><trkpt lat="45.6628093" lon="12.2600893"><ele>9.0</ele><time>2026-03-22T10:43:05.837Z</time></trkpt><trkpt lat="45.6628732" lon="12.260039"><ele>9.0</ele><time>2026-03-22T10:43:09.792Z</time></trkpt><trkpt lat="45.6629402" lon="12.2599851"><ele>9.0</ele><time>2026-03-22T10:43:13.619Z</time></trkpt><trkpt lat="45.6630173" lon="12.2599606"><ele>9.0</ele><time>2026-03-22T10:43:17.822Z</time></trkpt><trkpt lat="45.6630803" lon="12.2599192"><ele>9.0</ele><time>2026-03-22T10:43:21.859Z</time></trkpt><trkpt lat="45.6631478" lon="12.2598529"><ele>9.0</ele><time>2026-03-22T10:43:25.851Z</time></trkpt><trkpt lat="45.663218" lon="12.2597843"><ele>9.0</ele><time>2026-03-22T10:43:29.797Z</time></trkpt><trkpt lat="45.663279" lon="12.2597287"><ele>8.857142857142858</ele><time>2026-03-22T10:43:33.784Z</time></trkpt><trkpt lat="45.6633413" lon="12.2596811"><ele>8.714285714285715</ele><time>2026-03-22T10:43:37.834Z</time></trkpt><trkpt lat="45.6634031" lon="12.2596247"><ele>8.571428571428571</ele><time>2026-03-22T10:43:41.789Z</time></trkpt><trkpt lat="45.663455" lon="12.2595593"><ele>8.428571428571429</ele><time>2026-03-22T10:43:45.744Z</time></trkpt><trkpt lat="45.6635138" lon="12.2594975"><ele>8.285714285714285</ele><time>2026-03-22T10:43:49.818Z</time></trkpt><trkpt lat="45.6635623" lon="12.2594203"><ele>8.142857142857142</ele><time>2026-03-22T10:43:53.773Z</time></trkpt><trkpt lat="45.6636193" lon="12.2593572"><ele>8.0</ele><time>2026-03-22T10:43:57.727Z</time></trkpt><trkpt lat="45.6636808" lon="12.2592948"><ele>8.333333333333332</ele><time>2026-03-22T10:44:01.802Z</time></trkpt><trkpt lat="45.6637325" lon="12.2592287"><ele>8.666666666666666</ele><time>2026-03-22T10:44:05.758Z</time></trkpt><trkpt lat="45.6637777" lon="12.2591492"><ele>9.0</ele><time>2026-03-22T10:44:09.831Z</time></trkpt><trkpt lat="45.663823" lon="12.2590507"><ele>9.333333333333334</ele><time>2026-03-22T10:44:13.786Z</time></trkpt><trkpt lat="45.6638613" lon="12.2589758"><ele>9.666666666666668</ele><time>2026-03-22T10:44:16.782Z</time></trkpt><trkpt lat="45.6639193" lon="12.2588965"><ele>10.0</ele><time>2026-03-22T10:44:20.737Z</time></trkpt><trkpt lat="45.6639666" lon="12.2588018"><ele>10.0</ele><time>2026-03-22T10:44:24.756Z</time></trkpt><trkpt lat="45.6639995" lon="12.2587006"><ele>10.0</ele><time>2026-03-22T10:44:28.766Z</time></trkpt><trkpt lat="45.6640402" lon="12.2586146"><ele>10.0</ele><time>2026-03-22T10:44:32.841Z</time></trkpt><trkpt lat="45.6640929" lon="12.2585438"><ele>10.0</ele><time>2026-03-22T10:44:36.796Z</time></trkpt><trkpt lat="45.6641399" lon="12.258463"><ele>10.0</ele><time>2026-03-22T10:44:40.803Z</time></trkpt><trkpt lat="45.6641852" lon="12.2583974"><ele>10.0</ele><time>2026-03-22T10:44:44.825Z</time></trkpt><trkpt lat="45.6642344" lon="12.2583163"><ele>10.0</ele><time>2026-03-22T10:44:48.78Z</time></trkpt><trkpt lat="45.6642881" lon="12.2582225"><ele>10.0</ele><time>2026-03-22T10:44:52.854Z</time></trkpt><trkpt lat="45.6643362" lon="12.2581455"><ele>10.0</ele><time>2026-03-22T10:44:56.809Z</time></trkpt><trkpt lat="45.6643894" lon="12.2580751"><ele>10.0</ele><time>2026-03-22T10:45:00.756Z</time></trkpt><trkpt lat="45.6644337" lon="12.2579865"><ele>10.0</ele><time>2026-03-22T10:45:04.781Z</time></trkpt><trkpt lat="45.6644772" lon="12.2579068"><ele>10.0</ele><time>2026-03-22T10:45:08.793Z</time></trkpt><trkpt lat="45.6645298" lon="12.2578409"><ele>10.0</ele><time>2026-03-22T10:45:12.868Z</time></trkpt><trkpt lat="45.6645714" lon="12.2577621"><ele>10.0</ele><time>2026-03-22T10:45:16.822Z</time></trkpt><trkpt lat="45.664598" lon="12.2576783"><ele>10.142857142857142</ele><time>2026-03-22T10:45:19.818Z</time></trkpt><trkpt lat="45.6646176" lon="12.25757"><ele>10.285714285714286</ele><time>2026-03-22T10:45:23.773Z</time></trkpt><trkpt lat="45.664646" lon="12.2574815"><ele>10.428571428571429</ele><time>2026-03-22T10:45:28.808Z</time></trkpt><trkpt lat="45.6646747" lon="12.2573949"><ele>10.571428571428571</ele><time>2026-03-22T10:45:32.761Z</time></trkpt><trkpt lat="45.6646612" lon="12.2572942"><ele>10.714285714285714</ele><time>2026-03-22T10:45:35.877Z</time></trkpt><trkpt lat="45.6646172" lon="12.2572054"><ele>10.857142857142858</ele><time>2026-03-22T10:45:38.873Z</time></trkpt><trkpt lat="45.6645662" lon="12.2571131"><ele>11.0</ele><time>2026-03-22T10:45:41.869Z</time></trkpt><trkpt lat="45.6645216" lon="12.2570311"><ele>11.0</ele><time>2026-03-22T10:45:44.865Z</time></trkpt><trkpt lat="45.6644877" lon="12.2569376"><ele>11.0</ele><time>2026-03-22T10:45:47.794Z</time></trkpt><trkpt lat="45.664461" lon="12.2568354"><ele>11.0</ele><time>2026-03-22T10:45:51.816Z</time></trkpt><trkpt lat="45.6644466" lon="12.2567443"><ele>11.0</ele><time>2026-03-22T10:45:55.754Z</time></trkpt><trkpt lat="45.6644126" lon="12.2566568"><ele>11.0</ele><time>2026-03-22T10:45:59.845Z</time></trkpt><trkpt lat="45.6643787" lon="12.2565663"><ele>11.0</ele><time>2026-03-22T10:46:04.759Z</time></trkpt><trkpt lat="45.6643428" lon="12.2564895"><ele>11.0</ele><time>2026-03-22T10:46:08.857Z</time></trkpt><trkpt lat="45.6642904" lon="12.2564001"><ele>10.714285714285715</ele><time>2026-03-22T10:46:12.788Z</time></trkpt><trkpt lat="45.6642465" lon="12.2563141"><ele>10.428571428571429</ele><time>2026-03-22T10:46:15.784Z</time></trkpt><trkpt lat="45.6641929" lon="12.2562312"><ele>10.142857142857142</ele><time>2026-03-22T10:46:19.859Z</time></trkpt><trkpt lat="45.6641684" lon="12.256129"><ele>9.857142857142858</ele><time>2026-03-22T10:46:23.815Z</time></trkpt><trkpt lat="45.6641569" lon="12.2560291"><ele>9.571428571428571</ele><time>2026-03-22T10:46:27.769Z</time></trkpt><trkpt lat="45.6641184" lon="12.2559367"><ele>9.285714285714286</ele><time>2026-03-22T10:46:31.843Z</time></trkpt><trkpt lat="45.6640671" lon="12.2558624"><ele>9.0</ele><time>2026-03-22T10:46:35.798Z</time></trkpt><trkpt lat="45.6640419" lon="12.2557692"><ele>9.000000000000002</ele><time>2026-03-22T10:46:41.79Z</time></trkpt><trkpt lat="45.6639962" lon="12.2557016"><ele>9.0</ele><time>2026-03-22T10:46:46.824Z</time></trkpt><trkpt lat="45.6639431" lon="12.2556172"><ele>9.0</ele><time>2026-03-22T10:46:50.779Z</time></trkpt><trkpt lat="45.6638969" lon="12.2555318"><ele>9.0</ele><time>2026-03-22T10:46:53.775Z</time></trkpt><trkpt lat="45.6638546" lon="12.2554362"><ele>9.0</ele><time>2026-03-22T10:46:56.89Z</time></trkpt><trkpt lat="45.6638226" lon="12.2553573"><ele>9.000000000000002</ele><time>2026-03-22T10:46:59.887Z</time></trkpt><trkpt lat="45.6638045" lon="12.2552709"><ele>9.0</ele><time>2026-03-22T10:47:03.842Z</time></trkpt><trkpt lat="45.6637901" lon="12.2551693"><ele>9.285714285714286</ele><time>2026-03-22T10:47:07.796Z</time></trkpt><trkpt lat="45.6637634" lon="12.2550645"><ele>9.571428571428571</ele><time>2026-03-22T10:47:11.871Z</time></trkpt><trkpt lat="45.6637364" lon="12.2549826"><ele>9.857142857142858</ele><time>2026-03-22T10:47:14.868Z</time></trkpt><trkpt lat="45.6637319" lon="12.2548917"><ele>10.142857142857142</ele><time>2026-03-22T10:47:18.822Z</time></trkpt><trkpt lat="45.6637982" lon="12.2549008"><ele>10.428571428571429</ele><time>2026-03-22T10:47:29.848Z</time></trkpt><trkpt lat="45.6638614" lon="12.2548637"><ele>10.714285714285715</ele><time>2026-03-22T10:47:33.802Z</time></trkpt><trkpt lat="45.6638795" lon="12.2547754"><ele>11.0</ele><time>2026-03-22T10:47:36.799Z</time></trkpt><trkpt lat="45.6638857" lon="12.2546702"><ele>11.428571428571429</ele><time>2026-03-22T10:47:40.873Z</time></trkpt><trkpt lat="45.663858" lon="12.2545605"><ele>11.857142857142858</ele><time>2026-03-22T10:47:44.829Z</time></trkpt><trkpt lat="45.663845" lon="12.2544591"><ele>12.285714285714285</ele><time>2026-03-22T10:47:48.903Z</time></trkpt><trkpt lat="45.6638292" lon="12.2543605"><ele>12.714285714285715</ele><time>2026-03-22T10:47:52.858Z</time></trkpt><trkpt lat="45.6638146" lon="12.2542682"><ele>13.142857142857142</ele><time>2026-03-22T10:47:56.812Z</time></trkpt><trkpt lat="45.663802" lon="12.2541722"><ele>13.571428571428571</ele><time>2026-03-22T10:48:00.887Z</time></trkpt><trkpt lat="45.6637938" lon="12.2540781"><ele>14.0</ele><time>2026-03-22T10:48:03.883Z</time></trkpt><trkpt lat="45.6637933" lon="12.2539857"><ele>14.428571428571429</ele><time>2026-03-22T10:48:06.879Z</time></trkpt><trkpt lat="45.6637814" lon="12.2538779"><ele>14.857142857142858</ele><time>2026-03-22T10:48:10.834Z</time></trkpt><trkpt lat="45.6637509" lon="12.2537869"><ele>15.285714285714285</ele><time>2026-03-22T10:48:14.789Z</time></trkpt><trkpt lat="45.6637341" lon="12.2536835"><ele>15.714285714285714</ele><time>2026-03-22T10:48:18.864Z</time></trkpt><trkpt lat="45.6637183" lon="12.2535776"><ele>16.142857142857142</ele><time>2026-03-22T10:48:22.818Z</time></trkpt><trkpt lat="45.6636974" lon="12.2534902"><ele>16.57142857142857</ele><time>2026-03-22T10:48:26.883Z</time></trkpt><trkpt lat="45.6636983" lon="12.2533742"><ele>17.0</ele><time>2026-03-22T10:48:30.838Z</time></trkpt><trkpt lat="45.663696" lon="12.2532652"><ele>16.999999999999996</ele><time>2026-03-22T10:48:34.794Z</time></trkpt><trkpt lat="45.6636785" lon="12.2531661"><ele>17.0</ele><time>2026-03-22T10:48:38.868Z</time></trkpt><trkpt lat="45.6636553" lon="12.2530675"><ele>17.0</ele><time>2026-03-22T10:48:42.822Z</time></trkpt><trkpt lat="45.6636285" lon="12.252973"><ele>17.0</ele><time>2026-03-22T10:48:46.777Z</time></trkpt><trkpt lat="45.6636077" lon="12.2528871"><ele>17.0</ele><time>2026-03-22T10:48:50.852Z</time></trkpt><trkpt lat="45.6635731" lon="12.2527841"><ele>16.999999999999996</ele><time>2026-03-22T10:48:54.807Z</time></trkpt><trkpt lat="45.6635468" lon="12.2527012"><ele>17.0</ele><time>2026-03-22T10:48:57.803Z</time></trkpt><trkpt lat="45.6635263" lon="12.2526153"><ele>16.142857142857142</ele><time>2026-03-22T10:49:00.799Z</time></trkpt><trkpt lat="45.663492" lon="12.2525095"><ele>15.285714285714285</ele><time>2026-03-22T10:49:04.766Z</time></trkpt><trkpt lat="45.6634589" lon="12.2523965"><ele>14.428571428571427</ele><time>2026-03-22T10:49:08.901Z</time></trkpt><trkpt lat="45.6634417" lon="12.2522842"><ele>13.57142857142857</ele><time>2026-03-22T10:49:12.903Z</time></trkpt><trkpt lat="45.6634387" lon="12.2521886"><ele>12.714285714285714</ele><time>2026-03-22T10:49:16.858Z</time></trkpt><trkpt lat="45.66344" lon="12.2520911"><ele>11.857142857142858</ele><time>2026-03-22T10:49:21.891Z</time></trkpt><trkpt lat="45.6634395" lon="12.2519961"><ele>11.0</ele><time>2026-03-22T10:49:25.846Z</time></trkpt><trkpt lat="45.6634674" lon="12.251898"><ele>11.0</ele><time>2026-03-22T10:49:29.724Z</time></trkpt><trkpt lat="45.6635147" lon="12.2518083"><ele>11.0</ele><time>2026-03-22T10:49:33.789Z</time></trkpt><trkpt lat="45.6635609" lon="12.2517222"><ele>11.0</ele><time>2026-03-22T10:49:37.804Z</time></trkpt><trkpt lat="45.6636139" lon="12.2516479"><ele>11.0</ele><time>2026-03-22T10:49:41.785Z</time></trkpt><trkpt lat="45.6636595" lon="12.2515735"><ele>11.0</ele><time>2026-03-22T10:49:44.964Z</time></trkpt><trkpt lat="45.6637114" lon="12.2514973"><ele>11.0</ele><time>2026-03-22T10:49:49.028Z</time></trkpt><trkpt lat="45.663772" lon="12.2514681"><ele>11.0</ele><time>2026-03-22T10:49:52.811Z</time></trkpt><trkpt lat="45.6638364" lon="12.2514089"><ele>11.166666666666666</ele><time>2026-03-22T10:49:56.886Z</time></trkpt><trkpt lat="45.6639041" lon="12.2513454"><ele>11.333333333333332</ele><time>2026-03-22T10:50:00.841Z</time></trkpt><trkpt lat="45.6639836" lon="12.2513097"><ele>11.5</ele><time>2026-03-22T10:50:04.749Z</time></trkpt><trkpt lat="45.664057" lon="12.2512608"><ele>11.666666666666666</ele><time>2026-03-22T10:50:08.871Z</time></trkpt><trkpt lat="45.6641274" lon="12.251208"><ele>11.833333333333334</ele><time>2026-03-22T10:50:12.829Z</time></trkpt><trkpt lat="45.6641842" lon="12.2511483"><ele>12.0</ele><time>2026-03-22T10:50:16.78Z</time></trkpt><trkpt lat="45.6642488" lon="12.2510858"><ele>11.999999999999998</ele><time>2026-03-22T10:50:21.813Z</time></trkpt><trkpt lat="45.6643169" lon="12.2510487"><ele>12.0</ele><time>2026-03-22T10:50:25.768Z</time></trkpt><trkpt lat="45.6643428" lon="12.2509522"><ele>12.0</ele><time>2026-03-22T10:50:30.802Z</time></trkpt><trkpt lat="45.6643215" lon="12.2508603"><ele>12.0</ele><time>2026-03-22T10:50:34.877Z</time></trkpt><trkpt lat="45.6643103" lon="12.2507493"><ele>12.0</ele><time>2026-03-22T10:50:38.831Z</time></trkpt><trkpt lat="45.6642879" lon="12.250638"><ele>11.999999999999998</ele><time>2026-03-22T10:50:42.786Z</time></trkpt><trkpt lat="45.6642732" lon="12.2505488"><ele>12.0</ele><time>2026-03-22T10:50:45.782Z</time></trkpt><trkpt lat="45.6642451" lon="12.2504407"><ele>11.833333333333334</ele><time>2026-03-22T10:50:49.857Z</time></trkpt><trkpt lat="45.6642268" lon="12.2503442"><ele>11.666666666666666</ele><time>2026-03-22T10:50:53.812Z</time></trkpt><trkpt lat="45.664216" lon="12.2502439"><ele>11.5</ele><time>2026-03-22T10:50:57.767Z</time></trkpt><trkpt lat="45.664193" lon="12.2501544"><ele>11.333333333333332</ele><time>2026-03-22T10:51:01.842Z</time></trkpt><trkpt lat="45.664166" lon="12.2500615"><ele>11.166666666666666</ele><time>2026-03-22T10:51:05.669Z</time></trkpt><trkpt lat="45.6641441" lon="12.2499354"><ele>11.0</ele><time>2026-03-22T10:51:09.686Z</time></trkpt><trkpt lat="45.6640996" lon="12.249823"><ele>11.0</ele><time>2026-03-22T10:51:12.701Z</time></trkpt><trkpt lat="45.6640669" lon="12.2497296"><ele>11.0</ele><time>2026-03-22T10:51:16.823Z</time></trkpt><trkpt lat="45.6640827" lon="12.2496346"><ele>11.0</ele><time>2026-03-22T10:51:20.777Z</time></trkpt><trkpt lat="45.6640572" lon="12.2495434"><ele>11.0</ele><time>2026-03-22T10:51:25.743Z</time></trkpt><trkpt lat="45.6640178" lon="12.2494582"><ele>11.0</ele><time>2026-03-22T10:51:30.727Z</time></trkpt><trkpt lat="45.6639937" lon="12.2493682"><ele>11.0</ele><time>2026-03-22T10:51:34.723Z</time></trkpt><trkpt lat="45.6639722" lon="12.2492713"><ele>11.0</ele><time>2026-03-22T10:51:38.687Z</time></trkpt><trkpt lat="45.6639375" lon="12.2491822"><ele>11.0</ele><time>2026-03-22T10:51:42.822Z</time></trkpt><trkpt lat="45.6638969" lon="12.2490832"><ele>11.0</ele><time>2026-03-22T10:51:47.906Z</time></trkpt><trkpt lat="45.6638701" lon="12.2489979"><ele>11.0</ele><time>2026-03-22T10:51:51.818Z</time></trkpt><trkpt lat="45.6638374" lon="12.248882"><ele>11.0</ele><time>2026-03-22T10:51:55.866Z</time></trkpt><trkpt lat="45.6637961" lon="12.2487801"><ele>11.0</ele><time>2026-03-22T10:51:59.702Z</time></trkpt><trkpt lat="45.6637575" lon="12.2487041"><ele>11.0</ele><time>2026-03-22T10:52:02.908Z</time></trkpt><trkpt lat="45.6636867" lon="12.2487105"><ele>11.142857142857142</ele><time>2026-03-22T10:52:07.879Z</time></trkpt><trkpt lat="45.6636221" lon="12.2487376"><ele>11.285714285714285</ele><time>2026-03-22T10:52:10.874Z</time></trkpt><trkpt lat="45.6635655" lon="12.2486746"><ele>11.428571428571427</ele><time>2026-03-22T10:52:15.788Z</time></trkpt><trkpt lat="45.6635229" lon="12.2485859"><ele>11.571428571428571</ele><time>2026-03-22T10:52:19.863Z</time></trkpt><trkpt lat="45.6634885" lon="12.248491"><ele>11.714285714285714</ele><time>2026-03-22T10:52:23.818Z</time></trkpt><trkpt lat="45.6634618" lon="12.2483925"><ele>11.857142857142856</ele><time>2026-03-22T10:52:27.893Z</time></trkpt><trkpt lat="45.6634617" lon="12.2482862"><ele>12.0</ele><time>2026-03-22T10:52:30.89Z</time></trkpt><trkpt lat="45.6634679" lon="12.2481938"><ele>12.428571428571427</ele><time>2026-03-22T10:52:33.886Z</time></trkpt><trkpt lat="45.6634593" lon="12.248087"><ele>12.857142857142858</ele><time>2026-03-22T10:52:37.841Z</time></trkpt><trkpt lat="45.6634608" lon="12.2479926"><ele>13.285714285714285</ele><time>2026-03-22T10:52:41.797Z</time></trkpt><trkpt lat="45.6634624" lon="12.2478999"><ele>13.714285714285714</ele><time>2026-03-22T10:52:44.792Z</time></trkpt><trkpt lat="45.6634572" lon="12.2477835"><ele>14.142857142857142</ele><time>2026-03-22T10:52:48.867Z</time></trkpt><trkpt lat="45.6634511" lon="12.2476786"><ele>14.571428571428571</ele><time>2026-03-22T10:52:52.822Z</time></trkpt><trkpt lat="45.6634552" lon="12.2475759"><ele>15.0</ele><time>2026-03-22T10:52:56.778Z</time></trkpt><trkpt lat="45.6634489" lon="12.2474716"><ele>15.0</ele><time>2026-03-22T10:53:00.704Z</time></trkpt><trkpt lat="45.6634274" lon="12.2473622"><ele>15.0</ele><time>2026-03-22T10:53:04.739Z</time></trkpt><trkpt lat="45.6634411" lon="12.2472515"><ele>15.0</ele><time>2026-03-22T10:53:08.825Z</time></trkpt><trkpt lat="45.6634371" lon="12.2471568"><ele>15.0</ele><time>2026-03-22T10:53:12.837Z</time></trkpt><trkpt lat="45.6634317" lon="12.2470617"><ele>15.0</ele><time>2026-03-22T10:53:16.664Z</time></trkpt><trkpt lat="45.6634403" lon="12.2469544"><ele>15.0</ele><time>2026-03-22T10:53:20.867Z</time></trkpt><trkpt lat="45.6634457" lon="12.2468633"><ele>15.0</ele><time>2026-03-22T10:53:23.686Z</time></trkpt><trkpt lat="45.6634066" lon="12.2467892"><ele>15.142857142857142</ele><time>2026-03-22T10:53:26.802Z</time></trkpt><trkpt lat="45.663338" lon="12.2467293"><ele>15.285714285714285</ele><time>2026-03-22T10:53:30.827Z</time></trkpt><trkpt lat="45.6632855" lon="12.2466784"><ele>15.428571428571427</ele><time>2026-03-22T10:53:36.797Z</time></trkpt><trkpt lat="45.6632505" lon="12.2465883"><ele>15.571428571428571</ele><time>2026-03-22T10:53:40.564Z</time></trkpt><trkpt lat="45.6631941" lon="12.2465408"><ele>15.714285714285712</ele><time>2026-03-22T10:53:44.826Z</time></trkpt><trkpt lat="45.6631379" lon="12.2464865"><ele>15.857142857142856</ele><time>2026-03-22T10:53:48.901Z</time></trkpt><trkpt lat="45.6630667" lon="12.24646"><ele>16.0</ele><time>2026-03-22T10:53:52.769Z</time></trkpt><trkpt lat="45.6629961" lon="12.2464211"><ele>16.0</ele><time>2026-03-22T10:53:56.745Z</time></trkpt><trkpt lat="45.6629266" lon="12.2463982"><ele>15.999999999999998</ele><time>2026-03-22T10:54:01.845Z</time></trkpt><trkpt lat="45.6628738" lon="12.2464814"><ele>16.0</ele><time>2026-03-22T10:54:06.822Z</time></trkpt><trkpt lat="45.6628268" lon="12.2465516"><ele>16.0</ele><time>2026-03-22T10:54:09.874Z</time></trkpt><trkpt lat="45.6627704" lon="12.2466022"><ele>15.999999999999998</ele><time>2026-03-22T10:54:12.871Z</time></trkpt><trkpt lat="45.662692" lon="12.2466278"><ele>16.0</ele><time>2026-03-22T10:54:15.699Z</time></trkpt><trkpt lat="45.6626201" lon="12.2466182"><ele>16.0</ele><time>2026-03-22T10:54:18.806Z</time></trkpt><trkpt lat="45.6625461" lon="12.2466551"><ele>15.857142857142856</ele><time>2026-03-22T10:54:22.818Z</time></trkpt><trkpt lat="45.6624756" lon="12.2466753"><ele>15.714285714285712</ele><time>2026-03-22T10:54:26.773Z</time></trkpt><trkpt lat="45.6624103" lon="12.2466919"><ele>15.571428571428571</ele><time>2026-03-22T10:54:29.881Z</time></trkpt><trkpt lat="45.6623468" lon="12.2467021"><ele>15.428571428571427</ele><time>2026-03-22T10:54:32.765Z</time></trkpt><trkpt lat="45.6622769" lon="12.2466813"><ele>15.285714285714285</ele><time>2026-03-22T10:54:38.877Z</time></trkpt><trkpt lat="45.6622374" lon="12.2465928"><ele>15.142857142857142</ele><time>2026-03-22T10:54:44.821Z</time></trkpt><trkpt lat="45.6622368" lon="12.246486"><ele>15.0</ele><time>2026-03-22T10:54:49.068Z</time></trkpt><trkpt lat="45.662205" lon="12.2464037"><ele>15.0</ele><time>2026-03-22T10:54:54.817Z</time></trkpt><trkpt lat="45.6621985" lon="12.2463138"><ele>15.0</ele><time>2026-03-22T10:55:05.745Z</time></trkpt><trkpt lat="45.6621537" lon="12.2461963"><ele>15.0</ele><time>2026-03-22T10:55:09.981Z</time></trkpt><trkpt lat="45.6621292" lon="12.2461012"><ele>15.0</ele><time>2026-03-22T10:55:13.007Z</time></trkpt><trkpt lat="45.6620865" lon="12.2460179"><ele>15.0</ele><time>2026-03-22T10:55:16.063Z</time></trkpt><trkpt lat="45.6620258" lon="12.2459476"><ele>15.0</ele><time>2026-03-22T10:55:19.172Z</time></trkpt><trkpt lat="45.6619909" lon="12.2458687"><ele>15.0</ele><time>2026-03-22T10:55:22.861Z</time></trkpt><trkpt lat="45.6620109" lon="12.2457654"><ele>15.0</ele><time>2026-03-22T10:55:26.816Z</time></trkpt><trkpt lat="45.6619791" lon="12.2456788"><ele>15.0</ele><time>2026-03-22T10:55:35.804Z</time></trkpt><trkpt lat="45.6619148" lon="12.2457105"><ele>15.0</ele><time>2026-03-22T10:55:38.92Z</time></trkpt><trkpt lat="45.6618624" lon="12.2457686"><ele>15.0</ele><time>2026-03-22T10:55:41.788Z</time></trkpt><trkpt lat="45.6618124" lon="12.2458363"><ele>15.0</ele><time>2026-03-22T10:55:44.912Z</time></trkpt><trkpt lat="45.6617812" lon="12.2457541"><ele>15.0</ele><time>2026-03-22T10:55:57.855Z</time></trkpt><trkpt lat="45.6617524" lon="12.2456667"><ele>15.0</ele><time>2026-03-22T10:56:06.767Z</time></trkpt><trkpt lat="45.6617936" lon="12.245588"><ele>14.857142857142858</ele><time>2026-03-22T10:56:11.877Z</time></trkpt><trkpt lat="45.6618664" lon="12.2455598"><ele>14.714285714285714</ele><time>2026-03-22T10:56:14.874Z</time></trkpt><trkpt lat="45.6619377" lon="12.2455164"><ele>14.571428571428571</ele><time>2026-03-22T10:56:17.869Z</time></trkpt><trkpt lat="45.6620046" lon="12.2454761"><ele>14.428571428571429</ele><time>2026-03-22T10:56:20.729Z</time></trkpt><trkpt lat="45.6620552" lon="12.2454009"><ele>14.285714285714285</ele><time>2026-03-22T10:56:23.862Z</time></trkpt><trkpt lat="45.6620997" lon="12.245327"><ele>14.142857142857142</ele><time>2026-03-22T10:56:27.816Z</time></trkpt><trkpt lat="45.6621135" lon="12.2452366"><ele>14.0</ele><time>2026-03-22T10:56:30.812Z</time></trkpt><trkpt lat="45.6621271" lon="12.2451357"><ele>13.833333333333334</ele><time>2026-03-22T10:56:33.808Z</time></trkpt><trkpt lat="45.662112" lon="12.2450207"><ele>13.666666666666668</ele><time>2026-03-22T10:56:37.883Z</time></trkpt><trkpt lat="45.6621218" lon="12.244926"><ele>13.5</ele><time>2026-03-22T10:57:03.889Z</time></trkpt><trkpt lat="45.6621952" lon="12.2449319"><ele>13.333333333333332</ele><time>2026-03-22T10:57:08.803Z</time></trkpt><trkpt lat="45.6622762" lon="12.2449528"><ele>13.166666666666666</ele><time>2026-03-22T10:57:12.721Z</time></trkpt><trkpt lat="45.6623415" lon="12.2449543"><ele>13.0</ele><time>2026-03-22T10:57:15.786Z</time></trkpt><trkpt lat="45.6620029" lon="12.2444254"><ele>12.999999999999998</ele><time>2026-03-22T10:57:16.765Z</time></trkpt><trkpt lat="45.6619648" lon="12.2443386"><ele>13.0</ele><time>2026-03-22T10:57:17.763Z</time></trkpt><trkpt lat="45.6619503" lon="12.2442245"><ele>13.0</ele><time>2026-03-22T10:57:19.841Z</time></trkpt><trkpt lat="45.661923" lon="12.2441257"><ele>13.0</ele><time>2026-03-22T10:57:23.807Z</time></trkpt><trkpt lat="45.661869" lon="12.2440415"><ele>12.999999999999998</ele><time>2026-03-22T10:57:28.829Z</time></trkpt><trkpt lat="45.6618397" lon="12.2439496"><ele>13.0</ele><time>2026-03-22T10:57:32.844Z</time></trkpt><trkpt lat="45.6618294" lon="12.2438387"><ele>12.857142857142856</ele><time>2026-03-22T10:57:36.908Z</time></trkpt><trkpt lat="45.6618118" lon="12.2437368"><ele>12.714285714285715</ele><time>2026-03-22T10:57:40.801Z</time></trkpt><trkpt lat="45.661786" lon="12.2436532"><ele>12.571428571428571</ele><time>2026-03-22T10:57:43.99Z</time></trkpt><trkpt lat="45.6617697" lon="12.2435532"><ele>12.428571428571427</ele><time>2026-03-22T10:57:48.084Z</time></trkpt><trkpt lat="45.6617411" lon="12.2434423"><ele>12.285714285714285</ele><time>2026-03-22T10:57:52.15Z</time></trkpt><trkpt lat="45.6617373" lon="12.2433411"><ele>12.142857142857142</ele><time>2026-03-22T10:57:55.145Z</time></trkpt><trkpt lat="45.6617166" lon="12.2432375"><ele>12.0</ele><time>2026-03-22T10:57:59.248Z</time></trkpt><trkpt lat="45.6616865" lon="12.2431509"><ele>11.857142857142856</ele><time>2026-03-22T10:58:03.224Z</time></trkpt><trkpt lat="45.6616731" lon="12.2430416"><ele>11.714285714285714</ele><time>2026-03-22T10:58:07.252Z</time></trkpt><trkpt lat="45.6616545" lon="12.2429336"><ele>11.571428571428571</ele><time>2026-03-22T10:58:11.285Z</time></trkpt><trkpt lat="45.6616422" lon="12.2428447"><ele>11.428571428571427</ele><time>2026-03-22T10:58:15.289Z</time></trkpt><trkpt lat="45.6616343" lon="12.2427535"><ele>11.285714285714285</ele><time>2026-03-22T10:58:19.363Z</time></trkpt><trkpt lat="45.6616238" lon="12.2426406"><ele>11.142857142857142</ele><time>2026-03-22T10:58:24.369Z</time></trkpt><trkpt lat="45.6616065" lon="12.2425413"><ele>11.0</ele><time>2026-03-22T10:58:28.343Z</time></trkpt><trkpt lat="45.6615802" lon="12.2424526"><ele>11.0</ele><time>2026-03-22T10:58:31.488Z</time></trkpt><trkpt lat="45.6615499" lon="12.2423463"><ele>11.0</ele><time>2026-03-22T10:58:36.888Z</time></trkpt><trkpt lat="45.6615432" lon="12.2422546"><ele>11.0</ele><time>2026-03-22T10:58:40.527Z</time></trkpt><trkpt lat="45.6615174" lon="12.2421456"><ele>11.0</ele><time>2026-03-22T10:58:44.798Z</time></trkpt><trkpt lat="45.6615021" lon="12.2420413"><ele>11.0</ele><time>2026-03-22T10:58:48.873Z</time></trkpt><trkpt lat="45.6614822" lon="12.2419496"><ele>11.0</ele><time>2026-03-22T10:58:52.828Z</time></trkpt><trkpt lat="45.6614613" lon="12.2418379"><ele>11.0</ele><time>2026-03-22T10:58:56.903Z</time></trkpt><trkpt lat="45.6614592" lon="12.2417226"><ele>11.333333333333332</ele><time>2026-03-22T10:59:00.857Z</time></trkpt><trkpt lat="45.6614528" lon="12.2416086"><ele>11.666666666666666</ele><time>2026-03-22T10:59:04.812Z</time></trkpt><trkpt lat="45.6614351" lon="12.2415081"><ele>12.0</ele><time>2026-03-22T10:59:08.888Z</time></trkpt><trkpt lat="45.661418" lon="12.2414095"><ele>12.333333333333332</ele><time>2026-03-22T10:59:12.686Z</time></trkpt><trkpt lat="45.6613943" lon="12.2412985"><ele>12.666666666666666</ele><time>2026-03-22T10:59:16.642Z</time></trkpt><trkpt lat="45.6613567" lon="12.2412061"><ele>13.0</ele><time>2026-03-22T10:59:20.685Z</time></trkpt><trkpt lat="45.6613261" lon="12.2411154"><ele>13.285714285714285</ele><time>2026-03-22T10:59:24.699Z</time></trkpt><trkpt lat="45.6613072" lon="12.2410204"><ele>13.571428571428573</ele><time>2026-03-22T10:59:28.706Z</time></trkpt><trkpt lat="45.6612902" lon="12.2409275"><ele>13.857142857142858</ele><time>2026-03-22T10:59:32.67Z</time></trkpt><trkpt lat="45.6612702" lon="12.2408186"><ele>14.142857142857142</ele><time>2026-03-22T10:59:36.665Z</time></trkpt><trkpt lat="45.6612432" lon="12.2407057"><ele>14.428571428571427</ele><time>2026-03-22T10:59:40.652Z</time></trkpt><trkpt lat="45.6611975" lon="12.2406198"><ele>14.714285714285715</ele><time>2026-03-22T10:59:44.841Z</time></trkpt><trkpt lat="45.6611492" lon="12.2405568"><ele>15.0</ele><time>2026-03-22T10:59:48.797Z</time></trkpt><trkpt lat="45.6611049" lon="12.2404881"><ele>15.0</ele><time>2026-03-22T10:59:54.789Z</time></trkpt><trkpt lat="45.6610623" lon="12.2403852"><ele>15.0</ele><time>2026-03-22T10:59:59.823Z</time></trkpt><trkpt lat="45.6610335" lon="12.2402992"><ele>15.0</ele><time>2026-03-22T11:00:02.819Z</time></trkpt><trkpt lat="45.661016" lon="12.2401859"><ele>15.0</ele><time>2026-03-22T11:00:06.775Z</time></trkpt><trkpt lat="45.6610193" lon="12.2400776"><ele>15.0</ele><time>2026-03-22T11:00:10.849Z</time></trkpt><trkpt lat="45.6610352" lon="12.2399901"><ele>15.0</ele><time>2026-03-22T11:00:13.725Z</time></trkpt><trkpt lat="45.6610523" lon="12.2398953"><ele>15.0</ele><time>2026-03-22T11:00:16.721Z</time></trkpt><trkpt lat="45.661075" lon="12.2397732"><ele>15.0</ele><time>2026-03-22T11:00:20.249Z</time></trkpt><trkpt lat="45.6611004" lon="12.2396794"><ele>15.0</ele><time>2026-03-22T11:00:23.207Z</time></trkpt><trkpt lat="45.6611229" lon="12.239566"><ele>15.0</ele><time>2026-03-22T11:00:27.202Z</time></trkpt><trkpt lat="45.661132" lon="12.2394756"><ele>15.0</ele><time>2026-03-22T11:00:30.667Z</time></trkpt><trkpt lat="45.6611474" lon="12.2393845"><ele>15.0</ele><time>2026-03-22T11:00:34.083Z</time></trkpt><trkpt lat="45.6611774" lon="12.2392818"><ele>15.0</ele><time>2026-03-22T11:00:37.966Z</time></trkpt><trkpt lat="45.661198" lon="12.2391859"><ele>15.0</ele><time>2026-03-22T11:00:41.881Z</time></trkpt><trkpt lat="45.6612329" lon="12.2390918"><ele>14.714285714285715</ele><time>2026-03-22T11:00:45.829Z</time></trkpt><trkpt lat="45.6612601" lon="12.2389894"><ele>14.428571428571427</ele><time>2026-03-22T11:00:49.764Z</time></trkpt><trkpt lat="45.6612799" lon="12.238901"><ele>14.142857142857142</ele><time>2026-03-22T11:00:52.71Z</time></trkpt><trkpt lat="45.6612958" lon="12.2387994"><ele>13.857142857142858</ele><time>2026-03-22T11:00:56.603Z</time></trkpt><trkpt lat="45.6613209" lon="12.2387022"><ele>13.571428571428573</ele><time>2026-03-22T11:01:02.507Z</time></trkpt><trkpt lat="45.6613383" lon="12.2386114"><ele>13.285714285714285</ele><time>2026-03-22T11:01:06.422Z</time></trkpt><trkpt lat="45.6613679" lon="12.2385031"><ele>13.0</ele><time>2026-03-22T11:01:10.407Z</time></trkpt><trkpt lat="45.6613992" lon="12.2384112"><ele>12.857142857142856</ele><time>2026-03-22T11:01:13.77Z</time></trkpt><trkpt lat="45.661428" lon="12.2383083"><ele>12.714285714285715</ele><time>2026-03-22T11:01:17.845Z</time></trkpt><trkpt lat="45.6614163" lon="12.2382127"><ele>12.571428571428571</ele><time>2026-03-22T11:01:21.744Z</time></trkpt><trkpt lat="45.6613487" lon="12.238176"><ele>12.428571428571427</ele><time>2026-03-22T11:01:26.865Z</time></trkpt><trkpt lat="45.6612866" lon="12.2382026"><ele>12.285714285714285</ele><time>2026-03-22T11:01:31.747Z</time></trkpt><trkpt lat="45.6612247" lon="12.2381613"><ele>12.142857142857142</ele><time>2026-03-22T11:01:37.74Z</time></trkpt><trkpt lat="45.6611661" lon="12.238076"><ele>12.0</ele><time>2026-03-22T11:01:41.814Z</time></trkpt><trkpt lat="45.6611353" lon="12.2379955"><ele>12.166666666666666</ele><time>2026-03-22T11:01:45.769Z</time></trkpt><trkpt lat="45.6610802" lon="12.2379156"><ele>12.333333333333332</ele><time>2026-03-22T11:01:49.725Z</time></trkpt><trkpt lat="45.6610285" lon="12.2378272"><ele>12.5</ele><time>2026-03-22T11:01:53.799Z</time></trkpt><trkpt lat="45.6609978" lon="12.2377342"><ele>12.666666666666666</ele><time>2026-03-22T11:01:57.467Z</time></trkpt><trkpt lat="45.6609541" lon="12.2376437"><ele>12.833333333333332</ele><time>2026-03-22T11:02:01.829Z</time></trkpt><trkpt lat="45.660914" lon="12.237545"><ele>13.0</ele><time>2026-03-22T11:02:05.784Z</time></trkpt><trkpt lat="45.6608681" lon="12.2374591"><ele>13.0</ele><time>2026-03-22T11:02:09.739Z</time></trkpt><trkpt lat="45.6608359" lon="12.237368"><ele>13.0</ele><time>2026-03-22T11:02:13.814Z</time></trkpt><trkpt lat="45.6608032" lon="12.2372743"><ele>13.0</ele><time>2026-03-22T11:02:17.769Z</time></trkpt><trkpt lat="45.6607724" lon="12.2371925"><ele>13.0</ele><time>2026-03-22T11:02:21.724Z</time></trkpt><trkpt lat="45.6607475" lon="12.2370931"><ele>13.0</ele><time>2026-03-22T11:02:25.799Z</time></trkpt><trkpt lat="45.6607162" lon="12.2370114"><ele>13.0</ele><time>2026-03-22T11:02:28.795Z</time></trkpt><trkpt lat="45.6606808" lon="12.2369088"><ele>13.0</ele><time>2026-03-22T11:02:32.75Z</time></trkpt><trkpt lat="45.6606224" lon="12.2368094"><ele>12.999999999999998</ele><time>2026-03-22T11:02:37.784Z</time></trkpt><trkpt lat="45.6605843" lon="12.2367073"><ele>13.0</ele><time>2026-03-22T11:02:41.739Z</time></trkpt><trkpt lat="45.6605569" lon="12.2365956"><ele>13.0</ele><time>2026-03-22T11:02:45.814Z</time></trkpt><trkpt lat="45.6605215" lon="12.2365035"><ele>13.0</ele><time>2026-03-22T11:02:49.769Z</time></trkpt><trkpt lat="45.6604609" lon="12.2364437"><ele>12.999999999999998</ele><time>2026-03-22T11:02:54.803Z</time></trkpt><trkpt lat="45.6604457" lon="12.2363451"><ele>13.0</ele><time>2026-03-22T11:02:58.758Z</time></trkpt><trkpt lat="45.6604451" lon="12.2362384"><ele>13.0</ele><time>2026-03-22T11:03:02.833Z</time></trkpt><trkpt lat="45.6603925" lon="12.2361639"><ele>13.0</ele><time>2026-03-22T11:03:06.788Z</time></trkpt><trkpt lat="45.6603258" lon="12.2361021"><ele>13.0</ele><time>2026-03-22T11:03:10.863Z</time></trkpt><trkpt lat="45.6602545" lon="12.2360927"><ele>13.0</ele><time>2026-03-22T11:03:14.7Z</time></trkpt><trkpt lat="45.6602017" lon="12.2360409"><ele>13.0</ele><time>2026-03-22T11:03:19.745Z</time></trkpt><trkpt lat="45.6601434" lon="12.235971"><ele>13.0</ele><time>2026-03-22T11:03:24.81Z</time></trkpt><trkpt lat="45.6601414" lon="12.2358684"><ele>13.0</ele><time>2026-03-22T11:03:28.826Z</time></trkpt><trkpt lat="45.6601346" lon="12.2357787"><ele>13.0</ele><time>2026-03-22T11:03:31.862Z</time></trkpt><trkpt lat="45.6601306" lon="12.2356853"><ele>13.0</ele><time>2026-03-22T11:03:34.835Z</time></trkpt><trkpt lat="45.6601292" lon="12.2355707"><ele>13.0</ele><time>2026-03-22T11:03:38.789Z</time></trkpt><trkpt lat="45.6601502" lon="12.2354592"><ele>13.0</ele><time>2026-03-22T11:03:42.906Z</time></trkpt><trkpt lat="45.6601662" lon="12.2353685"><ele>13.0</ele><time>2026-03-22T11:03:46.842Z</time></trkpt><trkpt lat="45.6601702" lon="12.235267"><ele>13.0</ele><time>2026-03-22T11:03:51.826Z</time></trkpt><trkpt lat="45.6601522" lon="12.2351523"><ele>13.0</ele><time>2026-03-22T11:03:55.801Z</time></trkpt><trkpt lat="45.6601671" lon="12.2350508"><ele>12.857142857142856</ele><time>2026-03-22T11:03:59.805Z</time></trkpt><trkpt lat="45.6602012" lon="12.2349495"><ele>12.714285714285715</ele><time>2026-03-22T11:04:03.842Z</time></trkpt><trkpt lat="45.6602065" lon="12.2348443"><ele>12.571428571428571</ele><time>2026-03-22T11:04:07.794Z</time></trkpt><trkpt lat="45.6602113" lon="12.2347341"><ele>12.428571428571427</ele><time>2026-03-22T11:04:11.822Z</time></trkpt><trkpt lat="45.6602144" lon="12.2346301"><ele>12.285714285714285</ele><time>2026-03-22T11:04:15.826Z</time></trkpt><trkpt lat="45.6602212" lon="12.2345302"><ele>12.142857142857142</ele><time>2026-03-22T11:04:19.803Z</time></trkpt><trkpt lat="45.6602299" lon="12.234431"><ele>12.0</ele><time>2026-03-22T11:04:23.807Z</time></trkpt><trkpt lat="45.6602526" lon="12.2343312"><ele>11.857142857142856</ele><time>2026-03-22T11:04:27.809Z</time></trkpt><trkpt lat="45.6602703" lon="12.2342364"><ele>11.714285714285714</ele><time>2026-03-22T11:04:31.849Z</time></trkpt><trkpt lat="45.6602896" lon="12.23413"><ele>11.571428571428571</ele><time>2026-03-22T11:04:35.823Z</time></trkpt><trkpt lat="45.6602933" lon="12.2340176"><ele>11.428571428571427</ele><time>2026-03-22T11:04:39.807Z</time></trkpt><trkpt lat="45.6603245" lon="12.2339176"><ele>11.285714285714285</ele><time>2026-03-22T11:04:44.841Z</time></trkpt><trkpt lat="45.6603337" lon="12.2338164"><ele>11.142857142857142</ele><time>2026-03-22T11:04:48.847Z</time></trkpt><trkpt lat="45.6603316" lon="12.2337083"><ele>11.0</ele><time>2026-03-22T11:04:52.783Z</time></trkpt><trkpt lat="45.6603392" lon="12.2336039"><ele>11.0</ele><time>2026-03-22T11:04:56.806Z</time></trkpt><trkpt lat="45.6603476" lon="12.2335042"><ele>11.0</ele><time>2026-03-22T11:05:00.77Z</time></trkpt><trkpt lat="45.6603803" lon="12.2334158"><ele>11.0</ele><time>2026-03-22T11:05:04.808Z</time></trkpt><trkpt lat="45.6604193" lon="12.2333143"><ele>11.0</ele><time>2026-03-22T11:05:08.802Z</time></trkpt><trkpt lat="45.6604445" lon="12.2332058"><ele>11.0</ele><time>2026-03-22T11:05:12.727Z</time></trkpt><trkpt lat="45.6604742" lon="12.2330975"><ele>11.0</ele><time>2026-03-22T11:05:16.682Z</time></trkpt><trkpt lat="45.6605143" lon="12.2330062"><ele>11.0</ele><time>2026-03-22T11:05:20.668Z</time></trkpt><trkpt lat="45.6605503" lon="12.2329145"><ele>11.0</ele><time>2026-03-22T11:05:24.622Z</time></trkpt><trkpt lat="45.6605936" lon="12.2328186"><ele>11.0</ele><time>2026-03-22T11:05:28.628Z</time></trkpt><trkpt lat="45.6606341" lon="12.2327225"><ele>11.0</ele><time>2026-03-22T11:05:32.543Z</time></trkpt><trkpt lat="45.6606716" lon="12.2326219"><ele>11.0</ele><time>2026-03-22T11:05:37.568Z</time></trkpt><trkpt lat="45.66073" lon="12.2325404"><ele>11.0</ele><time>2026-03-22T11:05:41.583Z</time></trkpt><trkpt lat="45.6607824" lon="12.2324828"><ele>11.0</ele><time>2026-03-22T11:05:44.628Z</time></trkpt><trkpt lat="45.6608333" lon="12.2324065"><ele>11.0</ele><time>2026-03-22T11:05:48.624Z</time></trkpt><trkpt lat="45.6608798" lon="12.2323145"><ele>11.0</ele><time>2026-03-22T11:05:52.588Z</time></trkpt><trkpt lat="45.6609205" lon="12.2322415"><ele>11.0</ele><time>2026-03-22T11:05:56.585Z</time></trkpt><trkpt lat="45.6609594" lon="12.2321536"><ele>11.0</ele><time>2026-03-22T11:06:01.506Z</time></trkpt><trkpt lat="45.6610094" lon="12.2320733"><ele>11.0</ele><time>2026-03-22T11:06:05.482Z</time></trkpt><trkpt lat="45.6610686" lon="12.2319883"><ele>11.285714285714286</ele><time>2026-03-22T11:06:09.806Z</time></trkpt><trkpt lat="45.661116" lon="12.2319037"><ele>11.571428571428571</ele><time>2026-03-22T11:06:13.76Z</time></trkpt><trkpt lat="45.6611578" lon="12.2318226"><ele>11.857142857142858</ele><time>2026-03-22T11:06:17.835Z</time></trkpt><trkpt lat="45.6612127" lon="12.2317527"><ele>12.142857142857142</ele><time>2026-03-22T11:06:21.79Z</time></trkpt><trkpt lat="45.6612726" lon="12.2316831"><ele>12.428571428571429</ele><time>2026-03-22T11:06:25.865Z</time></trkpt><trkpt lat="45.6613297" lon="12.2316165"><ele>12.714285714285714</ele><time>2026-03-22T11:06:29.82Z</time></trkpt><trkpt lat="45.6613721" lon="12.2315446"><ele>13.0</ele><time>2026-03-22T11:06:33.775Z</time></trkpt><trkpt lat="45.6614177" lon="12.2314708"><ele>13.0</ele><time>2026-03-22T11:06:37.85Z</time></trkpt><trkpt lat="45.6614839" lon="12.2313973"><ele>13.0</ele><time>2026-03-22T11:06:41.806Z</time></trkpt><trkpt lat="45.6615362" lon="12.2313348"><ele>13.0</ele><time>2026-03-22T11:06:44.802Z</time></trkpt><trkpt lat="45.6615725" lon="12.2312565"><ele>13.0</ele><time>2026-03-22T11:06:47.842Z</time></trkpt><trkpt lat="45.6616201" lon="12.2311828"><ele>13.0</ele><time>2026-03-22T11:06:51.806Z</time></trkpt><trkpt lat="45.6616681" lon="12.2311239"><ele>13.0</ele><time>2026-03-22T11:06:54.802Z</time></trkpt><trkpt lat="45.661711" lon="12.2310565"><ele>13.0</ele><time>2026-03-22T11:06:57.749Z</time></trkpt><trkpt lat="45.6617667" lon="12.2309896"><ele>12.999999999999998</ele><time>2026-03-22T11:07:01.725Z</time></trkpt><trkpt lat="45.661821" lon="12.2309242"><ele>13.0</ele><time>2026-03-22T11:07:05.709Z</time></trkpt><trkpt lat="45.6618724" lon="12.2308381"><ele>13.0</ele><time>2026-03-22T11:07:09.724Z</time></trkpt><trkpt lat="45.6619104" lon="12.230744"><ele>13.0</ele><time>2026-03-22T11:07:14.688Z</time></trkpt><trkpt lat="45.6619582" lon="12.2306588"><ele>12.999999999999998</ele><time>2026-03-22T11:07:18.742Z</time></trkpt><trkpt lat="45.662013" lon="12.2305976"><ele>13.0</ele><time>2026-03-22T11:07:22.748Z</time></trkpt><trkpt lat="45.6620637" lon="12.2305114"><ele>13.142857142857142</ele><time>2026-03-22T11:07:26.782Z</time></trkpt><trkpt lat="45.6621243" lon="12.2304438"><ele>13.285714285714286</ele><time>2026-03-22T11:07:30.808Z</time></trkpt><trkpt lat="45.6621791" lon="12.2303819"><ele>13.428571428571429</ele><time>2026-03-22T11:07:34.843Z</time></trkpt><trkpt lat="45.6622408" lon="12.2303141"><ele>13.571428571428571</ele><time>2026-03-22T11:07:38.887Z</time></trkpt><trkpt lat="45.6623042" lon="12.2302511"><ele>13.714285714285715</ele><time>2026-03-22T11:07:42.81Z</time></trkpt><trkpt lat="45.6623628" lon="12.2301839"><ele>13.857142857142858</ele><time>2026-03-22T11:07:46.766Z</time></trkpt><trkpt lat="45.662406" lon="12.230111"><ele>14.0</ele><time>2026-03-22T11:07:50.84Z</time></trkpt><trkpt lat="45.6624554" lon="12.230038"><ele>14.0</ele><time>2026-03-22T11:07:54.796Z</time></trkpt><trkpt lat="45.6625044" lon="12.2299739"><ele>14.0</ele><time>2026-03-22T11:07:58.752Z</time></trkpt><trkpt lat="45.6625542" lon="12.2299158"><ele>14.0</ele><time>2026-03-22T11:08:02.826Z</time></trkpt><trkpt lat="45.6626056" lon="12.2298578"><ele>14.0</ele><time>2026-03-22T11:08:06.781Z</time></trkpt><trkpt lat="45.6626536" lon="12.2297928"><ele>14.0</ele><time>2026-03-22T11:08:10.736Z</time></trkpt><trkpt lat="45.6627164" lon="12.2297271"><ele>14.0</ele><time>2026-03-22T11:08:14.812Z</time></trkpt><trkpt lat="45.6627682" lon="12.2296723"><ele>14.0</ele><time>2026-03-22T11:08:17.807Z</time></trkpt><trkpt lat="45.6628177" lon="12.2295931"><ele>13.666666666666668</ele><time>2026-03-22T11:08:21.762Z</time></trkpt><trkpt lat="45.6628697" lon="12.2295079"><ele>13.333333333333334</ele><time>2026-03-22T11:08:25.837Z</time></trkpt><trkpt lat="45.6629252" lon="12.2294548"><ele>13.0</ele><time>2026-03-22T11:08:29.793Z</time></trkpt><trkpt lat="45.6629915" lon="12.2293994"><ele>12.666666666666668</ele><time>2026-03-22T11:08:33.749Z</time></trkpt><trkpt lat="45.6630547" lon="12.2293317"><ele>12.333333333333334</ele><time>2026-03-22T11:08:37.824Z</time></trkpt><trkpt lat="45.6631243" lon="12.2292928"><ele>12.0</ele><time>2026-03-22T11:08:41.779Z</time></trkpt><trkpt lat="45.6631902" lon="12.2292365"><ele>11.999999999999998</ele><time>2026-03-22T11:08:45.733Z</time></trkpt><trkpt lat="45.6632469" lon="12.2291858"><ele>12.0</ele><time>2026-03-22T11:08:48.729Z</time></trkpt><trkpt lat="45.6633047" lon="12.2291474"><ele>12.0</ele><time>2026-03-22T11:08:51.727Z</time></trkpt><trkpt lat="45.6633552" lon="12.2290894"><ele>12.0</ele><time>2026-03-22T11:08:55.801Z</time></trkpt><trkpt lat="45.6634069" lon="12.229004"><ele>12.0</ele><time>2026-03-22T11:09:02.752Z</time></trkpt><trkpt lat="45.6634833" lon="12.2289669"><ele>11.999999999999998</ele><time>2026-03-22T11:09:07.786Z</time></trkpt><trkpt lat="45.6635546" lon="12.2289324"><ele>12.0</ele><time>2026-03-22T11:09:11.741Z</time></trkpt><trkpt lat="45.6636187" lon="12.2289185"><ele>12.285714285714285</ele><time>2026-03-22T11:09:14.737Z</time></trkpt><trkpt lat="45.6636878" lon="12.2289365"><ele>12.571428571428571</ele><time>2026-03-22T11:09:18.812Z</time></trkpt><trkpt lat="45.66375" lon="12.2289049"><ele>12.857142857142858</ele><time>2026-03-22T11:09:22.768Z</time></trkpt><trkpt lat="45.6638112" lon="12.2288554"><ele>13.142857142857142</ele><time>2026-03-22T11:09:27.844Z</time></trkpt><trkpt lat="45.663875" lon="12.2288054"><ele>13.428571428571429</ele><time>2026-03-22T11:09:31.77Z</time></trkpt><trkpt lat="45.663949" lon="12.2288282"><ele>13.714285714285714</ele><time>2026-03-22T11:09:35.765Z</time></trkpt><trkpt lat="45.6640069" lon="12.2288697"><ele>14.0</ele><time>2026-03-22T11:09:38.781Z</time></trkpt><trkpt lat="45.6640904" lon="12.2288621"><ele>14.000000000000002</ele><time>2026-03-22T11:09:42.809Z</time></trkpt><trkpt lat="45.6641681" lon="12.2288616"><ele>14.0</ele><time>2026-03-22T11:09:46.741Z</time></trkpt><trkpt lat="45.664249" lon="12.2288534"><ele>14.0</ele><time>2026-03-22T11:09:50.686Z</time></trkpt><trkpt lat="45.6643262" lon="12.2288269"><ele>14.0</ele><time>2026-03-22T11:09:54.641Z</time></trkpt><trkpt lat="45.6643911" lon="12.2287933"><ele>14.000000000000002</ele><time>2026-03-22T11:09:58.688Z</time></trkpt><trkpt lat="45.6644626" lon="12.2287598"><ele>14.0</ele><time>2026-03-22T11:10:02.602Z</time></trkpt><trkpt lat="45.664539" lon="12.2287589"><ele>14.285714285714285</ele><time>2026-03-22T11:10:06.508Z</time></trkpt><trkpt lat="45.6646069" lon="12.2287331"><ele>14.571428571428571</ele><time>2026-03-22T11:10:12.431Z</time></trkpt><trkpt lat="45.6646773" lon="12.2287309"><ele>14.857142857142858</ele><time>2026-03-22T11:10:17.363Z</time></trkpt><trkpt lat="45.6647404" lon="12.2287474"><ele>15.142857142857142</ele><time>2026-03-22T11:10:20.301Z</time></trkpt><trkpt lat="45.6648215" lon="12.2287612"><ele>15.428571428571427</ele><time>2026-03-22T11:10:24.245Z</time></trkpt><trkpt lat="45.6649015" lon="12.2287583"><ele>15.714285714285714</ele><time>2026-03-22T11:10:28.16Z</time></trkpt><trkpt lat="45.6649644" lon="12.2287724"><ele>16.0</ele><time>2026-03-22T11:10:31.067Z</time></trkpt><trkpt lat="45.6650442" lon="12.2287714"><ele>16.0</ele><time>2026-03-22T11:10:35.043Z</time></trkpt><trkpt lat="45.6651087" lon="12.2287829"><ele>15.999999999999998</ele><time>2026-03-22T11:10:38.032Z</time></trkpt><trkpt lat="45.6651843" lon="12.2287915"><ele>16.0</ele><time>2026-03-22T11:10:42.063Z</time></trkpt><trkpt lat="45.6652582" lon="12.2287833"><ele>16.0</ele><time>2026-03-22T11:10:46.044Z</time></trkpt><trkpt lat="45.665336" lon="12.2287852"><ele>15.999999999999998</ele><time>2026-03-22T11:10:49.984Z</time></trkpt><trkpt lat="45.6654021" lon="12.2287789"><ele>16.0</ele><time>2026-03-22T11:10:52.902Z</time></trkpt><trkpt lat="45.6654733" lon="12.2287474"><ele>16.0</ele><time>2026-03-22T11:10:55.927Z</time></trkpt><trkpt lat="45.6655387" lon="12.2287294"><ele>16.333333333333332</ele><time>2026-03-22T11:10:58.922Z</time></trkpt><trkpt lat="45.6656014" lon="12.2287142"><ele>16.666666666666664</ele><time>2026-03-22T11:11:02.929Z</time></trkpt><trkpt lat="45.6656781" lon="12.2287013"><ele>17.0</ele><time>2026-03-22T11:11:07.961Z</time></trkpt><trkpt lat="45.6657594" lon="12.2286852"><ele>17.333333333333332</ele><time>2026-03-22T11:11:11.986Z</time></trkpt><trkpt lat="45.6658399" lon="12.2286713"><ele>17.666666666666668</ele><time>2026-03-22T11:11:16.021Z</time></trkpt><trkpt lat="45.6659136" lon="12.2286265"><ele>18.0</ele><time>2026-03-22T11:11:20.108Z</time></trkpt><trkpt lat="45.6659897" lon="12.2286196"><ele>18.000000000000004</ele><time>2026-03-22T11:11:24.121Z</time></trkpt><trkpt lat="45.6660557" lon="12.2286423"><ele>18.0</ele><time>2026-03-22T11:11:29.204Z</time></trkpt><trkpt lat="45.6661289" lon="12.228667"><ele>18.0</ele><time>2026-03-22T11:11:34.209Z</time></trkpt><trkpt lat="45.6662076" lon="12.2286666"><ele>18.0</ele><time>2026-03-22T11:11:39.163Z</time></trkpt><trkpt lat="45.6662748" lon="12.2286664"><ele>18.0</ele><time>2026-03-22T11:11:42.168Z</time></trkpt><trkpt lat="45.6663356" lon="12.2285962"><ele>18.000000000000004</ele><time>2026-03-22T11:11:46.143Z</time></trkpt><trkpt lat="45.6663361" lon="12.2284892"><ele>18.0</ele><time>2026-03-22T11:11:50.149Z</time></trkpt><trkpt lat="45.6663123" lon="12.2284042"><ele>18.142857142857146</ele><time>2026-03-22T11:11:53.145Z</time></trkpt><trkpt lat="45.666274" lon="12.2283324"><ele>18.285714285714285</ele><time>2026-03-22T11:11:56.183Z</time></trkpt><trkpt lat="45.6662216" lon="12.2282414"><ele>18.42857142857143</ele><time>2026-03-22T11:12:00.186Z</time></trkpt><trkpt lat="45.6661926" lon="12.2281594"><ele>18.571428571428573</ele><time>2026-03-22T11:12:04.241Z</time></trkpt><trkpt lat="45.6661881" lon="12.2280459"><ele>18.714285714285715</ele><time>2026-03-22T11:12:09.245Z</time></trkpt><trkpt lat="45.6661886" lon="12.2279349"><ele>18.857142857142858</ele><time>2026-03-22T11:12:13.249Z</time></trkpt><trkpt lat="45.6661795" lon="12.2278229"><ele>19.0</ele><time>2026-03-22T11:12:17.145Z</time></trkpt><trkpt lat="45.6661703" lon="12.2277093"><ele>18.71428571428571</ele><time>2026-03-22T11:12:21.171Z</time></trkpt><trkpt lat="45.6661492" lon="12.2276058"><ele>18.42857142857143</ele><time>2026-03-22T11:12:25.105Z</time></trkpt><trkpt lat="45.6661563" lon="12.2275051"><ele>18.142857142857142</ele><time>2026-03-22T11:12:29.131Z</time></trkpt><trkpt lat="45.6661465" lon="12.2273924"><ele>17.857142857142854</ele><time>2026-03-22T11:12:33.104Z</time></trkpt><trkpt lat="45.6661235" lon="12.2272821"><ele>17.57142857142857</ele><time>2026-03-22T11:12:37.17Z</time></trkpt><trkpt lat="45.666104" lon="12.2271875"><ele>17.285714285714285</ele><time>2026-03-22T11:12:41.106Z</time></trkpt><trkpt lat="45.6660569" lon="12.2271141"><ele>17.0</ele><time>2026-03-22T11:12:45.13Z</time></trkpt><trkpt lat="45.6659984" lon="12.227046"><ele>16.857142857142854</ele><time>2026-03-22T11:12:49.085Z</time></trkpt><trkpt lat="45.6659334" lon="12.2269882"><ele>16.714285714285715</ele><time>2026-03-22T11:12:53.07Z</time></trkpt><trkpt lat="45.6658979" lon="12.2269083"><ele>16.57142857142857</ele><time>2026-03-22T11:12:57.087Z</time></trkpt><trkpt lat="45.6659572" lon="12.2268324"><ele>16.428571428571427</ele><time>2026-03-22T11:13:02.048Z</time></trkpt><trkpt lat="45.6660323" lon="12.2267823"><ele>16.285714285714285</ele><time>2026-03-22T11:13:06.063Z</time></trkpt><trkpt lat="45.6660773" lon="12.226707"><ele>16.142857142857142</ele><time>2026-03-22T11:13:09.019Z</time></trkpt><trkpt lat="45.6660986" lon="12.2266126"><ele>16.0</ele><time>2026-03-22T11:13:11.967Z</time></trkpt><trkpt lat="45.6661021" lon="12.2265115"><ele>16.0</ele><time>2026-03-22T11:13:15.982Z</time></trkpt><trkpt lat="45.6660928" lon="12.2264133"><ele>16.0</ele><time>2026-03-22T11:13:20.007Z</time></trkpt><trkpt lat="45.6660769" lon="12.2263015"><ele>16.0</ele><time>2026-03-22T11:13:25.012Z</time></trkpt><trkpt lat="45.6660584" lon="12.2262119"><ele>16.0</ele><time>2026-03-22T11:13:28.702Z</time></trkpt><trkpt lat="45.6660517" lon="12.2261097"><ele>16.0</ele><time>2026-03-22T11:13:32.777Z</time></trkpt><trkpt lat="45.6660071" lon="12.2260325"><ele>16.0</ele><time>2026-03-22T11:13:36.732Z</time></trkpt><trkpt lat="45.6659792" lon="12.2259281"><ele>16.0</ele><time>2026-03-22T11:13:41.766Z</time></trkpt></trkseg></trk></gpx>